Provisional Data: Snake Creek near Lawsville Center, PA


Please select a monitoring station.
Please select start date.
Please select start date.

Toggle Unit: C/F Toggle Unit: C/F
Sample Time Temperature (C) Temperature (F) Specific Conductivity (mS/cm) pH   Turbidity (NTU+) DO (mg/L)
10/17/2022 12:00:00 AM 10.17 50.306 0.057 6.9 121.51 7.3
10/17/2022 12:15:00 AM 10.1 50.18 0.057 6.9 121.42 7.34
10/17/2022 12:30:00 AM 10.03 50.054 0.057 6.9 121.38 7.39
10/17/2022 12:45:00 AM 9.96 49.928 0.057 6.9 121.33 7.47
10/17/2022 1:00:00 AM 9.89 49.802 0.057 6.9 121.33 7.5
10/17/2022 1:15:00 AM 9.82 49.676 0.057 6.9 121.39 7.53
10/17/2022 1:30:00 AM 9.75 49.55 0.057 6.89 121.32 7.58
10/17/2022 1:45:00 AM 9.69 49.442 0.057 6.9 121.31 7.63
10/17/2022 2:00:00 AM 9.63 49.334 0.057 6.9 121.24 7.66
10/17/2022 2:15:00 AM 9.56 49.208 0.057 6.9 121.24 7.69
10/17/2022 2:30:00 AM 9.5 49.1 0.057 6.9 121.42 7.76
10/17/2022 2:45:00 AM 9.45 49.01 0.057 6.9 121.25 7.83
10/17/2022 3:00:00 AM 9.39 48.902 0.057 6.9 121.24 7.83
10/17/2022 3:15:00 AM 9.33 48.794 0.057 6.9 121.29 7.82
10/17/2022 3:30:00 AM 9.27 48.686 0.057 6.9 121.32 7.83
10/17/2022 3:45:00 AM 9.22 48.596 0.057 6.91 121.43 7.86
10/17/2022 4:00:00 AM 9.16 48.488 0.057 6.91 121.35 7.86
10/17/2022 4:15:00 AM 9.11 48.398 0.057 6.91 121.3 7.88
10/17/2022 4:30:00 AM 9.05 48.29 0.057 6.91 121.24 7.86
10/17/2022 4:45:00 AM 9 48.2 0.057 6.9 121.22 7.87
10/17/2022 5:00:00 AM 8.95 48.11 0.058 6.91 121.15 7.88
10/17/2022 5:15:00 AM 8.9 48.02 0.058 6.91 121.19 7.89
10/17/2022 5:30:00 AM 8.85 47.93 0.058 6.91 121.13 7.84
10/17/2022 5:45:00 AM 8.81 47.858 0.058 6.91 121.2 7.77
10/17/2022 6:00:00 AM 8.77 47.786 0.058 6.91 121.22 7.74
10/17/2022 6:15:00 AM 8.73 47.714 0.058 6.91 121.25 7.7
10/17/2022 6:30:00 AM 8.69 47.642 0.058 6.91 121.42 7.68
10/17/2022 6:45:00 AM 8.66 47.588 0.058 6.92 121.29 7.72
10/17/2022 7:00:00 AM 8.63 47.534 0.058 6.92 121.44 7.75
10/17/2022 7:15:00 AM 8.6 47.48 0.058 6.92 121.39 7.77
10/17/2022 7:30:00 AM 8.57 47.426 0.058 6.92 121.33 7.8
10/17/2022 7:45:00 AM 8.55 47.39 0.058 6.92 121.31 7.84
10/17/2022 8:00:00 AM 8.54 47.372 0.058 6.92 121.3 7.88
10/17/2022 8:15:00 AM 8.52 47.336 0.058 6.91 121.38 7.91
10/17/2022 8:30:00 AM 8.52 47.336 0.058 6.92 121.29 7.97
10/17/2022 8:45:00 AM 8.52 47.336 0.058 6.92 121.3 8.03
10/17/2022 9:00:00 AM 8.52 47.336 0.058 6.92 121.31 8.09
10/17/2022 9:15:00 AM 8.54 47.372 0.058 6.92 121.33 8.18
10/17/2022 9:30:00 AM 8.56 47.408 0.058 6.92 121.35 8.33
10/17/2022 9:45:00 AM 8.59 47.462 0.058 6.93 121.38 8.46
10/17/2022 10:00:00 AM 8.62 47.516 0.058 6.92 121.31 8.54
10/17/2022 10:15:00 AM 8.67 47.606 0.058 6.93 121.42 8.63
10/17/2022 10:30:00 AM 8.71 47.678 0.058 6.93 121.38 8.69
10/17/2022 10:45:00 AM 8.77 47.786 0.058 6.93 121.41 8.76
10/17/2022 11:00:00 AM 8.82 47.876 0.058 6.78 121.39 8.84
10/17/2022 11:15:00 AM 8.87 47.966 0.058 6.75 121.47 8.89
10/17/2022 11:30:00 AM 8.93 48.074 0.058 6.9 121.51 8.9
10/17/2022 11:45:00 AM 9 48.2 0.058 6.93 121.56 8.93
10/17/2022 12:00:00 PM 9.07 48.326 0.058 6.93 121.63 8.97
10/17/2022 12:15:00 PM 9.16 48.488 0.057 6.93 121.62 8.99
10/17/2022 12:30:00 PM 9.24 48.632 0.057 6.93 121.58 8.98
10/17/2022 12:45:00 PM 9.32 48.776 0.057 6.92 121.54 9
10/17/2022 1:00:00 PM 9.4 48.92 0.057 6.92 121.58 9.04
10/17/2022 1:15:00 PM 9.49 49.082 0.057 6.92 121.66 9.05
10/17/2022 1:30:00 PM 9.6 49.28 0.057 6.92 121.67 9.06
10/17/2022 1:45:00 PM 9.71 49.478 0.057 6.91 121.81 9.07
10/17/2022 2:00:00 PM 9.83 49.694 0.057 6.92 121.75 9.08
10/17/2022 2:15:00 PM 9.95 49.91 0.057 6.91 121.82 9.12
10/17/2022 2:30:00 PM 10.07 50.126 0.057 6.91 121.89 9.17
10/17/2022 2:45:00 PM 10.17 50.306 0.057 6.91 121.98 9.18
10/17/2022 3:00:00 PM 10.25 50.45 0.057 6.91 121.84 9.17
10/17/2022 3:15:00 PM 10.32 50.576 0.057 6.9 121.89 9.13
10/17/2022 3:30:00 PM 10.37 50.666 0.057 6.91 121.84 9.07
10/17/2022 3:45:00 PM 10.42 50.756 0.057 6.91 121.83 8.99
10/17/2022 4:00:00 PM 10.46 50.828 0.057 6.9 121.79 8.9
10/17/2022 4:15:00 PM 10.49 50.882 0.057 6.91 121.79 8.84
10/17/2022 4:30:00 PM 10.5 50.9 0.056 6.91 121.75 8.76
10/17/2022 4:45:00 PM 10.51 50.918 0.056 6.9 121.96 8.66
10/17/2022 5:00:00 PM 10.52 50.936 0.056 6.9 121.94 8.54
10/17/2022 5:15:00 PM 10.53 50.954 0.056 6.9 121.78 8.43
10/17/2022 5:30:00 PM 10.53 50.954 0.056 6.9 121.76 8.3
10/17/2022 5:45:00 PM 10.53 50.954 0.057 6.9 121.8 8.22
10/17/2022 6:00:00 PM 10.52 50.936 0.057 6.9 121.66 8.17
10/17/2022 6:15:00 PM 10.51 50.918 0.057 6.89 121.67 8.04
10/17/2022 6:30:00 PM 10.49 50.882 0.057 6.9 121.71 7.93
10/17/2022 6:45:00 PM 10.47 50.846 0.057 6.89 121.88 7.9
10/17/2022 7:00:00 PM 10.45 50.81 0.057 6.89 121.78 7.83
10/17/2022 7:15:00 PM 10.42 50.756 0.057 6.89 121.76 7.81
10/17/2022 7:30:00 PM 10.39 50.702 0.057 6.89 121.86 7.84
10/17/2022 7:45:00 PM 10.35 50.63 0.057 6.9 121.85 7.83
10/17/2022 8:00:00 PM 10.32 50.576 0.057 6.9 121.82 7.83
10/17/2022 8:15:00 PM 10.28 50.504 0.057 6.9 121.77 7.85
10/17/2022 8:30:00 PM 10.24 50.432 0.057 6.89 121.67 7.81
10/17/2022 8:45:00 PM 10.2 50.36 0.057 6.89 121.67 7.78
10/17/2022 9:00:00 PM 10.16 50.288 0.057 6.89 121.7 7.77
10/17/2022 9:15:00 PM 10.12 50.216 0.057 6.89 121.79 7.76
10/17/2022 9:30:00 PM 10.08 50.144 0.057 6.89 121.63 7.85
10/17/2022 9:45:00 PM 10.04 50.072 0.057 6.89 121.95 7.96
10/17/2022 10:00:00 PM 10 50 0.057 6.89 121.96 8
10/17/2022 10:15:00 PM 9.96 49.928 0.057 6.89 121.65 8.03
10/17/2022 10:30:00 PM 9.92 49.856 0.057 6.89 121.67 8.05
10/17/2022 10:45:00 PM 9.88 49.784 0.057 6.89 121.8 8.07
10/17/2022 11:00:00 PM 9.84 49.712 0.057 6.89 121.68 8.11
10/17/2022 11:15:00 PM 9.8 49.64 0.057 6.89 121.93 8.15
10/17/2022 11:30:00 PM 9.76 49.568 0.057 6.89 122.01 8.2
10/17/2022 11:45:00 PM 9.73 49.514 0.057 6.89 122 8.06
10/18/2022 12:00:00 AM 9.68 49.424 0.057 6.89 121.71 7.65
10/18/2022 12:15:00 AM 9.64 49.352 0.057 6.89 122.11 7.45
10/18/2022 12:30:00 AM 9.59 49.262 0.057 6.89 122.04 7.5
10/18/2022 12:45:00 AM 9.54 49.172 0.057 6.89 121.61 7.7
10/18/2022 1:00:00 AM 9.48 49.064 0.057 6.9 121.6 7.68
10/18/2022 1:15:00 AM 9.42 48.956 0.057 6.9 121.61 7.7
10/18/2022 1:30:00 AM 9.36 48.848 0.057 6.89 121.79 7.73
10/18/2022 1:45:00 AM 9.3 48.74 0.057 6.9 121.84 7.9
10/18/2022 2:00:00 AM 9.24 48.632 0.057 6.9 122.02 8.03
10/18/2022 2:15:00 AM 9.18 48.524 0.057 6.9 122.07 8.06
10/18/2022 2:30:00 AM 9.12 48.416 0.057 6.89 121.98 8.08
10/18/2022 2:45:00 AM 9.06 48.308 0.057 6.9 121.88 8.15
10/18/2022 3:00:00 AM 9 48.2 0.057 6.9 121.9 8.21
10/18/2022 3:15:00 AM 8.94 48.092 0.057 6.9 121.93 8.25
10/18/2022 3:30:00 AM 8.87 47.966 0.057 6.9 121.77 8.22
10/18/2022 3:45:00 AM 8.81 47.858 0.057 6.9 121.89 8.22
10/18/2022 4:00:00 AM 8.75 47.75 0.057 6.9 121.95 8.35
10/18/2022 4:15:00 AM 8.68 47.624 0.057 6.9 121.73 8.43
10/18/2022 4:30:00 AM 8.62 47.516 0.057 6.91 121.71 8.42
10/18/2022 4:45:00 AM 8.55 47.39 0.057 6.9 121.7 8.4
10/18/2022 5:00:00 AM 8.48 47.264 0.057 6.91 121.72 8.37
10/18/2022 5:15:00 AM 8.41 47.138 0.057 6.9 121.81 8.37
10/18/2022 5:30:00 AM 8.34 47.012 0.057 6.91 121.94 8.36
10/18/2022 5:45:00 AM 8.27 46.886 0.057 6.91 121.85 8.33
10/18/2022 6:00:00 AM 8.2 46.76 0.057 6.91 121.7 8.32
10/18/2022 6:15:00 AM 8.14 46.652 0.057 6.91 121.63 8.16
10/18/2022 6:30:00 AM 8.08 46.544 0.057 6.92 121.8 8.02
10/18/2022 6:45:00 AM 8.02 46.436 0.057 6.92 121.73 8.02
10/18/2022 7:00:00 AM 7.95 46.31 0.057 6.92 121.81 7.98
10/18/2022 7:15:00 AM 7.89 46.202 0.057 6.92 121.79 7.74
10/18/2022 7:30:00 AM 7.84 46.112 0.057 6.92 121.71 7.51
10/18/2022 7:45:00 AM 7.79 46.022 0.057 6.92 121.59 7.18
10/18/2022 8:00:00 AM 7.74 45.932 0.057 6.92 121.56 6.53
10/18/2022 8:15:00 AM 7.69 45.842 0.057 6.93 121.64 6.21
10/18/2022 8:30:00 AM 7.63 45.734 0.057 6.93 121.65 6.33
10/18/2022 8:45:00 AM 7.58 45.644 0.057 6.92 121.53 6.46
10/18/2022 9:00:00 AM 7.54 45.572 0.057 6.93 121.73 6.58
10/18/2022 9:15:00 AM 7.5 45.5 0.057 6.93 121.43 6.77
10/18/2022 9:30:00 AM 7.46 45.428 0.057 6.93 121.59 6.93
10/18/2022 9:45:00 AM 7.43 45.374 0.057 6.93 121.62 7.09
10/18/2022 10:00:00 AM 7.42 45.356 0.057 6.93 121.55 7.23
10/18/2022 10:15:00 AM 7.42 45.356 0.057 6.93 121.76 7.4
10/18/2022 10:30:00 AM 7.43 45.374 0.057 6.94 121.58 7.75
10/18/2022 10:45:00 AM 7.46 45.428 0.057 6.94 121.56 8.27
10/18/2022 11:00:00 AM 7.5 45.5 0.057 6.94 121.66 8.69
10/18/2022 11:15:00 AM 7.57 45.626 0.056 6.94 121.6 8.97
10/18/2022 11:30:00 AM 7.65 45.77 0.056 6.94 121.74 9.2
10/18/2022 11:45:00 AM 7.74 45.932 0.064 6.94 121.8 9.36
10/18/2022 12:00:00 PM 7.81 46.058 0.065 6.94 121.87 9.53
10/18/2022 12:15:00 PM 7.88 46.184 0.064 6.94 121.7 9.64
10/18/2022 12:30:00 PM 7.96 46.328 0.062 6.94 121.53 9.73
10/18/2022 12:45:00 PM 8.06 46.508 0.059 6.94 121.61 9.85
10/18/2022 1:00:00 PM 8.17 46.706 0.058 6.93 121.66 9.91
10/18/2022 1:15:00 PM 8.29 46.922 0.057 6.94 121.81 9.97
10/18/2022 1:30:00 PM 8.41 47.138 0.057 6.94 121.86 10.01
10/18/2022 1:45:00 PM 8.51 47.318 0.056 6.94 121.73 10
10/18/2022 2:00:00 PM 8.61 47.498 0.056 6.94 121.57 9.99
10/18/2022 2:15:00 PM 8.69 47.642 0.056 6.93 121.58 9.96
10/18/2022 2:30:00 PM 8.77 47.786 0.056 6.94 121.66 9.95
10/18/2022 2:45:00 PM 8.84 47.912 0.056 6.93 121.8 9.92
10/18/2022 3:00:00 PM 8.92 48.056 0.056 6.93 121.91 9.88
10/18/2022 3:15:00 PM 8.99 48.182 0.056 6.93 121.97 9.85
10/18/2022 3:30:00 PM 9.05 48.29 0.056 6.93 122.06 9.82
10/18/2022 3:45:00 PM 9.11 48.398 0.056 6.93 121.86 9.79
10/18/2022 4:00:00 PM 9.15 48.47 0.056 6.93 121.78 9.74
10/18/2022 4:15:00 PM 9.18 48.524 0.056 6.93 121.75 9.7
10/18/2022 4:30:00 PM 9.2 48.56 0.056 6.93 121.99 9.65
10/18/2022 4:45:00 PM 9.22 48.596 0.057 6.93 121.86 9.58
10/18/2022 5:00:00 PM 9.23 48.614 0.057 6.93 121.72 9.53
10/18/2022 5:15:00 PM 9.22 48.596 0.057 6.93 121.84 9.47
10/18/2022 5:30:00 PM 9.21 48.578 0.059 6.92 121.82 9.41
10/18/2022 5:45:00 PM 9.2 48.56 0.061 6.92 122.12 9.34
10/18/2022 6:00:00 PM 9.17 48.506 0.06 6.92 122.19 9.25
10/18/2022 6:15:00 PM 9.15 48.47 0.06 6.92 122.13 9.17
10/18/2022 6:30:00 PM 9.13 48.434 0.06 6.92 122.12 9.05
10/18/2022 6:45:00 PM 9.11 48.398 0.06 6.92 122.17 8.96
10/18/2022 7:00:00 PM 9.09 48.362 0.06 6.91 122.26 8.89
10/18/2022 7:15:00 PM 9.07 48.326 0.06 6.92 122.19 8.84
10/18/2022 7:30:00 PM 9.04 48.272 0.057 6.92 122.18 8.77
10/18/2022 7:45:00 PM 9 48.2 0.057 6.91 121.98 8.68
10/18/2022 8:00:00 PM 8.95 48.11 0.056 6.91 121.94 8.6
10/18/2022 8:15:00 PM 8.9 48.02 0.056 6.92 122.13 8.55
10/18/2022 8:30:00 PM 8.84 47.912 0.056 6.92 122.06 8.5
10/18/2022 8:45:00 PM 8.79 47.822 0.056 6.92 121.95 8.43
10/18/2022 9:00:00 PM 8.73 47.714 0.056 6.91 121.78 8.39
10/18/2022 9:15:00 PM 8.68 47.624 0.056 6.91 121.79 8.4
10/18/2022 9:30:00 PM 8.62 47.516 0.056 6.92 122.05 8.47
10/18/2022 9:45:00 PM 8.56 47.408 0.056 6.92 122.08 8.46
10/18/2022 10:00:00 PM 8.5 47.3 0.056 6.92 121.92 8.42
10/18/2022 10:15:00 PM 8.44 47.192 0.056 6.92 121.78 8.37
10/18/2022 10:30:00 PM 8.38 47.084 0.056 6.92 122.27 8.24
10/18/2022 10:45:00 PM 8.31 46.958 0.056 6.92 122.04 8.11
10/18/2022 11:00:00 PM 8.25 46.85 0.056 6.92 122.13 8.09
10/18/2022 11:15:00 PM 8.18 46.724 0.056 6.92 122.1 8.13
10/18/2022 11:30:00 PM 8.12 46.616 0.056 6.93 122.17 8.18
10/18/2022 11:45:00 PM 8.05 46.49 0.056 6.92 121.94 8.17
10/19/2022 12:00:00 AM 7.98 46.364 0.056 6.93 121.99 8.18
10/19/2022 12:15:00 AM 7.92 46.256 0.056 6.93 122.08 8.2
10/19/2022 12:30:00 AM 7.85 46.13 0.056 6.92 122.07 8.29
10/19/2022 12:45:00 AM 7.79 46.022 0.057 6.93 122.06 8.38
10/19/2022 1:00:00 AM 7.73 45.914 0.057 6.93 121.89 8.57
10/19/2022 1:15:00 AM 7.66 45.788 0.057 6.93 121.65 8.66
10/19/2022 1:30:00 AM 7.59 45.662 0.057 6.93 121.67 8.67
10/19/2022 1:45:00 AM 7.53 45.554 0.057 6.93 121.67 8.57
10/19/2022 2:00:00 AM 7.47 45.446 0.057 6.93 121.66 8.52
10/19/2022 2:15:00 AM 7.4 45.32 0.057 6.93 121.65 8.6
10/19/2022 2:30:00 AM 7.35 45.23 0.057 6.93 121.69 8.58
10/19/2022 2:45:00 AM 7.29 45.122 0.057 6.93 121.69 8.52
10/19/2022 3:00:00 AM 7.23 45.014 0.057 6.93 121.71 8.51
10/19/2022 3:15:00 AM 7.17 44.906 0.057 6.93 121.9 8.5
10/19/2022 3:30:00 AM 7.11 44.798 0.057 6.94 121.69 8.53
10/19/2022 3:45:00 AM 7.06 44.708 0.057 6.94 121.66 8.54
10/19/2022 4:00:00 AM 7 44.6 0.057 6.94 121.67 8.54
10/19/2022 4:15:00 AM 6.95 44.51 0.057 6.94 121.7 8.5
10/19/2022 4:30:00 AM 6.89 44.402 0.057 6.94 121.68 8.51
10/19/2022 4:45:00 AM 6.84 44.312 0.056 6.94 121.59 8.49
10/19/2022 5:00:00 AM 6.78 44.204 0.056 6.94 121.83 8.54
10/19/2022 5:15:00 AM 6.73 44.114 0.056 6.95 121.9 8.58
10/19/2022 5:30:00 AM 6.68 44.024 0.056 6.95 121.88 8.58
10/19/2022 5:45:00 AM 6.63 43.934 0.056 6.95 121.83 8.6
10/19/2022 6:00:00 AM 6.58 43.844 0.056 6.95 121.87 8.58
10/19/2022 6:15:00 AM 6.54 43.772 0.056 6.95 121.8 8.57
10/19/2022 6:30:00 AM 6.51 43.718 0.056 6.95 121.84 8.57
10/19/2022 6:45:00 AM 6.48 43.664 0.056 6.95 121.72 8.6
10/19/2022 7:00:00 AM 6.46 43.628 0.056 6.96 121.71 8.6
10/19/2022 7:15:00 AM 6.44 43.592 0.056 6.96 121.78 8.62
10/19/2022 7:30:00 AM 6.42 43.556 0.056 6.96 121.71 8.64
10/19/2022 7:45:00 AM 6.4 43.52 0.056 6.96 121.77 8.6
10/19/2022 8:00:00 AM 6.39 43.502 0.056 6.96 121.63 8.56
10/19/2022 8:15:00 AM 6.38 43.484 0.056 6.96 121.7 8.53
10/19/2022 8:30:00 AM 6.38 43.484 0.056 6.96 121.76 8.51
10/19/2022 8:45:00 AM 6.38 43.484 0.056 6.96 121.85 8.52
10/19/2022 9:00:00 AM 6.38 43.484 0.056 6.96 121.8 8.52
10/19/2022 9:15:00 AM 6.39 43.502 0.056 6.96 121.75 8.57
10/19/2022 9:30:00 AM 6.41 43.538 0.056 6.96 121.93 8.7
10/19/2022 9:45:00 AM 6.42 43.556 0.056 6.96 122.02 8.78
10/19/2022 10:00:00 AM 6.45 43.61 0.056 6.96 121.77 8.82
10/19/2022 10:15:00 AM 6.48 43.664 0.056 6.96 121.73 8.88
10/19/2022 10:30:00 AM 6.52 43.736 0.056 6.96 121.87 8.88
10/19/2022 10:45:00 AM 6.56 43.808 0.056 6.96 121.88 8.99
10/19/2022 11:00:00 AM 6.59 43.862 0.056 6.96 121.85 9.12
10/19/2022 11:15:00 AM 6.63 43.934 0.056 6.96 121.98 9.19
10/19/2022 11:30:00 AM 6.68 44.024 0.056 6.96 122.18 9.24
10/19/2022 11:45:00 AM 6.72 44.096 0.056 6.96 122.24 9.3
10/19/2022 12:00:00 PM 6.76 44.168 0.056 6.96 122.13 9.32
10/19/2022 12:15:00 PM 6.8 44.24 0.056 6.96 122.37 9.37
10/19/2022 12:30:00 PM 6.85 44.33 0.056 6.96 122.11 9.4
10/19/2022 12:45:00 PM 6.89 44.402 0.055 6.95 121.94 9.4
10/19/2022 1:00:00 PM 6.93 44.474 0.055 6.95 121.99 9.39
10/19/2022 1:15:00 PM 6.98 44.564 0.055 6.96 122.12 9.42
10/19/2022 1:30:00 PM 7.02 44.636 0.055 6.95 121.99 9.46
10/19/2022 1:45:00 PM 7.06 44.708 0.055 6.95 122.07 9.49
10/19/2022 2:00:00 PM 7.1 44.78 0.055 6.95 122.01 9.47
10/19/2022 2:15:00 PM 7.15 44.87 0.055 6.95 122.08 9.48
10/19/2022 2:30:00 PM 7.2 44.96 0.055 6.95 122 9.46
10/19/2022 2:45:00 PM 7.25 45.05 0.055 6.95 122.02 9.44
10/19/2022 3:00:00 PM 7.29 45.122 0.055 6.95 122.01 9.41
10/19/2022 3:15:00 PM 7.34 45.212 0.055 6.95 121.99 9.34
10/19/2022 3:30:00 PM 7.37 45.266 0.055 6.95 121.99 9.25
10/19/2022 3:45:00 PM 7.4 45.32 0.055 6.95 121.89 9.36
10/19/2022 4:00:00 PM 7.43 45.374 0.055 6.95 121.95 9.36
10/19/2022 4:15:00 PM 7.46 45.428 0.055 6.95 122.02 9.31
10/19/2022 4:30:00 PM 7.49 45.482 0.055 6.95 122 9.3
10/19/2022 4:45:00 PM 7.52 45.536 0.055 6.94 122 9.33
10/19/2022 5:00:00 PM 7.54 45.572 0.055 6.95 122.05 9.3
10/19/2022 5:15:00 PM 7.57 45.626 0.055 6.95 122.05 9.26
10/19/2022 5:30:00 PM 7.59 45.662 0.055 6.94 122.08 9.23
10/19/2022 5:45:00 PM 7.62 45.716 0.055 6.94 122.07 9.22
10/19/2022 6:00:00 PM 7.63 45.734 0.055 6.94 122.09 9.21
10/19/2022 6:15:00 PM 7.64 45.752 0.055 6.94 122.07 9.17
10/19/2022 6:30:00 PM 7.64 45.752 0.055 6.94 122.08 9.1
10/19/2022 6:45:00 PM 7.64 45.752 0.055 6.94 122.25 8.99
10/19/2022 7:00:00 PM 7.63 45.734 0.055 6.94 122.18 8.89
10/19/2022 7:15:00 PM 7.62 45.716 0.055 6.94 122.31 8.77
10/19/2022 7:30:00 PM 7.61 45.698 0.055 6.94 122.32 8.65
10/19/2022 7:45:00 PM 7.59 45.662 0.055 6.94 122.15 8.6
10/19/2022 8:00:00 PM 7.57 45.626 0.055 6.94 122.18 8.51
10/19/2022 8:15:00 PM 7.55 45.59 0.055 6.94 122.23 8.39
10/19/2022 8:30:00 PM 7.53 45.554 0.055 6.94 122.19 8.27
10/19/2022 8:45:00 PM 7.5 45.5 0.055 6.94 122.41 8.21
10/19/2022 9:00:00 PM 7.47 45.446 0.055 6.94 122.41 8.1
10/19/2022 9:15:00 PM 7.45 45.41 0.055 6.94 122.24 7.96
10/19/2022 9:30:00 PM 7.42 45.356 0.055 6.93 122.22 7.88
10/19/2022 9:45:00 PM 7.39 45.302 0.055 6.93 122.06 7.8
10/19/2022 10:00:00 PM 7.37 45.266 0.056 6.93 122.09 7.72
10/19/2022 10:15:00 PM 7.34 45.212 0.056 6.93 122.07 7.65
10/19/2022 10:30:00 PM 7.32 45.176 0.056 6.93 122.11 7.58
10/19/2022 10:45:00 PM 7.3 45.14 0.056 6.93 122.06 7.55
10/19/2022 11:00:00 PM 7.28 45.104 0.056 6.93 122.19 7.56
10/19/2022 11:15:00 PM 7.26 45.068 0.056 6.93 122.08 7.56
10/19/2022 11:30:00 PM 7.25 45.05 0.056 6.93 122.14 7.55
10/19/2022 11:45:00 PM 7.23 45.014 0.056 6.93 122.16 7.57
10/20/2022 12:00:00 AM 7.22 44.996 0.056 6.93 122.13 7.56
10/20/2022 12:15:00 AM 7.21 44.978 0.056 6.93 122.2 7.57
10/20/2022 12:30:00 AM 7.19 44.942 0.056 6.93 122.08 7.61
10/20/2022 12:45:00 AM 7.18 44.924 0.056 6.93 122.15 7.63
10/20/2022 1:00:00 AM 7.16 44.888 0.056 6.93 122.06 7.66
10/20/2022 1:15:00 AM 7.15 44.87 0.056 6.93 122.11 7.65
10/20/2022 1:30:00 AM 7.15 44.87 0.056 6.93 122.08 7.64
10/20/2022 1:45:00 AM 7.14 44.852 0.056 6.94 122.09 7.68
10/20/2022 2:00:00 AM 7.14 44.852 0.056 6.94 122.08 7.68
10/20/2022 2:15:00 AM 7.13 44.834 0.056 6.94 122.27 7.65
10/20/2022 2:30:00 AM 7.13 44.834 0.056 6.94 122.17 7.63
10/20/2022 2:45:00 AM 7.11 44.798 0.056 6.94 122.14 7.62
10/20/2022 3:00:00 AM 7.1 44.78 0.056 6.94 122.1 7.62
10/20/2022 3:15:00 AM 7.08 44.744 0.056 6.93 122.19 7.63
10/20/2022 3:30:00 AM 7.06 44.708 0.056 6.93 122.15 7.65
10/20/2022 3:45:00 AM 7.04 44.672 0.056 6.93 122.08 7.65
10/20/2022 4:00:00 AM 7.01 44.618 0.056 6.94 122.18 7.64
10/20/2022 4:15:00 AM 6.99 44.582 0.056 6.94 122.09 7.64
10/20/2022 4:30:00 AM 6.97 44.546 0.056 6.94 122.02 7.68
10/20/2022 4:45:00 AM 6.95 44.51 0.056 6.94 121.98 7.73
10/20/2022 5:00:00 AM 6.92 44.456 0.056 6.94 122 7.75
10/20/2022 5:15:00 AM 6.9 44.42 0.056 6.94 121.91 7.76
10/20/2022 5:30:00 AM 6.87 44.366 0.056 6.93 121.9 7.77
10/20/2022 5:45:00 AM 6.84 44.312 0.056 6.94 121.89 7.79
10/20/2022 6:00:00 AM 6.81 44.258 0.056 6.94 121.99 7.8
10/20/2022 6:15:00 AM 6.77 44.186 0.056 6.94 122 7.8
10/20/2022 6:30:00 AM 6.74 44.132 0.056 6.94 121.98 7.82
10/20/2022 6:45:00 AM 6.7 44.06 0.056 6.94 122.08 7.86
10/20/2022 7:00:00 AM 6.67 44.006 0.056 6.94 122.06 7.92
10/20/2022 7:15:00 AM 6.63 43.934 0.056 6.94 122.08 7.97
10/20/2022 7:30:00 AM 6.59 43.862 0.056 6.94 122.12 8.01
10/20/2022 7:45:00 AM 6.56 43.808 0.056 6.94 122.13 8.04
10/20/2022 8:00:00 AM 6.53 43.754 0.056 6.94 122.07 8.06
10/20/2022 8:15:00 AM 6.51 43.718 0.056 6.94 122.05 8.11
10/20/2022 8:30:00 AM 6.49 43.682 0.056 6.94 121.99 8.12
10/20/2022 8:45:00 AM 6.48 43.664 0.056 6.94 121.98 8.14
10/20/2022 9:00:00 AM 6.47 43.646 0.056 6.94 122 8.19
10/20/2022 9:15:00 AM 6.47 43.646 0.056 6.94 122.04 8.25
10/20/2022 9:30:00 AM 6.47 43.646 0.056 6.94 122.01 8.27
10/20/2022 9:45:00 AM 6.49 43.682 0.056 6.94 122.07 8.1
10/20/2022 10:00:00 AM 6.52 43.736 0.056 6.94 122.12 8.15
10/20/2022 10:15:00 AM 6.57 43.826 0.056 6.94 122.04 7.95
10/20/2022 10:30:00 AM 6.63 43.934 0.056 6.94 122.1 7.52
10/20/2022 10:45:00 AM 6.7 44.06 0.056 6.94 122.03 7.13
10/20/2022 11:00:00 AM 6.76 44.168 0.056 6.94 122.08 6.9
10/20/2022 11:15:00 AM 6.83 44.294 0.056 6.94 122.08 6.85
10/20/2022 11:30:00 AM 6.9 44.42 0.056 6.94 121.97 6.83
10/20/2022 11:45:00 AM 6.98 44.564 0.055 6.94 122.06 6.83
10/20/2022 12:00:00 PM 7.06 44.708 0.055 6.94 122.11 7.03
10/20/2022 12:15:00 PM 7.15 44.87 0.055 6.94 122.06 7.78
10/20/2022 12:30:00 PM 7.24 45.032 0.055 6.94 122.1 8.41
10/20/2022 12:45:00 PM 7.34 45.212 0.055 6.93 121.98 8.82
10/20/2022 1:00:00 PM 7.45 45.41 0.055 6.93 122.03 9.05
10/20/2022 1:15:00 PM 7.56 45.608 0.055 6.93 122.03 9.21
10/20/2022 1:30:00 PM 7.68 45.824 0.055 6.93 122.02 9.28
10/20/2022 1:45:00 PM 7.82 46.076 0.055 6.93 122.04 9.31
10/20/2022 2:00:00 PM 7.99 46.382 0.055 6.93 122.11 9.33
10/20/2022 2:15:00 PM 8.16 46.688 0.055 6.93 122.16 9.29
10/20/2022 2:30:00 PM 8.32 46.976 0.055 6.92 122.14 9.24
10/20/2022 2:45:00 PM 8.48 47.264 0.055 6.92 122.11 9.12
10/20/2022 3:00:00 PM 8.61 47.498 0.055 6.92 122.13 9.01
10/20/2022 3:15:00 PM 8.73 47.714 0.055 6.92 122.14 8.89
10/20/2022 3:30:00 PM 8.82 47.876 0.055 6.92 122.19 8.78
10/20/2022 3:45:00 PM 8.9 48.02 0.055 6.92 122.17 8.7
10/20/2022 4:00:00 PM 8.97 48.146 0.055 6.91 122.22 8.65
10/20/2022 4:15:00 PM 9.02 48.236 0.055 6.91 122.17 8.62
10/20/2022 4:30:00 PM 9.06 48.308 0.055 6.91 122.13 8.54
10/20/2022 4:45:00 PM 9.06 48.308 0.055 6.91 122.19 8.46
10/20/2022 5:00:00 PM 9.05 48.29 0.055 6.91 122.16 8.39
10/20/2022 5:15:00 PM 9.02 48.236 0.056 6.91 122.25 8.31
10/20/2022 5:30:00 PM 8.97 48.146 0.056 6.91 122.24 8.21
10/20/2022 5:45:00 PM 8.91 48.038 0.059 6.82 122.25 8.16
10/20/2022 6:00:00 PM 8.84 47.912 0.056 6.89 122.18 8.12
10/20/2022 6:15:00 PM 8.78 47.804 0.055 6.91 122.13 8.13
10/20/2022 6:30:00 PM 8.71 47.678 0.055 6.91 122.08 8.16
10/20/2022 6:45:00 PM 8.65 47.57 0.055 6.91 122.1 8.19
10/20/2022 7:00:00 PM 8.58 47.444 0.055 6.91 122.24 8.2
10/20/2022 7:15:00 PM 8.5 47.3 0.055 6.91 122.32 8.16
10/20/2022 7:30:00 PM 8.43 47.174 0.055 6.91 122.25 8.05
10/20/2022 7:45:00 PM 8.35 47.03 0.055 6.91 122.13 7.99
10/20/2022 8:00:00 PM 8.27 46.886 0.055 6.91 122.5 7.99
10/20/2022 8:15:00 PM 8.18 46.724 0.055 6.91 122.32 8
10/20/2022 8:30:00 PM 8.11 46.598 0.055 6.91 122.22 7.96
10/20/2022 8:45:00 PM 8.04 46.472 0.055 6.91 122.24 7.85
10/20/2022 9:00:00 PM 7.97 46.346 0.055 6.91 122.24 7.77
10/20/2022 9:15:00 PM 7.89 46.202 0.055 6.91 122.26 7.72
10/20/2022 9:30:00 PM 7.82 46.076 0.055 6.91 122.26 7.67
10/20/2022 9:45:00 PM 7.75 45.95 0.055 6.83 122.18 7.64
10/20/2022 10:00:00 PM 7.68 45.824 0.056 6.92 122.22 7.64
10/20/2022 10:15:00 PM 7.62 45.716 0.056 6.92 122.06 7.65
10/20/2022 10:30:00 PM 7.55 45.59 0.056 6.92 122.1 7.67
10/20/2022 10:45:00 PM 7.5 45.5 0.056 6.92 122.1 7.7
10/20/2022 11:00:00 PM 7.44 45.392 0.056 6.92 122.05 7.81
10/20/2022 11:15:00 PM 7.38 45.284 0.056 6.92 122.09 7.92
10/20/2022 11:30:00 PM 7.32 45.176 0.056 6.92 122.17 8
10/20/2022 11:45:00 PM 7.26 45.068 0.056 6.92 122.21 8.03
10/21/2022 12:00:00 AM 7.2 44.96 0.056 6.92 122.09 8.04
10/21/2022 12:15:00 AM 7.15 44.87 0.056 6.92 122.27 8.05
10/21/2022 12:30:00 AM 7.1 44.78 0.056 6.92 122.15 8.02
10/21/2022 12:45:00 AM 7.06 44.708 0.056 6.92 121.96 7.98
10/21/2022 1:00:00 AM 7.01 44.618 0.056 6.92 121.9 7.94
10/21/2022 1:15:00 AM 6.98 44.564 0.056 6.91 121.88 7.83
10/21/2022 1:30:00 AM 6.94 44.492 0.056 6.92 121.9 7.84
10/21/2022 1:45:00 AM 6.91 44.438 0.056 6.93 121.89 7.88
10/21/2022 2:00:00 AM 6.88 44.384 0.056 6.93 121.84 7.93
10/21/2022 2:15:00 AM 6.85 44.33 0.056 6.93 121.88 7.98
10/21/2022 2:30:00 AM 6.83 44.294 0.056 6.93 121.81 8.06
10/21/2022 2:45:00 AM 6.8 44.24 0.056 6.93 121.8 7.98
10/21/2022 3:00:00 AM 6.77 44.186 0.056 6.93 121.76 7.8
10/21/2022 3:15:00 AM 6.73 44.114 0.056 6.93 121.72 7.68
10/21/2022 3:30:00 AM 6.7 44.06 0.056 6.93 121.77 7.56
10/21/2022 3:45:00 AM 6.66 43.988 0.056 6.93 121.77 7.44
10/21/2022 4:00:00 AM 6.62 43.916 0.056 6.93 121.88 7.34
10/21/2022 4:15:00 AM 6.58 43.844 0.056 6.93 121.86 7
10/21/2022 4:30:00 AM 6.53 43.754 0.056 6.93 121.86 6.79
10/21/2022 4:45:00 AM 6.49 43.682 0.056 6.94 121.85 6.8
10/21/2022 5:00:00 AM 6.44 43.592 0.056 6.94 121.8 6.92
10/21/2022 5:15:00 AM 6.4 43.52 0.056 6.94 121.89 7.23
10/21/2022 5:30:00 AM 6.35 43.43 0.056 6.93 121.86 7.06
10/21/2022 5:45:00 AM 6.3 43.34 0.056 6.94 121.73 7.11
10/21/2022 6:00:00 AM 6.25 43.25 0.056 6.94 121.71 7.59
10/21/2022 6:15:00 AM 6.19 43.142 0.056 6.94 121.79 8.94
10/21/2022 6:30:00 AM 6.14 43.052 0.056 6.94 121.78 9.6
10/21/2022 6:45:00 AM 6.09 42.962 0.055 6.94 121.76 9.93
10/21/2022 7:00:00 AM 6.04 42.872 0.055 6.94 121.79 10.1
10/21/2022 7:15:00 AM 5.99 42.782 0.055 6.94 121.76 10.19
10/21/2022 7:30:00 AM 5.95 42.71 0.055 6.94 121.85 10.25
10/21/2022 7:45:00 AM 5.9 42.62 0.055 6.94 121.77 10.31
10/21/2022 8:00:00 AM 5.86 42.548 0.055 6.94 121.82 10.39
10/21/2022 8:15:00 AM 5.81 42.458 0.055 6.95 121.7 10.45
10/21/2022 8:30:00 AM 5.77 42.386 0.055 6.94 121.66 10.53
10/21/2022 8:45:00 AM 5.73 42.314 0.055 6.95 121.65 10.62
10/21/2022 9:00:00 AM 5.7 42.26 0.055 6.95 121.63 10.7
10/21/2022 9:15:00 AM 5.67 42.206 0.055 6.95 121.6 10.78
10/21/2022 9:30:00 AM 5.65 42.17 0.055 6.95 121.67 10.87
10/21/2022 9:45:00 AM 5.64 42.152 0.055 6.95 121.71 10.99
10/21/2022 10:00:00 AM 5.64 42.152 0.055 6.95 121.71 11.04
10/21/2022 10:15:00 AM 5.66 42.188 0.055 6.95 121.69 11.08
10/21/2022 10:30:00 AM 5.69 42.242 0.055 6.95 121.58 11.17
10/21/2022 10:45:00 AM 5.73 42.314 0.055 6.95 121.75 11.25
10/21/2022 11:00:00 AM 5.8 42.44 0.055 6.95 121.89 11.32
10/21/2022 11:15:00 AM 5.88 42.584 0.055 6.95 121.82 11.29
10/21/2022 11:30:00 AM 5.98 42.764 0.055 6.95 121.82 11.21
10/21/2022 11:45:00 AM 6.09 42.962 0.055 6.95 121.83 11.13
10/21/2022 12:00:00 PM 6.21 43.178 0.055 6.95 121.89 11.07
10/21/2022 12:15:00 PM 6.34 43.412 0.055 6.95 122.01 10.98
10/21/2022 12:30:00 PM 6.48 43.664 0.055 6.95 121.87 10.94
10/21/2022 12:45:00 PM 6.65 43.97 0.055 6.95 121.84 10.9
10/21/2022 1:00:00 PM 6.82 44.276 0.055 6.95 121.9 10.84
10/21/2022 1:15:00 PM 7.01 44.618 0.055 6.94 121.99 10.78
10/21/2022 1:30:00 PM 7.21 44.978 0.055 6.94 121.86 10.56
10/21/2022 1:45:00 PM 7.44 45.392 0.055 6.94 121.98 10.32
10/21/2022 2:00:00 PM 7.67 45.806 0.055 6.93 122 10.16
10/21/2022 2:15:00 PM 7.92 46.256 0.055 6.93 122.03 10.14
10/21/2022 2:30:00 PM 8.14 46.652 0.055 6.93 122.1 10.09
10/21/2022 2:45:00 PM 8.35 47.03 0.055 6.92 121.99 10.02
10/21/2022 3:00:00 PM 8.52 47.336 0.055 6.92 122.09 9.95
10/21/2022 3:15:00 PM 8.69 47.642 0.055 6.92 122.17 9.63
10/21/2022 3:30:00 PM 8.84 47.912 0.055 6.91 122.15 9.52
10/21/2022 3:45:00 PM 8.97 48.146 0.055 6.92 122.2 9.68
10/21/2022 4:00:00 PM 9.08 48.344 0.055 6.91 122.11 9.67
10/21/2022 4:15:00 PM 9.17 48.506 0.055 6.91 122.17 9.67
10/21/2022 4:30:00 PM 9.23 48.614 0.055 6.91 122.12 9.49
10/21/2022 4:45:00 PM 9.27 48.686 0.055 6.9 122.1 9.26
10/21/2022 5:00:00 PM 9.28 48.704 0.055 6.91 122.17 9
10/21/2022 5:15:00 PM 9.26 48.668 0.055 6.9 122.12 8.82
10/21/2022 5:30:00 PM 9.22 48.596 0.055 6.9 122.17 8.67
10/21/2022 5:45:00 PM 9.17 48.506 0.055 6.95 122.17 8.5
10/21/2022 6:00:00 PM 9.11 48.398 0.055 6.87 122.22 8.42
10/21/2022 6:15:00 PM 9.03 48.254 0.055 6.9 122.15 8.32
10/21/2022 6:30:00 PM 8.95 48.11 0.055 6.9 122.19 8.32
10/21/2022 6:45:00 PM 8.87 47.966 0.055 6.9 122.07 8.11
10/21/2022 7:00:00 PM 8.79 47.822 0.055 6.9 122.08 7.96
10/21/2022 7:15:00 PM 8.7 47.66 0.055 6.89 122.04 7.83
10/21/2022 7:30:00 PM 8.62 47.516 0.055 6.89 122.11 7.48
10/21/2022 7:45:00 PM 8.53 47.354 0.055 6.9 122.22 7.49
10/21/2022 8:00:00 PM 8.44 47.192 0.055 6.9 122.18 7.26
10/21/2022 8:15:00 PM 8.36 47.048 0.055 6.9 122.1 6.98
10/21/2022 8:30:00 PM 8.27 46.886 0.055 6.9 122.06 6.81
10/21/2022 8:45:00 PM 8.19 46.742 0.056 6.9 121.98 6.89
10/21/2022 9:00:00 PM 8.12 46.616 0.056 6.9 121.99 7.45
10/21/2022 9:15:00 PM 8.04 46.472 0.056 6.9 122.09 7.98
10/21/2022 9:30:00 PM 7.97 46.346 0.056 6.9 122.12 8.24
10/21/2022 9:45:00 PM 7.89 46.202 0.056 6.9 122.06 8.3
10/21/2022 10:00:00 PM 7.82 46.076 0.056 6.91 122.04 8.37
10/21/2022 10:15:00 PM 7.76 45.968 0.056 6.91 122 8.4
10/21/2022 10:30:00 PM 7.69 45.842 0.056 6.91 121.94 8.38
10/21/2022 10:45:00 PM 7.63 45.734 0.056 6.9 121.93 8.41
10/21/2022 11:00:00 PM 7.57 45.626 0.056 6.91 121.89 8.46
10/21/2022 11:15:00 PM 7.52 45.536 0.056 6.91 121.85 8.49
10/21/2022 11:30:00 PM 7.46 45.428 0.056 6.91 121.96 8.51
10/21/2022 11:45:00 PM 7.41 45.338 0.056 6.91 122.05 8.52
10/22/2022 12:00:00 AM 7.35 45.23 0.056 6.91 122.02 8.54
10/22/2022 12:15:00 AM 7.3 45.14 0.056 6.91 122.03 8.57
10/22/2022 12:30:00 AM 7.25 45.05 0.056 6.91 122.15 8.59
10/22/2022 12:45:00 AM 7.2 44.96 0.056 6.92 122.15 8.61
10/22/2022 1:00:00 AM 7.16 44.888 0.056 6.92 122.09 8.68
10/22/2022 1:15:00 AM 7.11 44.798 0.056 6.92 122.11 8.73
10/22/2022 1:30:00 AM 7.06 44.708 0.056 6.92 122.11 8.73
10/22/2022 1:45:00 AM 7 44.6 0.056 6.92 122.13 8.77
10/22/2022 2:00:00 AM 6.95 44.51 0.056 6.92 122.1 8.81
10/22/2022 2:15:00 AM 6.9 44.42 0.056 6.91 122.07 8.85
10/22/2022 2:30:00 AM 6.85 44.33 0.056 6.92 122.18 8.85
10/22/2022 2:45:00 AM 6.8 44.24 0.056 6.92 122.12 8.85
10/22/2022 3:00:00 AM 6.75 44.15 0.056 6.92 122.12 8.87
10/22/2022 3:15:00 AM 6.7 44.06 0.056 6.92 122.21 8.92
10/22/2022 3:30:00 AM 6.65 43.97 0.056 6.92 122.15 9.04
10/22/2022 3:45:00 AM 6.61 43.898 0.056 6.93 122.16 9.11
10/22/2022 4:00:00 AM 6.56 43.808 0.056 6.93 122.15 9.13
10/22/2022 4:15:00 AM 6.52 43.736 0.056 6.93 122.15 9.15
10/22/2022 4:30:00 AM 6.47 43.646 0.056 6.93 122.17 9.15
10/22/2022 4:45:00 AM 6.43 43.574 0.056 6.93 122.16 9.16
10/22/2022 5:00:00 AM 6.39 43.502 0.056 6.93 122.16 9.19
10/22/2022 5:15:00 AM 6.35 43.43 0.056 6.93 122.09 9.22
10/22/2022 5:30:00 AM 6.31 43.358 0.056 6.93 122.6 9.27
10/22/2022 5:45:00 AM 6.27 43.286 0.056 6.93 122.51 9.24
10/22/2022 6:00:00 AM 6.22 43.196 0.056 6.93 122.55 9.22
10/22/2022 6:15:00 AM 6.18 43.124 0.056 6.93 122.46 9.23
10/22/2022 6:30:00 AM 6.14 43.052 0.056 6.93 122.41 9.26
10/22/2022 6:45:00 AM 6.1 42.98 0.056 6.94 122.44 9.31
10/22/2022 7:00:00 AM 6.06 42.908 0.056 6.94 122.5 9.35
10/22/2022 7:15:00 AM 6.02 42.836 0.056 6.94 122.51 9.34
10/22/2022 7:30:00 AM 5.99 42.782 0.056 6.94 122.38 9.34
10/22/2022 7:45:00 AM 5.95 42.71 0.056 6.93 122.47 9.35
10/22/2022 8:00:00 AM 5.92 42.656 0.056 6.94 122.65 9.38
10/22/2022 8:15:00 AM 5.88 42.584 0.056 6.94 122.68 9.35
10/22/2022 8:30:00 AM 5.85 42.53 0.056 6.94 122.69 9.26
10/22/2022 8:45:00 AM 5.82 42.476 0.056 6.94 122.53 8.76
10/22/2022 9:00:00 AM 5.8 42.44 0.056 6.94 122.61 8.71
10/22/2022 9:15:00 AM 5.79 42.422 0.056 6.94 122.61 8.81
10/22/2022 9:30:00 AM 5.78 42.404 0.056 6.94 122.64 8.88
10/22/2022 9:45:00 AM 5.78 42.404 0.056 6.94 122.7 9
10/22/2022 10:00:00 AM 5.8 42.44 0.056 6.94 122.59 9.08
10/22/2022 10:15:00 AM 5.83 42.494 0.056 6.94 122.6 9.21
10/22/2022 10:30:00 AM 5.87 42.566 0.056 6.94 122.66 9.38
10/22/2022 10:45:00 AM 5.94 42.692 0.056 6.94 122.5 9.5
10/22/2022 11:00:00 AM 6.02 42.836 0.056 6.95 122.58 9.6
10/22/2022 11:15:00 AM 6.12 43.016 0.056 6.94 122.3 9.7
10/22/2022 11:30:00 AM 6.24 43.232 0.056 6.94 122.74 9.78
10/22/2022 11:45:00 AM 6.37 43.466 0.056 6.94 122.72 9.85
10/22/2022 12:00:00 PM 6.52 43.736 0.056 6.94 122.71 9.89
10/22/2022 12:15:00 PM 6.68 44.024 0.056 6.94 122.61 9.89
10/22/2022 12:30:00 PM 6.84 44.312 0.056 6.94 122.76 9.92
10/22/2022 12:45:00 PM 7.02 44.636 0.055 6.94 122.77 9.98
10/22/2022 1:00:00 PM 7.21 44.978 0.055 6.93 122.69 9.98
10/22/2022 1:15:00 PM 7.41 45.338 0.055 6.93 122.83 10
10/22/2022 1:30:00 PM 7.64 45.752 0.055 6.93 122.84 9.98
10/22/2022 1:45:00 PM 7.89 46.202 0.055 6.92 122.84 9.95
10/22/2022 2:00:00 PM 8.15 46.67 0.055 6.92 122.85 9.9
10/22/2022 2:15:00 PM 8.39 47.102 0.055 6.92 122.79 9.89
10/22/2022 2:30:00 PM 8.64 47.552 0.055 6.92 123 9.84
10/22/2022 2:45:00 PM 8.87 47.966 0.055 6.91 122.85 9.76
10/22/2022 3:00:00 PM 9.09 48.362 0.055 6.91 122.94 9.69
10/22/2022 3:15:00 PM 9.28 48.704 0.055 6.91 122.93 9.65
10/22/2022 3:30:00 PM 9.46 49.028 0.055 6.9 122.88 9.56
10/22/2022 3:45:00 PM 9.62 49.316 0.055 6.9 122.79 9.5
10/22/2022 4:00:00 PM 9.75 49.55 0.055 6.89 122.82 9.48
10/22/2022 4:15:00 PM 9.87 49.766 0.055 6.89 122.74 9.39
10/22/2022 4:30:00 PM 9.95 49.91 0.055 6.89 122.7 9.25
10/22/2022 4:45:00 PM 10.01 50.018 0.055 6.89 122.75 9.15
10/22/2022 5:00:00 PM 10.04 50.072 0.055 6.88 122.79 9.07
10/22/2022 5:15:00 PM 10.05 50.09 0.055 6.88 122.86 8.98
10/22/2022 5:30:00 PM 10.03 50.054 0.055 6.88 122.8 8.89
10/22/2022 5:45:00 PM 10 50 0.055 6.88 122.78 8.8
10/22/2022 6:00:00 PM 9.95 49.91 0.055 6.88 122.76 8.75
10/22/2022 6:15:00 PM 9.89 49.802 0.055 6.88 122.84 8.64
10/22/2022 6:30:00 PM 9.82 49.676 0.055 6.88 122.82 8.51
10/22/2022 6:45:00 PM 9.74 49.532 0.055 6.88 122.94 8.44
10/22/2022 7:00:00 PM 9.65 49.37 0.055 6.88 122.94 8.39
10/22/2022 7:15:00 PM 9.56 49.208 0.055 6.88 122.97 8.31
10/22/2022 7:30:00 PM 9.48 49.064 0.055 6.88 122.89 8.23
10/22/2022 7:45:00 PM 9.39 48.902 0.055 6.88 122.76 8.11
10/22/2022 8:00:00 PM 9.3 48.74 0.055 6.88 122.92 8.01
10/22/2022 8:15:00 PM 9.22 48.596 0.055 6.88 123.02 7.92
10/22/2022 8:30:00 PM 9.13 48.434 0.055 6.88 122.95 7.83
10/22/2022 8:45:00 PM 9.05 48.29 0.055 6.88 122.87 7.77
10/22/2022 9:00:00 PM 8.97 48.146 0.056 6.88 122.76 7.72
10/22/2022 9:15:00 PM 8.89 48.002 0.056 6.88 122.76 7.69
10/22/2022 9:30:00 PM 8.81 47.858 0.056 6.89 122.87 7.64
10/22/2022 9:45:00 PM 8.74 47.732 0.056 6.89 122.77 7.65
10/22/2022 10:00:00 PM 8.66 47.588 0.056 6.89 122.85 7.66
10/22/2022 10:15:00 PM 8.59 47.462 0.056 6.89 122.83 7.6
10/22/2022 10:30:00 PM 8.52 47.336 0.056 6.89 122.91 7.58
10/22/2022 10:45:00 PM 8.46 47.228 0.056 6.89 122.83 7.58
10/22/2022 11:00:00 PM 8.39 47.102 0.056 6.89 122.76 7.62
10/22/2022 11:15:00 PM 8.33 46.994 0.056 6.89 122.72 7.64
10/22/2022 11:30:00 PM 8.27 46.886 0.056 6.89 122.79 7.68
10/22/2022 11:45:00 PM 8.21 46.778 0.056 6.9 122.83 7.69
10/23/2022 12:00:00 AM 8.15 46.67 0.056 6.9 122.83 7.68
10/23/2022 12:15:00 AM 8.09 46.562 0.056 6.9 122.82 7.62
10/23/2022 12:30:00 AM 8.04 46.472 0.056 6.9 122.94 7.58
10/23/2022 12:45:00 AM 7.98 46.364 0.056 6.9 122.88 7.56
10/23/2022 1:00:00 AM 7.92 46.256 0.056 6.9 122.98 7.52
10/23/2022 1:15:00 AM 7.87 46.166 0.056 6.9 122.83 7.52
10/23/2022 1:30:00 AM 7.81 46.058 0.056 6.9 122.74 7.57
10/23/2022 1:45:00 AM 7.75 45.95 0.056 6.9 122.66 7.59
10/23/2022 2:00:00 AM 7.7 45.86 0.056 6.9 122.71 7.63
10/23/2022 2:15:00 AM 7.65 45.77 0.056 6.91 122.58 7.66
10/23/2022 2:30:00 AM 7.59 45.662 0.056 6.91 122.56 7.67
10/23/2022 2:45:00 AM 7.54 45.572 0.056 6.9 122.77 7.69
10/23/2022 3:00:00 AM 7.49 45.482 0.056 6.91 122.77 7.74
10/23/2022 3:15:00 AM 7.43 45.374 0.056 6.91 122.68 7.77
10/23/2022 3:30:00 AM 7.38 45.284 0.056 6.91 122.74 7.78
10/23/2022 3:45:00 AM 7.33 45.194 0.056 6.91 122.85 7.78
10/23/2022 4:00:00 AM 7.27 45.086 0.056 6.91 122.82 7.8
10/23/2022 4:30:00 AM 7.17 44.906 0.056 6.91 122.72 7.84
10/23/2022 4:45:00 AM 7.12 44.816 0.056 6.91 122.58 7.87
10/23/2022 5:00:00 AM 7.07 44.726 0.056 6.91 122.54 7.84
10/23/2022 5:15:00 AM 7.01 44.618 0.056 6.91 122.53 7.87
10/23/2022 5:30:00 AM 6.97 44.546 0.056 6.92 122.6 7.94
10/23/2022 5:45:00 AM 6.91 44.438 0.056 6.92 122.59 7.98
10/23/2022 6:00:00 AM 6.86 44.348 0.056 6.92 122.57 8.02
10/23/2022 6:15:00 AM 6.81 44.258 0.056 6.92 122.54 8.01
10/23/2022 6:30:00 AM 6.77 44.186 0.056 6.92 122.54 7.96
10/23/2022 6:45:00 AM 6.72 44.096 0.056 6.92 122.75 8.01
10/23/2022 7:00:00 AM 6.67 44.006 0.056 6.92 122.61 8.04
10/23/2022 7:15:00 AM 6.63 43.934 0.056 6.92 122.61 8.11
10/23/2022 7:30:00 AM 6.58 43.844 0.056 6.92 122.64 8.14
10/23/2022 7:45:00 AM 6.54 43.772 0.056 6.92 122.6 8.13
10/23/2022 8:00:00 AM 6.5 43.7 0.056 6.92 122.57 8.17
10/23/2022 8:15:00 AM 6.46 43.628 0.056 6.92 122.58 8.23
10/23/2022 8:30:00 AM 6.42 43.556 0.056 6.92 122.46 8.3
10/23/2022 8:45:00 AM 6.39 43.502 0.056 6.93 122.45 8.35
10/23/2022 9:00:00 AM 6.37 43.466 0.056 6.93 122.48 8.46
10/23/2022 9:15:00 AM 6.35 43.43 0.056 6.92 122.53 8.55
10/23/2022 9:30:00 AM 6.34 43.412 0.056 6.93 122.48 8.66
10/23/2022 9:45:00 AM 6.34 43.412 0.056 6.93 122.51 8.77
10/23/2022 10:00:00 AM 6.35 43.43 0.056 6.93 122.56 8.88
10/23/2022 10:15:00 AM 6.36 43.448 0.056 6.93 122.56 8.99
10/23/2022 10:30:00 AM 6.39 43.502 0.056 6.93 122.64 9.1
10/23/2022 10:45:00 AM 6.43 43.574 0.056 6.93 122.63 9.21
10/23/2022 11:00:00 AM 6.48 43.664 0.056 6.93 122.62 9.31
10/23/2022 11:15:00 AM 6.54 43.772 0.056 6.93 122.58 9.42
10/23/2022 11:30:00 AM 6.62 43.916 0.056 6.93 122.56 9.53
10/23/2022 11:45:00 AM 6.7 44.06 0.056 6.93 122.57 9.63
10/23/2022 12:00:00 PM 6.79 44.222 0.056 6.93 122.53 9.7
10/23/2022 12:15:00 PM 6.89 44.402 0.056 6.93 122.59 9.73
10/23/2022 12:30:00 PM 7 44.6 0.056 6.93 122.65 9.74
10/23/2022 12:45:00 PM 7.13 44.834 0.056 6.93 122.63 9.77
10/23/2022 1:00:00 PM 7.27 45.086 0.056 6.93 122.47 9.82
10/23/2022 1:15:00 PM 7.43 45.374 0.056 6.92 122.6 9.89
10/23/2022 1:30:00 PM 7.6 45.68 0.055 6.93 122.81 9.95
10/23/2022 1:45:00 PM 7.76 45.968 0.055 6.92 122.54 9.96
10/23/2022 2:00:00 PM 7.94 46.292 0.055 6.92 122.6 9.93
10/23/2022 2:15:00 PM 8.12 46.616 0.055 6.91 122.59 9.91
10/23/2022 2:30:00 PM 8.28 46.904 0.055 6.91 122.63 9.9
10/23/2022 2:45:00 PM 8.46 47.228 0.055 6.91 122.55 9.84
10/23/2022 3:00:00 PM 8.63 47.534 0.055 6.9 122.62 9.73
10/23/2022 3:15:00 PM 8.79 47.822 0.055 6.9 122.7 9.53
10/23/2022 3:30:00 PM 8.93 48.074 0.055 6.9 122.71 9.42
10/23/2022 3:45:00 PM 9.07 48.326 0.055 6.9 122.63 9.35
10/23/2022 4:00:00 PM 9.18 48.524 0.055 6.9 122.62 9.23
10/23/2022 4:15:00 PM 9.28 48.704 0.055 6.89 122.61 9.11
10/23/2022 4:30:00 PM 9.35 48.83 0.055 6.9 122.74 9.02
10/23/2022 4:45:00 PM 9.41 48.938 0.058 6.89 122.75 8.91
10/23/2022 5:00:00 PM 9.46 49.028 0.06 6.89 122.7 8.78
10/23/2022 5:15:00 PM 9.5 49.1 0.062 6.89 122.76 8.71
10/23/2022 5:30:00 PM 9.53 49.154 0.062 6.89 122.75 8.61
10/23/2022 5:45:00 PM 9.54 49.172 0.062 6.89 122.76 8.53
10/23/2022 6:00:00 PM 9.55 49.19 0.062 6.89 122.78 8.48
10/23/2022 6:15:00 PM 9.55 49.19 0.062 6.89 122.82 8.39
10/23/2022 6:30:00 PM 9.55 49.19 0.062 6.89 122.81 8.34
10/23/2022 6:45:00 PM 9.56 49.208 0.062 6.89 122.71 8.32
10/23/2022 7:00:00 PM 9.56 49.208 0.062 6.88 122.76 8.26
10/23/2022 7:15:00 PM 9.56 49.208 0.062 6.88 122.77 8.2
10/23/2022 7:30:00 PM 9.56 49.208 0.062 6.88 122.8 8.11
10/23/2022 7:45:00 PM 9.56 49.208 0.062 6.88 122.73 8.02
10/23/2022 8:00:00 PM 9.56 49.208 0.062 6.88 122.8 7.95
10/23/2022 8:15:00 PM 9.55 49.19 0.062 6.88 122.68 7.87
10/23/2022 8:30:00 PM 9.54 49.172 0.062 6.88 122.69 7.78
10/23/2022 8:45:00 PM 9.53 49.154 0.063 6.88 122.68 7.7
10/23/2022 9:00:00 PM 9.52 49.136 0.063 6.88 122.71 7.63
10/23/2022 9:15:00 PM 9.51 49.118 0.063 6.88 122.73 7.56
10/23/2022 9:30:00 PM 9.5 49.1 0.062 6.88 122.66 7.5
10/23/2022 9:45:00 PM 9.49 49.082 0.061 6.88 122.68 7.47
10/23/2022 10:00:00 PM 9.48 49.064 0.061 6.88 122.76 7.47
10/23/2022 10:15:00 PM 9.48 49.064 0.06 6.88 122.77 7.46
10/23/2022 10:30:00 PM 9.47 49.046 0.06 6.88 122.75 7.46
10/23/2022 10:45:00 PM 9.46 49.028 0.06 6.88 122.71 7.45
10/23/2022 11:00:00 PM 9.45 49.01 0.059 6.88 122.68 7.43
10/23/2022 11:15:00 PM 9.44 48.992 0.058 6.88 122.66 7.44
10/23/2022 11:30:00 PM 9.43 48.974 0.058 6.88 122.65 7.46
10/23/2022 11:45:00 PM 9.42 48.956 0.058 6.88 122.62 7.47
10/24/2022 12:00:00 AM 9.41 48.938 0.057 6.88 122.55 7.47
10/24/2022 12:15:00 AM 9.4 48.92 0.057 6.88 122.58 7.46
10/24/2022 12:30:00 AM 9.39 48.902 0.057 6.88 122.53 7.45
10/24/2022 12:45:00 AM 9.38 48.884 0.057 6.88 122.53 7.44
10/24/2022 1:00:00 AM 9.37 48.866 0.057 6.88 122.54 7.44
10/24/2022 1:15:00 AM 9.35 48.83 0.057 6.88 122.53 7.45
10/24/2022 1:30:00 AM 9.34 48.812 0.057 6.88 122.61 7.45
10/24/2022 1:45:00 AM 9.34 48.812 0.057 6.88 122.51 7.47
10/24/2022 2:00:00 AM 9.33 48.794 0.057 6.88 122.49 7.47
10/24/2022 2:15:00 AM 9.33 48.794 0.057 6.87 122.5 7.5
10/24/2022 2:30:00 AM 9.33 48.794 0.057 6.88 122.47 7.49
10/24/2022 2:45:00 AM 9.33 48.794 0.057 6.87 122.42 7.47
10/24/2022 3:00:00 AM 9.33 48.794 0.057 6.87 122.53 7.49
10/24/2022 3:15:00 AM 9.33 48.794 0.057 6.87 122.51 7.49
10/24/2022 3:30:00 AM 9.33 48.794 0.057 6.88 122.49 7.47
10/24/2022 3:45:00 AM 9.33 48.794 0.057 6.87 122.45 7.46
10/24/2022 4:00:00 AM 9.34 48.812 0.057 6.87 122.5 7.46
10/24/2022 4:15:00 AM 9.34 48.812 0.057 6.87 122.44 7.47
10/24/2022 4:30:00 AM 9.34 48.812 0.057 6.88 122.46 7.46
10/24/2022 4:45:00 AM 9.34 48.812 0.057 6.87 122.46 7.47
10/24/2022 5:00:00 AM 9.35 48.83 0.057 6.88 122.48 7.48
10/24/2022 5:15:00 AM 9.36 48.848 0.057 6.88 122.49 7.47
10/24/2022 5:30:00 AM 9.37 48.866 0.057 6.88 122.51 7.45
10/24/2022 5:45:00 AM 9.38 48.884 0.056 6.88 122.5 7.42
10/24/2022 6:00:00 AM 9.39 48.902 0.056 6.88 122.51 7.38
10/24/2022 6:15:00 AM 9.4 48.92 0.056 6.88 122.56 7.3
10/24/2022 6:30:00 AM 9.41 48.938 0.056 6.88 122.59 7.25
10/24/2022 6:45:00 AM 9.42 48.956 0.056 6.87 122.58 7.26
10/24/2022 7:00:00 AM 9.42 48.956 0.056 6.87 122.55 7.3
10/24/2022 7:15:00 AM 9.43 48.974 0.056 6.87 122.51 7.38
10/24/2022 7:30:00 AM 9.44 48.992 0.056 6.87 122.56 7.47
10/24/2022 7:45:00 AM 9.45 49.01 0.056 6.87 122.57 7.51
10/24/2022 8:00:00 AM 9.48 49.064 0.056 6.87 122.55 7.21
10/24/2022 8:15:00 AM 9.5 49.1 0.055 6.87 122.55 6.58
10/24/2022 8:30:00 AM 9.52 49.136 0.055 6.88 122.54 6.83
10/24/2022 8:45:00 AM 9.55 49.19 0.053 6.88 122.56 7.36
10/24/2022 9:00:00 AM 9.58 49.244 0.051 6.88 122.64 7.4
10/24/2022 9:15:00 AM 9.61 49.298 0.051 6.89 122.61 7.37
10/24/2022 9:30:00 AM 9.63 49.334 0.05 6.89 122.63 7.19
10/24/2022 9:45:00 AM 9.66 49.388 0.05 6.89 122.65 7.1
10/24/2022 10:00:00 AM 9.68 49.424 0.05 6.89 122.63 6.97
10/24/2022 10:15:00 AM 9.71 49.478 0.05 6.89 122.58 6.93
10/24/2022 10:30:00 AM 9.74 49.532 0.05 6.89 122.56 6.92
10/24/2022 10:45:00 AM 9.78 49.604 0.05 6.9 122.59 7.11
10/24/2022 11:00:00 AM 9.82 49.676 0.049 6.9 122.66 7.25
10/24/2022 11:15:00 AM 9.85 49.73 0.049 6.89 122.66 7.33
10/24/2022 11:30:00 AM 9.9 49.82 0.049 6.89 122.6 7.14
10/24/2022 11:45:00 AM 9.95 49.91 0.05 6.89 122.53 6.94
10/24/2022 12:00:00 PM 10 50 0.05 6.89 122.58 6.92
10/24/2022 12:15:00 PM 10.07 50.126 0.05 6.89 122.64 7.09
10/24/2022 12:30:00 PM 10.12 50.216 0.049 6.89 122.65 7.12
10/24/2022 12:45:00 PM 10.18 50.324 0.049 6.89 122.64 7.09
10/24/2022 1:00:00 PM 10.24 50.432 0.049 6.89 122.68 7.05
10/24/2022 1:15:00 PM 10.31 50.558 0.049 6.89 122.72 7.15
10/24/2022 1:30:00 PM 10.38 50.684 0.049 6.89 122.7 7.32
10/24/2022 1:45:00 PM 10.45 50.81 0.049 6.88 122.71 7.47
10/24/2022 2:00:00 PM 10.5 50.9 0.049 6.89 122.63 7.27
10/24/2022 2:15:00 PM 10.56 51.008 0.049 6.88 122.67 7.2
10/24/2022 2:30:00 PM 10.61 51.098 0.049 6.88 122.72 7.19
10/24/2022 2:45:00 PM 10.67 51.206 0.049 6.88 122.77 7.19
10/24/2022 3:00:00 PM 10.72 51.296 0.049 6.88 122.78 7.17
10/24/2022 3:15:00 PM 10.78 51.404 0.049 6.87 122.76 7.25
10/24/2022 3:30:00 PM 10.83 51.494 0.049 6.87 122.82 7.28
10/24/2022 3:45:00 PM 10.88 51.584 0.049 6.87 122.85 7.31
10/24/2022 4:00:00 PM 10.92 51.656 0.049 6.87 122.91 7.41
10/24/2022 4:15:00 PM 10.96 51.728 0.049 6.87 122.88 7.48
10/24/2022 4:30:00 PM 11 51.8 0.049 6.87 122.92 7.5
10/24/2022 4:45:00 PM 11.03 51.854 0.049 6.86 122.89 7.45
10/24/2022 5:00:00 PM 11.05 51.89 0.05 6.87 122.98 7.46
10/24/2022 5:15:00 PM 11.07 51.926 0.05 6.86 122.94 7.43
10/24/2022 5:30:00 PM 11.08 51.944 0.05 6.86 122.89 7.39
10/24/2022 5:45:00 PM 11.09 51.962 0.05 6.86 122.82 7.35
10/24/2022 6:00:00 PM 11.09 51.962 0.05 6.86 122.88 7.41
10/24/2022 6:15:00 PM 11.09 51.962 0.05 6.86 122.94 7.49
10/24/2022 6:30:00 PM 11.09 51.962 0.05 6.86 123.07 7.56
10/24/2022 6:45:00 PM 11.09 51.962 0.05 6.86 122.99 7.51
10/24/2022 7:00:00 PM 11.08 51.944 0.05 6.86 122.9 7.38
10/24/2022 7:15:00 PM 11.07 51.926 0.05 6.86 122.94 7.29
10/24/2022 7:30:00 PM 11.06 51.908 0.05 6.86 122.99 7.25
10/24/2022 7:45:00 PM 11.04 51.872 0.05 6.85 122.97 7.14
10/24/2022 8:00:00 PM 11.03 51.854 0.05 6.85 122.99 7.12
10/24/2022 8:15:00 PM 11.02 51.836 0.05 6.85 123.04 7.24
10/24/2022 8:30:00 PM 11.01 51.818 0.051 6.85 123.03 7.25
10/24/2022 8:45:00 PM 11 51.8 0.051 6.85 122.98 7.25
10/24/2022 9:00:00 PM 10.98 51.764 0.051 6.85 123 7.25
10/24/2022 9:15:00 PM 10.97 51.746 0.051 6.85 123.07 7.21
10/24/2022 9:30:00 PM 10.96 51.728 0.051 6.85 123.02 7.21
10/24/2022 9:45:00 PM 10.95 51.71 0.051 6.85 122.99 7.3
10/24/2022 10:00:00 PM 10.94 51.692 0.051 6.85 123.01 7.33
10/24/2022 10:15:00 PM 10.93 51.674 0.051 6.85 122.96 7.29
10/24/2022 10:30:00 PM 10.93 51.674 0.051 6.85 122.87 7.23
10/24/2022 10:45:00 PM 10.92 51.656 0.051 6.85 122.89 7.25
10/24/2022 11:00:00 PM 10.91 51.638 0.051 6.85 122.91 7.32
10/24/2022 11:15:00 PM 10.9 51.62 0.051 6.84 122.9 7.37
10/24/2022 11:30:00 PM 10.89 51.602 0.051 6.85 122.88 7.36
10/24/2022 11:45:00 PM 10.89 51.602 0.051 6.84 122.85 7.23
10/25/2022 12:00:00 AM 10.88 51.584 0.051 6.85 122.89 7.13
10/25/2022 12:15:00 AM 10.88 51.584 0.051 6.84 122.85 7.08
10/25/2022 12:30:00 AM 10.87 51.566 0.051 6.85 122.89 7.11
10/25/2022 12:45:00 AM 10.87 51.566 0.051 6.84 122.87 7.19
10/25/2022 1:00:00 AM 10.86 51.548 0.052 6.85 122.93 7.22
10/25/2022 1:15:00 AM 10.86 51.548 0.052 6.85 122.94 7.25
10/25/2022 1:30:00 AM 10.85 51.53 0.052 6.85 122.92 7.23
10/25/2022 1:45:00 AM 10.85 51.53 0.052 6.85 122.92 7.15
10/25/2022 2:00:00 AM 10.85 51.53 0.052 6.85 122.91 7.1
10/25/2022 2:15:00 AM 10.84 51.512 0.052 6.85 122.92 7.06
10/25/2022 2:30:00 AM 10.84 51.512 0.052 6.85 122.88 7.01
10/25/2022 2:45:00 AM 10.84 51.512 0.052 6.84 122.92 6.99
10/25/2022 3:00:00 AM 10.84 51.512 0.052 6.85 123.02 6.92
10/25/2022 3:15:00 AM 10.83 51.494 0.052 6.84 122.98 6.86
10/25/2022 3:30:00 AM 10.83 51.494 0.052 6.85 123.06 6.79
10/25/2022 3:45:00 AM 10.83 51.494 0.052 6.85 123.03 6.74
10/25/2022 4:00:00 AM 10.83 51.494 0.052 6.85 122.98 6.68
10/25/2022 4:15:00 AM 10.83 51.494 0.052 6.85 123.04 6.64
10/25/2022 4:30:00 AM 10.83 51.494 0.053 6.86 123.09 6.61
10/25/2022 4:45:00 AM 10.83 51.494 0.053 6.86 123.09 6.56
10/25/2022 5:00:00 AM 10.83 51.494 0.053 6.86 123.16 6.49
10/25/2022 5:15:00 AM 10.82 51.476 0.053 6.86 123.26 6.42
10/25/2022 5:30:00 AM 10.82 51.476 0.053 6.86 123.12 6.37
10/25/2022 5:45:00 AM 10.82 51.476 0.053 6.86 123.13 6.34
10/25/2022 6:00:00 AM 10.82 51.476 0.053 6.85 123.09 6.29
10/25/2022 6:15:00 AM 10.82 51.476 0.053 6.86 123.24 6.23
10/25/2022 6:30:00 AM 10.82 51.476 0.053 6.86 123.27 6.15
10/25/2022 6:45:00 AM 10.82 51.476 0.053 6.85 123.11 6.11
10/25/2022 7:00:00 AM 10.83 51.494 0.053 6.85 123.17 6.08
10/25/2022 7:15:00 AM 10.83 51.494 0.053 6.85 123.26 6.05
10/25/2022 7:30:00 AM 10.83 51.494 0.053 6.86 123.37 5.99
10/25/2022 7:45:00 AM 10.83 51.494 0.053 6.85 123.25 5.94
10/25/2022 8:00:00 AM 10.84 51.512 0.054 6.85 123.33 5.9
10/25/2022 8:15:00 AM 10.84 51.512 0.054 6.85 123.4 5.83
10/25/2022 8:30:00 AM 10.84 51.512 0.054 6.85 123.36 5.77
10/25/2022 8:45:00 AM 10.85 51.53 0.054 6.85 123.29 5.7
10/25/2022 9:00:00 AM 10.86 51.548 0.054 6.84 123.28 5.67
10/25/2022 9:15:00 AM 10.87 51.566 0.054 6.85 123.35 5.7
10/25/2022 9:30:00 AM 10.89 51.602 0.054 6.85 123.41 5.75
10/25/2022 9:45:00 AM 10.91 51.638 0.054 6.84 123.52 5.83
10/25/2022 10:00:00 AM 10.94 51.692 0.054 6.84 123.51 5.81
10/25/2022 10:15:00 AM 10.98 51.764 0.054 6.83 123.55 5.63
10/25/2022 10:30:00 AM 11.02 51.836 0.054 6.83 123.49 5.39
10/25/2022 10:45:00 AM 11.06 51.908 0.054 6.83 123.44 5.14
10/25/2022 11:00:00 AM 11.11 51.998 0.054 6.82 123.49 4.97
10/25/2022 11:15:00 AM 11.16 52.088 0.054 6.83 123.41 4.92
10/25/2022 11:30:00 AM 11.22 52.196 0.054 6.82 123.42 4.96
10/25/2022 11:45:00 AM 11.28 52.304 0.054 6.83 123.58 5.03
10/25/2022 12:00:00 PM 11.34 52.412 0.054 6.82 123.63 5.11
10/25/2022 12:15:00 PM 11.41 52.538 0.054 6.82 123.63 5.14
10/25/2022 12:30:00 PM 11.48 52.664 0.054 6.83 123.76 5.13
10/25/2022 12:45:00 PM 11.57 52.826 0.054 6.83 123.83 5.1
10/25/2022 1:00:00 PM 11.67 53.006 0.054 6.83 123.68 5.14
10/25/2022 1:15:00 PM 11.78 53.204 0.054 6.83 123.81 5.22
10/25/2022 1:30:00 PM 11.9 53.42 0.054 6.83 123.81 5.26
10/25/2022 1:45:00 PM 12.03 53.654 0.055 6.83 124.07 5.24
10/25/2022 2:00:00 PM 12.16 53.888 0.055 6.83 124.1 5.19
10/25/2022 2:15:00 PM 12.28 54.104 0.055 6.82 124.23 5.15
10/25/2022 2:30:00 PM 12.4 54.32 0.055 6.83 124.26 5.13
10/25/2022 2:45:00 PM 12.53 54.554 0.055 6.82 124.2 5.15
10/25/2022 3:00:00 PM 12.65 54.77 0.055 6.82 124.32 5.16
10/25/2022 3:15:00 PM 12.77 54.986 0.055 6.82 124.2 5.15
10/25/2022 3:30:00 PM 12.88 55.184 0.055 6.82 124.2 5.11
10/25/2022 3:45:00 PM 12.97 55.346 0.055 6.82 124.01 5.04
10/25/2022 4:00:00 PM 13.05 55.49 0.055 6.82 123.84 4.98
10/25/2022 4:15:00 PM 13.11 55.598 0.055 6.81 123.97 4.95
10/25/2022 4:30:00 PM 13.16 55.688 0.055 6.81 124.01 4.94
10/25/2022 4:45:00 PM 13.2 55.76 0.055 6.81 123.96 4.96
10/25/2022 5:00:00 PM 13.22 55.796 0.055 6.81 123.73 5.07
10/25/2022 5:15:00 PM 13.22 55.796 0.055 6.81 123.74 5.13
10/25/2022 5:30:00 PM 13.22 55.796 0.055 6.81 124.08 5.19
10/25/2022 5:45:00 PM 13.2 55.76 0.055 6.81 123.83 5.23
10/25/2022 6:00:00 PM 13.18 55.724 0.055 6.81 123.92 5.19
10/25/2022 6:15:00 PM 13.15 55.67 0.055 6.81 123.84 5.14
10/25/2022 6:30:00 PM 13.11 55.598 0.055 6.81 123.8 5.04
10/25/2022 6:45:00 PM 13.07 55.526 0.055 6.81 123.88 4.94
10/25/2022 7:00:00 PM 13.03 55.454 0.055 6.81 123.8 4.85
10/25/2022 7:15:00 PM 12.99 55.382 0.055 6.81 123.65 4.75
10/25/2022 7:30:00 PM 12.95 55.31 0.055 6.81 123.79 4.67
10/25/2022 7:45:00 PM 12.91 55.238 0.055 6.81 123.73 4.57
10/25/2022 8:00:00 PM 12.87 55.166 0.055 6.81 123.61 4.44
10/25/2022 8:15:00 PM 12.83 55.094 0.055 6.81 123.79 4.33
10/25/2022 8:30:00 PM 12.78 55.004 0.055 6.81 123.64 4.24
10/25/2022 8:45:00 PM 12.74 54.932 0.055 6.81 123.69 4.15
10/25/2022 9:00:00 PM 12.69 54.842 0.055 6.81 123.38 4.08
10/25/2022 9:15:00 PM 12.65 54.77 0.055 6.8 123.13 4.02
10/25/2022 9:30:00 PM 12.61 54.698 0.055 6.81 123.4 3.96
10/25/2022 9:45:00 PM 12.57 54.626 0.055 6.81 122.99 3.93
10/25/2022 10:00:00 PM 12.54 54.572 0.055 6.81 123.01 3.9
10/25/2022 10:15:00 PM 12.5 54.5 0.055 6.8 123.07 3.9
10/25/2022 10:30:00 PM 12.47 54.446 0.055 6.81 123.07 3.91
10/25/2022 10:45:00 PM 12.45 54.41 0.055 6.81 122.92 3.94
10/25/2022 11:00:00 PM 12.42 54.356 0.055 6.8 122.84 3.92
10/25/2022 11:15:00 PM 12.39 54.302 0.055 6.81 122.74 3.89
10/25/2022 11:30:00 PM 12.37 54.266 0.055 6.81 122.69 3.85
10/25/2022 11:45:00 PM 12.34 54.212 0.055 6.81 122.73 3.81
10/26/2022 12:00:00 AM 12.31 54.158 0.055 6.8 122.75 3.8
10/26/2022 12:15:00 AM 12.28 54.104 0.055 6.8 122.53 3.8
10/26/2022 12:30:00 AM 12.26 54.068 0.055 6.8 122.41 3.79
10/26/2022 12:45:00 AM 12.24 54.032 0.055 6.8 122.43 3.78
10/26/2022 1:00:00 AM 12.22 53.996 0.055 6.8 122.26 3.78
10/26/2022 1:15:00 AM 12.2 53.96 0.055 6.8 122.28 3.75
10/26/2022 1:30:00 AM 12.19 53.942 0.055 6.8 122.18 3.75
10/26/2022 1:45:00 AM 12.17 53.906 0.055 6.8 122.09 3.75
10/26/2022 2:00:00 AM 12.16 53.888 0.055 6.8 121.94 3.73
10/26/2022 2:15:00 AM 12.15 53.87 0.055 6.8 122.05 3.71
10/26/2022 2:30:00 AM 12.13 53.834 0.055 6.8 121.81 3.69
10/26/2022 2:45:00 AM 12.12 53.816 0.055 6.8 121.95 3.68
10/26/2022 3:00:00 AM 12.11 53.798 0.055 6.8 121.87 3.7
10/26/2022 3:15:00 AM 12.11 53.798 0.055 6.8 121.76 3.71
10/26/2022 3:30:00 AM 12.11 53.798 0.055 6.8 121.94 3.71
10/26/2022 3:45:00 AM 12.11 53.798 0.055 6.8 121.82 3.7
10/26/2022 4:00:00 AM 12.11 53.798 0.055 6.8 121.73 3.67
10/26/2022 4:15:00 AM 12.11 53.798 0.055 6.8 121.59 3.64
10/26/2022 4:30:00 AM 12.11 53.798 0.055 6.8 121.57 3.62
10/26/2022 4:45:00 AM 12.12 53.816 0.055 6.8 121.52 3.6
10/26/2022 5:00:00 AM 12.13 53.834 0.055 6.8 121.5 3.57
10/26/2022 5:15:00 AM 12.14 53.852 0.055 6.8 121.45 3.54
10/26/2022 5:30:00 AM 12.15 53.87 0.055 6.8 121.46 3.53
10/26/2022 5:45:00 AM 12.16 53.888 0.055 6.8 121.42 3.57
10/26/2022 6:00:00 AM 12.17 53.906 0.055 6.8 121.47 3.55
10/26/2022 6:15:00 AM 12.18 53.924 0.055 6.8 121.17 3.53
10/26/2022 6:30:00 AM 12.19 53.942 0.055 6.8 121.15 3.52
10/26/2022 6:45:00 AM 12.2 53.96 0.055 6.8 121.07 3.53
10/26/2022 7:00:00 AM 12.21 53.978 0.055 6.8 121.09 3.53
10/26/2022 7:15:00 AM 12.21 53.978 0.055 6.79 121.15 3.54
10/26/2022 7:30:00 AM 12.22 53.996 0.055 6.79 120.98 3.5
10/26/2022 7:45:00 AM 12.23 54.014 0.055 6.8 120.92 3.48
10/26/2022 8:00:00 AM 12.24 54.032 0.055 6.8 121.11 3.49
10/26/2022 8:15:00 AM 12.25 54.05 0.055 6.79 121.03 3.54
10/26/2022 8:30:00 AM 12.27 54.086 0.055 6.79 120.75 3.6
10/26/2022 8:45:00 AM 12.28 54.104 0.055 6.8 120.72 3.58
10/26/2022 9:00:00 AM 12.3 54.14 0.055 6.79 120.58 3.52
10/26/2022 9:15:00 AM 12.32 54.176 0.055 6.79 120.56 3.51
10/26/2022 9:30:00 AM 12.34 54.212 0.055 6.79 120.7 3.51
10/26/2022 9:45:00 AM 12.36 54.248 0.055 6.79 120.73 3.51
10/26/2022 10:00:00 AM 12.38 54.284 0.055 6.79 120.56 3.53
10/26/2022 10:15:00 AM 12.4 54.32 0.055 6.79 120.59 3.54
10/26/2022 10:30:00 AM 12.43 54.374 0.055 6.79 120.36 3.57
10/26/2022 10:45:00 AM 12.46 54.428 0.055 6.79 120.41 3.63
10/26/2022 11:00:00 AM 12.49 54.482 0.055 6.79 120.29 3.7
10/26/2022 11:15:00 AM 12.53 54.554 0.055 6.79 119.94 3.79
10/26/2022 11:30:00 AM 12.57 54.626 0.055 6.79 120.01 3.85
10/26/2022 11:45:00 AM 12.63 54.734 0.055 6.79 120.04 3.9
10/26/2022 12:00:00 PM 12.68 54.824 0.055 6.78 119.94 3.95
10/26/2022 12:15:00 PM 12.74 54.932 0.056 6.79 120.12 3.99
10/26/2022 12:30:00 PM 12.81 55.058 0.056 6.79 120.08 4.06
10/26/2022 12:45:00 PM 12.89 55.202 0.056 6.79 119.77 4.14
10/26/2022 1:00:00 PM 12.98 55.364 0.056 6.79 119.64 4.17
10/26/2022 1:15:00 PM 13.09 55.562 0.057 6.78 119.56 4.17
10/26/2022 1:30:00 PM 13.2 55.76 0.055 6.78 119.53 4.17
10/26/2022 1:45:00 PM 13.32 55.976 0.055 6.78 119.71 4.17
10/26/2022 2:00:00 PM 13.43 56.174 0.055 6.78 119.46 4.16
10/26/2022 2:15:00 PM 13.52 56.336 0.055 6.78 119.55 4.15
10/26/2022 2:30:00 PM 13.59 56.462 0.055 6.78 119.45 4.15
10/26/2022 2:45:00 PM 13.66 56.588 0.055 6.78 119.43 4.14
10/26/2022 3:00:00 PM 13.73 56.714 0.055 6.78 119.35 4.13
10/26/2022 3:15:00 PM 13.79 56.822 0.055 6.78 119.35 4.1
10/26/2022 3:30:00 PM 13.83 56.894 0.055 6.78 119.53 4.06
10/26/2022 3:45:00 PM 13.87 56.966 0.055 6.78 119.38 4.07
10/26/2022 4:00:00 PM 13.91 57.038 0.055 6.77 119.43 4.12
10/26/2022 4:15:00 PM 13.93 57.074 0.055 6.77 119.19 4.13
10/26/2022 4:30:00 PM 13.95 57.11 0.055 6.77 119.27 4.15
10/26/2022 4:45:00 PM 13.95 57.11 0.055 6.77 119.17 4.13
10/26/2022 5:00:00 PM 13.96 57.128 0.055 6.77 118.98 4.12
10/26/2022 5:15:00 PM 13.95 57.11 0.055 6.78 119 4.12
10/26/2022 5:30:00 PM 13.94 57.092 0.055 6.78 118.86 4.1
10/26/2022 5:45:00 PM 13.93 57.074 0.055 6.77 118.86 4.04
10/26/2022 6:00:00 PM 13.91 57.038 0.055 6.77 118.67 3.94
10/26/2022 6:15:00 PM 13.88 56.984 0.055 6.77 118.59 3.84
10/26/2022 6:30:00 PM 13.86 56.948 0.055 6.77 118.43 3.77
10/26/2022 6:45:00 PM 13.82 56.876 0.055 6.78 118.4 3.71
10/26/2022 7:00:00 PM 13.79 56.822 0.055 6.78 118.39 3.66
10/26/2022 7:15:00 PM 13.75 56.75 0.055 6.78 118.4 3.64
10/26/2022 7:30:00 PM 13.71 56.678 0.055 6.78 118.22 3.63
10/26/2022 7:45:00 PM 13.66 56.588 0.055 6.77 117.96 3.62
10/26/2022 8:00:00 PM 13.62 56.516 0.055 6.78 118.12 3.61
10/26/2022 8:15:00 PM 13.58 56.444 0.055 6.78 118.08 3.62
10/26/2022 8:30:00 PM 13.53 56.354 0.055 6.78 117.96 3.61
10/26/2022 8:45:00 PM 13.48 56.264 0.055 6.77 117.9 3.59
10/26/2022 9:00:00 PM 13.43 56.174 0.055 6.78 117.82 3.61
10/26/2022 9:15:00 PM 13.38 56.084 0.055 6.78 117.78 3.62
10/26/2022 9:30:00 PM 13.33 55.994 0.055 6.78 117.76 3.63
10/26/2022 9:45:00 PM 13.27 55.886 0.055 6.77 117.6 3.65
10/26/2022 10:00:00 PM 13.21 55.778 0.055 6.78 117.53 3.71
10/26/2022 10:15:00 PM 13.16 55.688 0.055 6.78 117.62 3.79
10/26/2022 10:30:00 PM 13.1 55.58 0.055 6.78 117.45 3.85
10/26/2022 10:45:00 PM 13.04 55.472 0.055 6.78 117.54 3.88
10/26/2022 11:00:00 PM 12.98 55.364 0.055 6.78 117.46 3.89
10/26/2022 11:15:00 PM 12.92 55.256 0.055 6.78 117.47 3.91
10/26/2022 11:30:00 PM 12.86 55.148 0.055 6.78 117.34 3.91
10/26/2022 11:45:00 PM 12.8 55.04 0.055 6.78 117.24 3.89
10/27/2022 12:00:00 AM 12.74 54.932 0.055 6.78 117.21 3.85
10/27/2022 12:15:00 AM 12.68 54.824 0.055 6.78 117.09 3.79
10/27/2022 12:30:00 AM 12.63 54.734 0.055 6.78 117 3.77
10/27/2022 12:45:00 AM 12.57 54.626 0.055 6.78 116.96 3.77
10/27/2022 1:00:00 AM 12.51 54.518 0.055 6.78 116.98 3.79
10/27/2022 1:15:00 AM 12.46 54.428 0.055 6.78 117 3.84
10/27/2022 1:30:00 AM 12.4 54.32 0.055 6.78 116.96 3.9
10/27/2022 1:45:00 AM 12.35 54.23 0.055 6.78 116.96 3.92
10/27/2022 2:00:00 AM 12.3 54.14 0.055 6.78 116.81 3.9
10/27/2022 2:15:00 AM 12.24 54.032 0.055 6.78 116.7 3.85
10/27/2022 2:30:00 AM 12.2 53.96 0.055 6.78 116.61 3.79
10/27/2022 2:45:00 AM 12.16 53.888 0.055 6.78 116.49 3.74
10/27/2022 3:00:00 AM 12.12 53.816 0.055 6.79 116.47 3.7
10/27/2022 3:15:00 AM 12.08 53.744 0.055 6.78 116.45 3.67
10/27/2022 3:30:00 AM 12.05 53.69 0.055 6.78 116.38 3.66
10/27/2022 3:45:00 AM 12.02 53.636 0.055 6.78 116.32 3.66
10/27/2022 4:00:00 AM 11.99 53.582 0.055 6.78 116.25 3.63
10/27/2022 4:15:00 AM 11.97 53.546 0.055 6.78 116.34 3.61
10/27/2022 4:30:00 AM 11.94 53.492 0.055 6.79 116.14 3.62
10/27/2022 4:45:00 AM 11.91 53.438 0.055 6.79 116.11 3.65
10/27/2022 5:00:00 AM 11.88 53.384 0.055 6.79 116.13 3.66
10/27/2022 5:15:00 AM 11.84 53.312 0.055 6.79 116.1 3.68
10/27/2022 5:30:00 AM 11.81 53.258 0.055 6.79 116.13 3.72
10/27/2022 5:45:00 AM 11.78 53.204 0.055 6.79 116.06 3.72
10/27/2022 6:00:00 AM 11.74 53.132 0.055 6.79 116.09 3.72
10/27/2022 6:15:00 AM 11.7 53.06 0.055 6.79 116.21 3.7
10/27/2022 6:30:00 AM 11.66 52.988 0.055 6.79 116.12 3.66
10/27/2022 6:45:00 AM 11.63 52.934 0.055 6.79 115.87 3.63
10/27/2022 7:00:00 AM 11.59 52.862 0.055 6.79 115.89 3.66
10/27/2022 7:15:00 AM 11.54 52.772 0.055 6.79 115.86 3.71
10/27/2022 7:30:00 AM 11.5 52.7 0.055 6.79 115.75 3.8
10/27/2022 7:45:00 AM 11.46 52.628 0.055 6.79 115.64 3.8
10/27/2022 8:00:00 AM 11.42 52.556 0.055 6.79 115.66 3.72
10/27/2022 8:15:00 AM 11.38 52.484 0.055 6.79 115.57 3.57
10/27/2022 8:30:00 AM 11.34 52.412 0.055 6.79 115.52 3.35
10/27/2022 8:45:00 AM 11.3 52.34 0.055 6.79 115.51 3.11
10/27/2022 9:00:00 AM 11.26 52.268 0.055 6.79 115.55 2.9
10/27/2022 9:15:00 AM 11.23 52.214 0.055 6.79 115.45 2.8
10/27/2022 9:30:00 AM 11.19 52.142 0.055 6.8 115.45 2.8
10/27/2022 9:45:00 AM 11.16 52.088 0.055 6.8 115.5 2.85
10/27/2022 10:00:00 AM 11.13 52.034 0.055 6.79 115.43 2.9
10/27/2022 10:15:00 AM 11.1 51.98 0.055 6.8 115.49 2.95
10/27/2022 10:30:00 AM 11.08 51.944 0.055 6.8 115.34 3.02
10/27/2022 10:45:00 AM 11.07 51.926 0.055 6.79 115.4 3.08
10/27/2022 11:00:00 AM 11.06 51.908 0.055 6.8 115.39 3.13
10/27/2022 11:15:00 AM 11.06 51.908 0.056 6.8 115.36 3.16
10/27/2022 11:30:00 AM 11.07 51.926 0.055 6.8 115.2 3.18
10/27/2022 11:45:00 AM 11.08 51.944 0.055 6.8 115.26 3.16
10/27/2022 12:00:00 PM 11.1 51.98 0.056 6.8 115.13 3.12
10/27/2022 12:15:00 PM 11.12 52.016 0.056 6.8 115.11 3.07
10/27/2022 12:30:00 PM 11.15 52.07 0.056 6.8 114.96 3.01
10/27/2022 12:45:00 PM 11.18 52.124 0.056 6.8 115.01 2.96
10/27/2022 1:00:00 PM 11.21 52.178 0.056 6.79 114.88 2.92
10/27/2022 1:15:00 PM 11.25 52.25 0.056 6.8 114.8 2.9
10/27/2022 1:30:00 PM 11.29 52.322 0.056 6.79 114.9 2.9
10/27/2022 1:45:00 PM 11.35 52.43 0.056 6.8 114.87 2.9
10/27/2022 2:00:00 PM 11.41 52.538 0.056 6.8 115 2.89
10/27/2022 2:15:00 PM 11.48 52.664 0.056 6.8 114.83 2.85
10/27/2022 2:30:00 PM 11.55 52.79 0.056 6.8 114.84 2.78
10/27/2022 2:45:00 PM 11.63 52.934 0.056 6.79 114.69 2.69
10/27/2022 3:00:00 PM 11.69 53.042 0.056 6.79 114.84 2.59
10/27/2022 3:15:00 PM 11.74 53.132 0.056 6.79 114.58 2.5
10/27/2022 3:30:00 PM 11.79 53.222 0.056 6.79 114.63 2.4
10/27/2022 3:45:00 PM 11.82 53.276 0.056 6.79 114.54 2.33
10/27/2022 4:00:00 PM 11.84 53.312 0.056 6.8 114.59 2.29
10/27/2022 4:15:00 PM 11.85 53.33 0.056 6.8 114.47 2.25
10/27/2022 4:30:00 PM 11.85 53.33 0.056 6.8 114.44 2.22
10/27/2022 4:45:00 PM 11.83 53.294 0.056 6.8 114.45 2.16
10/27/2022 5:00:00 PM 11.8 53.24 0.056 6.8 114.45 2.11
10/27/2022 5:15:00 PM 11.75 53.15 0.056 6.8 114.4 2.05
10/27/2022 5:30:00 PM 11.69 53.042 0.056 6.8 114.47 2
10/27/2022 5:45:00 PM 11.62 52.916 0.056 6.8 114.39 1.94
10/27/2022 6:00:00 PM 11.54 52.772 0.056 6.8 114.39 1.89
10/27/2022 6:15:00 PM 11.46 52.628 0.056 6.79 114.31 1.87
10/27/2022 6:30:00 PM 11.38 52.484 0.056 6.8 114.24 1.86
10/27/2022 6:45:00 PM 11.3 52.34 0.056 6.79 114.31 1.84
10/27/2022 7:00:00 PM 11.23 52.214 0.056 6.8 114.15 1.8
10/27/2022 7:15:00 PM 11.15 52.07 0.056 6.8 114.31 1.74
10/27/2022 7:30:00 PM 11.07 51.926 0.056 6.79 114.29 1.7
10/27/2022 7:45:00 PM 11 51.8 0.056 6.79 114.17 1.66
10/27/2022 8:00:00 PM 10.93 51.674 0.056 6.8 114.17 1.63
10/27/2022 8:15:00 PM 10.86 51.548 0.056 6.8 114 1.61
10/27/2022 8:30:00 PM 10.79 51.422 0.056 6.8 113.94 1.58
10/27/2022 8:45:00 PM 10.73 51.314 0.056 6.8 113.86 1.54
10/27/2022 9:00:00 PM 10.66 51.188 0.056 6.8 113.84 1.52
10/27/2022 9:15:00 PM 10.59 51.062 0.056 6.8 113.84 1.53
10/27/2022 9:30:00 PM 10.52 50.936 0.055 6.8 113.75 1.58
10/27/2022 9:45:00 PM 10.45 50.81 0.055 6.8 113.82 1.66
10/27/2022 10:00:00 PM 10.38 50.684 0.055 6.8 113.68 1.73
10/27/2022 10:15:00 PM 10.31 50.558 0.055 6.8 113.58 1.78
10/27/2022 10:30:00 PM 10.23 50.414 0.055 6.8 113.58 1.81
10/27/2022 10:45:00 PM 10.16 50.288 0.055 6.8 113.51 1.81
10/27/2022 11:00:00 PM 10.08 50.144 0.055 6.81 113.55 1.8
10/27/2022 11:15:00 PM 10.01 50.018 0.055 6.81 113.47 1.8
10/27/2022 11:30:00 PM 9.93 49.874 0.055 6.81 113.52 1.81
10/27/2022 11:45:00 PM 9.86 49.748 0.055 6.81 113.47 1.81
10/28/2022 12:00:00 AM 9.79 49.622 0.055 6.81 113.35 1.82
10/28/2022 12:15:00 AM 9.71 49.478 0.055 6.81 113.35 1.83
10/28/2022 12:30:00 AM 9.64 49.352 0.055 6.82 113.3 1.86
10/28/2022 12:45:00 AM 9.57 49.226 0.055 6.82 113.14 1.9
10/28/2022 1:00:00 AM 9.49 49.082 0.055 6.82 113.18 1.94
10/28/2022 1:15:00 AM 9.42 48.956 0.055 6.82 113.13 1.97
10/28/2022 1:30:00 AM 9.35 48.83 0.055 6.82 113.21 2.01
10/28/2022 1:45:00 AM 9.28 48.704 0.055 6.82 113.16 2.05
10/28/2022 2:00:00 AM 9.2 48.56 0.055 6.82 113.1 2.11
10/28/2022 2:15:00 AM 9.13 48.434 0.055 6.82 113.07 2.18
10/28/2022 2:30:00 AM 9.06 48.308 0.055 6.83 112.99 2.25
10/28/2022 2:45:00 AM 8.99 48.182 0.055 6.83 112.93 2.31
10/28/2022 3:00:00 AM 8.92 48.056 0.055 6.83 112.89 2.35
10/28/2022 3:15:00 AM 8.85 47.93 0.055 6.83 112.84 2.39
10/28/2022 3:30:00 AM 8.78 47.804 0.055 6.83 112.9 2.39
10/28/2022 3:45:00 AM 8.72 47.696 0.055 6.83 112.88 2.37
10/28/2022 4:00:00 AM 8.65 47.57 0.055 6.83 112.88 2.35
10/28/2022 4:15:00 AM 8.58 47.444 0.055 6.83 112.96 2.32
10/28/2022 4:30:00 AM 8.52 47.336 0.055 6.83 112.79 2.32
10/28/2022 4:45:00 AM 8.46 47.228 0.055 6.83 112.78 2.32
10/28/2022 5:00:00 AM 8.4 47.12 0.055 6.83 112.74 2.33
10/28/2022 5:15:00 AM 8.34 47.012 0.055 6.84 112.74 2.33
10/28/2022 5:30:00 AM 8.28 46.904 0.055 6.84 112.71 2.34
10/28/2022 5:45:00 AM 8.22 46.796 0.055 6.84 112.68 2.35
10/28/2022 6:00:00 AM 8.16 46.688 0.055 6.84 112.64 2.35
10/28/2022 6:15:00 AM 8.11 46.598 0.055 6.84 112.65 2.35
10/28/2022 6:30:00 AM 8.06 46.508 0.055 6.84 112.61 2.35
10/28/2022 6:45:00 AM 8.01 46.418 0.055 6.84 112.64 2.35
10/28/2022 7:00:00 AM 7.96 46.328 0.055 6.84 112.58 2.35
10/28/2022 7:15:00 AM 7.91 46.238 0.055 6.84 112.64 2.35
10/28/2022 7:30:00 AM 7.87 46.166 0.055 6.84 112.53 2.35
10/28/2022 7:45:00 AM 7.83 46.094 0.055 6.85 112.52 2.33
10/28/2022 8:00:00 AM 7.79 46.022 0.055 6.84 112.52 2.29
10/28/2022 8:15:00 AM 7.75 45.95 0.055 6.85 112.49 2.24
10/28/2022 8:30:00 AM 7.72 45.896 0.055 6.85 112.46 2.19
10/28/2022 8:45:00 AM 7.68 45.824 0.055 6.85 112.42 2.13
10/28/2022 9:00:00 AM 7.66 45.788 0.055 6.85 112.44 2.06
10/28/2022 9:15:00 AM 7.63 45.734 0.055 6.85 112.4 1.99
10/28/2022 9:30:00 AM 7.61 45.698 0.055 6.85 112.39 1.92
10/28/2022 9:45:00 AM 7.59 45.662 0.055 6.85 112.43 1.85
10/28/2022 10:00:00 AM 7.58 45.644 0.055 6.85 112.44 1.78
10/28/2022 10:15:00 AM 7.57 45.626 0.055 6.85 112.39 1.7
10/28/2022 10:30:00 AM 7.57 45.626 0.055 6.86 112.42 1.61
10/28/2022 10:45:00 AM 7.58 45.644 0.055 6.86 112.33 1.55
10/28/2022 11:00:00 AM 7.6 45.68 0.055 6.86 112.35 1.49
10/28/2022 11:15:00 AM 7.63 45.734 0.055 6.85 112.33 1.47
10/28/2022 11:30:00 AM 7.67 45.806 0.055 6.85 112.32 1.45
10/28/2022 11:45:00 AM 7.71 45.878 0.055 6.86 112.37 1.45
10/28/2022 12:00:00 PM 7.77 45.986 0.056 6.86 112.39 1.44
10/28/2022 12:15:00 PM 7.84 46.112 0.056 6.85 112.34 1.43
10/28/2022 12:30:00 PM 7.92 46.256 0.056 6.86 112.3 1.43
10/28/2022 12:45:00 PM 8.01 46.418 0.056 6.85 112.29 1.43
10/28/2022 1:00:00 PM 8.11 46.598 0.056 6.86 112.34 1.45
10/28/2022 1:15:00 PM 8.22 46.796 0.056 6.85 112.39 1.51
10/28/2022 1:30:00 PM 8.35 47.03 0.056 6.85 112.39 1.6
10/28/2022 1:45:00 PM 8.48 47.264 0.056 6.85 112.31 1.73
10/28/2022 2:00:00 PM 8.61 47.498 0.056 6.85 112.33 1.89
10/28/2022 2:15:00 PM 8.75 47.75 0.056 6.85 112.38 2.07
10/28/2022 2:30:00 PM 8.89 48.002 0.056 6.84 112.32 2.24
10/28/2022 2:45:00 PM 9.03 48.254 0.056 6.85 112.32 2.39
10/28/2022 3:00:00 PM 9.16 48.488 0.056 6.84 112.29 2.51
10/28/2022 3:15:00 PM 9.29 48.722 0.057 6.84 112.39 2.59
10/28/2022 3:30:00 PM 9.41 48.938 0.057 6.84 112.42 2.64
10/28/2022 3:45:00 PM 9.51 49.118 0.057 6.84 112.45 2.69
10/28/2022 4:00:00 PM 9.6 49.28 0.057 6.84 112.36 2.71
10/28/2022 4:15:00 PM 9.67 49.406 0.057 6.84 112.31 2.72
10/28/2022 4:30:00 PM 9.73 49.514 0.057 6.83 112.32 2.72
10/28/2022 4:45:00 PM 9.76 49.568 0.057 6.84 112.34 2.7
10/28/2022 5:00:00 PM 9.79 49.622 0.057 6.84 112.29 2.68
10/28/2022 5:15:00 PM 9.8 49.64 0.057 6.83 112.33 2.65
10/28/2022 5:30:00 PM 9.8 49.64 0.057 6.83 112.31 2.58
10/28/2022 5:45:00 PM 9.79 49.622 0.057 6.83 112.25 2.51
10/28/2022 6:00:00 PM 9.78 49.604 0.057 6.83 112.24 2.45
10/28/2022 6:15:00 PM 9.76 49.568 0.057 6.83 112.29 2.39
10/28/2022 6:30:00 PM 9.74 49.532 0.057 6.82 112.27 2.35
10/28/2022 6:45:00 PM 9.72 49.496 0.057 6.83 112.26 2.32
10/28/2022 7:00:00 PM 9.7 49.46 0.057 6.83 112.24 2.29
10/28/2022 7:15:00 PM 9.68 49.424 0.057 6.83 112.2 2.25
10/28/2022 7:30:00 PM 9.65 49.37 0.057 6.83 112.15 2.21
10/28/2022 7:45:00 PM 9.63 49.334 0.058 6.83 112.12 2.17
10/28/2022 8:00:00 PM 9.6 49.28 0.058 6.82 112.21 2.13
10/28/2022 8:15:00 PM 9.58 49.244 0.058 6.83 112.16 2.08
10/28/2022 8:30:00 PM 9.55 49.19 0.058 6.83 112.13 2.05
10/28/2022 8:45:00 PM 9.51 49.118 0.058 6.83 112.1 2.05
10/28/2022 9:00:00 PM 9.47 49.046 0.058 6.82 112.01 2.06
10/28/2022 9:15:00 PM 9.43 48.974 0.058 6.82 111.98 2.08
10/28/2022 9:30:00 PM 9.39 48.902 0.058 6.82 111.98 2.1
10/28/2022 9:45:00 PM 9.34 48.812 0.058 6.82 111.94 2.1
10/28/2022 10:00:00 PM 9.29 48.722 0.058 6.82 111.92 2.1
10/28/2022 10:15:00 PM 9.23 48.614 0.058 6.82 111.95 2.07
10/28/2022 10:30:00 PM 9.17 48.506 0.058 6.82 111.89 2.03
10/28/2022 10:45:00 PM 9.12 48.416 0.058 6.82 111.89 1.98
10/28/2022 11:00:00 PM 9.06 48.308 0.058 6.82 111.88 1.93
10/28/2022 11:15:00 PM 8.99 48.182 0.058 6.82 111.84 1.89
10/28/2022 11:30:00 PM 8.93 48.074 0.058 6.82 111.81 1.83
10/28/2022 11:45:00 PM 8.86 47.948 0.058 6.82 111.76 1.77
10/29/2022 12:00:00 AM 8.8 47.84 0.058 6.82 111.71 1.7
10/29/2022 12:15:00 AM 8.73 47.714 0.058 6.82 111.76 1.63
10/29/2022 12:30:00 AM 8.66 47.588 0.058 6.82 111.74 1.57
10/29/2022 12:45:00 AM 8.59 47.462 0.058 6.82 111.8 1.5
10/29/2022 1:00:00 AM 8.53 47.354 0.058 6.82 111.73 1.44
10/29/2022 1:15:00 AM 8.45 47.21 0.058 6.82 111.71 1.39
10/29/2022 1:30:00 AM 8.38 47.084 0.058 6.82 111.6 1.33
10/29/2022 1:45:00 AM 8.31 46.958 0.058 6.82 111.61 1.27
10/29/2022 2:00:00 AM 8.24 46.832 0.058 6.82 111.62 1.22
10/29/2022 2:15:00 AM 8.17 46.706 0.058 6.82 111.62 1.17
10/29/2022 2:30:00 AM 8.1 46.58 0.058 6.82 111.59 1.13
10/29/2022 2:45:00 AM 8.03 46.454 0.058 6.82 111.61 1.09
10/29/2022 3:00:00 AM 7.96 46.328 0.058 6.82 111.59 1.06
10/29/2022 3:15:00 AM 7.89 46.202 0.058 6.82 111.53 1.03
10/29/2022 3:30:00 AM 7.82 46.076 0.058 6.82 111.53 1.01
10/29/2022 3:45:00 AM 7.75 45.95 0.058 6.83 111.55 0.99
10/29/2022 4:00:00 AM 7.69 45.842 0.058 6.83 111.49 0.97
10/29/2022 4:15:00 AM 7.62 45.716 0.058 6.82 111.42 0.95
10/29/2022 4:30:00 AM 7.55 45.59 0.058 6.83 111.3 0.93
10/29/2022 4:45:00 AM 7.49 45.482 0.058 6.83 111.44 0.92
10/29/2022 5:00:00 AM 7.42 45.356 0.058 6.82 111.51 0.91
10/29/2022 5:15:00 AM 7.36 45.248 0.058 6.83 111.47 0.9
10/29/2022 5:30:00 AM 7.3 45.14 0.058 6.83 111.48 0.89
10/29/2022 5:45:00 AM 7.23 45.014 0.058 6.83 111.43 0.88
10/29/2022 6:00:00 AM 7.17 44.906 0.058 6.83 111.44 0.87
10/29/2022 6:15:00 AM 7.11 44.798 0.058 6.83 111.32 0.87
10/29/2022 6:30:00 AM 7.05 44.69 0.058 6.83 111.28 0.86
10/29/2022 6:45:00 AM 6.99 44.582 0.058 6.83 111.25 0.85
10/29/2022 7:00:00 AM 6.93 44.474 0.058 6.83 111.26 0.84
10/29/2022 7:15:00 AM 6.87 44.366 0.058 6.84 111.24 0.83
10/29/2022 7:30:00 AM 6.82 44.276 0.058 6.83 111.26 0.83
10/29/2022 7:45:00 AM 6.76 44.168 0.058 6.84 111.26 0.82
10/29/2022 8:00:00 AM 6.7 44.06 0.058 6.84 111.25 0.82
10/29/2022 8:15:00 AM 6.65 43.97 0.058 6.83 111.26 0.84
10/29/2022 8:30:00 AM 6.6 43.88 0.058 6.84 111.26 0.88
10/29/2022 8:45:00 AM 6.55 43.79 0.058 6.84 111.24 0.93
10/29/2022 9:00:00 AM 6.5 43.7 0.058 6.84 111.2 0.98
10/29/2022 9:15:00 AM 6.46 43.628 0.058 6.84 111.2 1.02
10/29/2022 9:30:00 AM 6.42 43.556 0.058 6.84 111.16 1.07
10/29/2022 9:45:00 AM 6.38 43.484 0.058 6.84 111.15 1.15
10/29/2022 10:00:00 AM 6.35 43.43 0.058 6.84 111.17 1.25
10/29/2022 10:15:00 AM 6.33 43.394 0.058 6.84 111.17 1.35
10/29/2022 10:30:00 AM 6.32 43.376 0.058 6.85 111.15 1.45
10/29/2022 10:45:00 AM 6.32 43.376 0.058 6.84 111.16 1.54
10/29/2022 11:00:00 AM 6.33 43.394 0.058 6.85 111.17 1.65
10/29/2022 11:15:00 AM 6.35 43.43 0.058 6.85 111.2 1.74
10/29/2022 11:30:00 AM 6.39 43.502 0.058 6.84 111.16 1.83
10/29/2022 11:45:00 AM 6.43 43.574 0.058 6.85 111.21 1.91
10/29/2022 12:00:00 PM 6.49 43.682 0.058 6.85 111.21 1.98
10/29/2022 12:15:00 PM 6.56 43.808 0.058 6.85 111.09 2.05
10/29/2022 12:30:00 PM 6.65 43.97 0.058 6.84 111.07 2.12
10/29/2022 12:45:00 PM 6.76 44.168 0.058 6.85 111.08 2.19
10/29/2022 1:00:00 PM 6.88 44.384 0.058 6.84 111.17 2.25
10/29/2022 1:15:00 PM 7.02 44.636 0.058 6.84 111.15 2.31
10/29/2022 1:30:00 PM 7.18 44.924 0.058 6.84 111.16 2.38
10/29/2022 1:45:00 PM 7.34 45.212 0.058 6.84 111.16 2.44
10/29/2022 2:00:00 PM 7.52 45.536 0.058 6.84 111.22 2.5
10/29/2022 2:15:00 PM 7.69 45.842 0.059 6.84 111.19 2.51
10/29/2022 2:30:00 PM 7.86 46.148 0.059 6.84 111.17 2.47
10/29/2022 2:45:00 PM 8.02 46.436 0.059 6.84 111.28 2.42
10/29/2022 3:00:00 PM 8.18 46.724 0.059 6.84 111.27 2.36
10/29/2022 3:15:00 PM 8.33 46.994 0.059 6.83 111.22 2.29
10/29/2022 3:30:00 PM 8.47 47.246 0.059 6.83 111.21 2.21
10/29/2022 3:45:00 PM 8.59 47.462 0.059 6.83 111.22 2.13
10/29/2022 4:00:00 PM 8.7 47.66 0.059 6.83 111.24 2.04
10/29/2022 4:15:00 PM 8.8 47.84 0.059 6.83 111.32 1.95
10/29/2022 4:30:00 PM 8.88 47.984 0.059 6.83 111.2 1.87
10/29/2022 4:45:00 PM 8.94 48.092 0.059 6.83 111.23 1.82
10/29/2022 5:00:00 PM 8.99 48.182 0.059 6.83 111.17 1.77
10/29/2022 5:15:00 PM 9.02 48.236 0.059 6.83 111.17 1.74
10/29/2022 5:30:00 PM 9.03 48.254 0.059 6.82 111.18 1.72
10/29/2022 5:45:00 PM 9.02 48.236 0.059 6.82 111.15 1.72
10/29/2022 6:00:00 PM 9.01 48.218 0.059 6.82 111.17 1.73
10/29/2022 6:15:00 PM 8.98 48.164 0.059 6.82 111.13 1.74
10/29/2022 6:30:00 PM 8.94 48.092 0.059 6.82 111.12 1.76
10/29/2022 6:45:00 PM 8.9 48.02 0.059 6.82 111.09 1.77
10/29/2022 7:00:00 PM 8.86 47.948 0.059 6.82 111.04 1.77
10/29/2022 7:15:00 PM 8.81 47.858 0.06 6.82 111.01 1.77
10/29/2022 7:30:00 PM 8.76 47.768 0.059 6.82 111 1.76
10/29/2022 7:45:00 PM 8.71 47.678 0.059 6.82 111.13 1.74
10/29/2022 8:00:00 PM 8.67 47.606 0.06 6.82 111.01 1.71
10/29/2022 8:15:00 PM 8.62 47.516 0.06 6.82 111.01 1.68
10/29/2022 8:30:00 PM 8.57 47.426 0.06 6.82 110.99 1.63
10/29/2022 8:45:00 PM 8.53 47.354 0.06 6.82 111.01 1.58
10/29/2022 9:00:00 PM 8.48 47.264 0.06 6.82 110.99 1.53
10/29/2022 9:15:00 PM 8.43 47.174 0.06 6.82 110.98 1.49
10/29/2022 9:30:00 PM 8.38 47.084 0.06 6.82 110.92 1.45
10/29/2022 9:45:00 PM 8.32 46.976 0.06 6.82 110.91 1.42
10/29/2022 10:00:00 PM 8.27 46.886 0.06 6.82 110.92 1.4
10/29/2022 10:15:00 PM 8.21 46.778 0.06 6.82 110.87 1.39
10/29/2022 10:30:00 PM 8.15 46.67 0.06 6.82 110.9 1.4
10/29/2022 10:45:00 PM 8.09 46.562 0.06 6.82 110.86 1.42
10/29/2022 11:00:00 PM 8.02 46.436 0.06 6.82 110.85 1.46
10/29/2022 11:15:00 PM 7.96 46.328 0.06 6.82 110.88 1.5
10/29/2022 11:30:00 PM 7.9 46.22 0.06 6.82 110.87 1.54
10/29/2022 11:45:00 PM 7.84 46.112 0.06 6.82 110.84 1.58
10/30/2022 12:00:00 AM 7.78 46.004 0.06 6.82 110.75 1.62
10/30/2022 12:15:00 AM 7.71 45.878 0.06 6.82 110.74 1.65
10/30/2022 12:30:00 AM 7.65 45.77 0.06 6.82 110.74 1.68
10/30/2022 12:45:00 AM 7.59 45.662 0.06 6.82 110.67 1.7
10/30/2022 1:00:00 AM 7.52 45.536 0.06 6.82 110.68 1.71
10/30/2022 1:15:00 AM 7.46 45.428 0.06 6.82 110.68 1.73
10/30/2022 1:30:00 AM 7.4 45.32 0.06 6.82 110.64 1.77
10/30/2022 1:45:00 AM 7.34 45.212 0.06 6.82 110.67 1.82
10/30/2022 2:00:00 AM 7.27 45.086 0.06 6.82 110.72 1.87
10/30/2022 2:15:00 AM 7.21 44.978 0.06 6.82 110.69 1.91
10/30/2022 2:30:00 AM 7.15 44.87 0.06 6.83 110.59 1.94
10/30/2022 2:45:00 AM 7.09 44.762 0.06 6.83 110.59 1.98
10/30/2022 3:00:00 AM 7.03 44.654 0.06 6.82 110.48 2.01
10/30/2022 3:15:00 AM 6.97 44.546 0.06 6.83 110.47 2.03
10/30/2022 3:30:00 AM 6.91 44.438 0.06 6.83 110.49 2.04
10/30/2022 3:45:00 AM 6.86 44.348 0.06 6.83 110.49 2.05
10/30/2022 4:00:00 AM 6.8 44.24 0.06 6.83 110.54 2.07
10/30/2022 4:30:00 AM 6.68 44.024 0.06 6.82 110.56 2.1
10/30/2022 4:45:00 AM 6.63 43.934 0.06 6.83 110.53 2.1
10/30/2022 5:00:00 AM 6.57 43.826 0.06 6.83 110.53 2.1
10/30/2022 5:15:00 AM 6.52 43.736 0.06 6.83 110.5 2.1
10/30/2022 5:30:00 AM 6.46 43.628 0.06 6.83 110.39 2.11
10/30/2022 5:45:00 AM 6.41 43.538 0.06 6.83 110.33 2.1
10/30/2022 6:00:00 AM 6.35 43.43 0.06 6.83 110.33 2.09
10/30/2022 6:15:00 AM 6.3 43.34 0.06 6.83 110.35 2.07
10/30/2022 6:30:00 AM 6.25 43.25 0.06 6.83 110.37 2.05
10/30/2022 6:45:00 AM 6.19 43.142 0.06 6.83 110.32 2.02
10/30/2022 7:00:00 AM 6.14 43.052 0.06 6.84 110.29 2.01
10/30/2022 7:15:00 AM 6.09 42.962 0.06 6.84 110.41 1.99
10/30/2022 7:30:00 AM 6.04 42.872 0.06 6.84 110.4 1.97
10/30/2022 7:45:00 AM 5.98 42.764 0.06 6.84 110.34 1.96
10/30/2022 8:00:00 AM 5.93 42.674 0.06 6.84 110.28 1.94
10/30/2022 8:15:00 AM 5.88 42.584 0.06 6.84 110.21 1.93
10/30/2022 8:30:00 AM 5.83 42.494 0.06 6.84 110.24 1.91
10/30/2022 8:45:00 AM 5.79 42.422 0.06 6.84 110.29 1.9
10/30/2022 9:00:00 AM 5.74 42.332 0.06 6.84 110.28 1.89
10/30/2022 9:15:00 AM 5.7 42.26 0.06 6.84 110.21 1.88
10/30/2022 9:30:00 AM 5.67 42.206 0.06 6.84 110.17 1.87
10/30/2022 9:45:00 AM 5.64 42.152 0.06 6.85 110.06 1.87
10/30/2022 10:00:00 AM 5.61 42.098 0.06 6.85 110.16 1.87
10/30/2022 10:15:00 AM 5.6 42.08 0.06 6.85 110.09 1.87
10/30/2022 10:30:00 AM 5.59 42.062 0.06 6.85 110.1 1.86
10/30/2022 10:45:00 AM 5.6 42.08 0.06 6.84 110.06 1.85
10/30/2022 11:00:00 AM 5.62 42.116 0.06 6.85 110.05 1.83
10/30/2022 11:15:00 AM 5.65 42.17 0.06 6.85 110.12 1.81
10/30/2022 11:30:00 AM 5.69 42.242 0.06 6.85 110.09 1.79
10/30/2022 11:45:00 AM 5.75 42.35 0.06 6.85 110.13 1.77
10/30/2022 12:00:00 PM 5.81 42.458 0.06 6.85 110.16 1.75
10/30/2022 12:15:00 PM 5.89 42.602 0.06 6.84 110.15 1.71
10/30/2022 12:30:00 PM 5.99 42.782 0.06 6.85 110.06 1.67
10/30/2022 12:45:00 PM 6.11 42.998 0.06 6.85 110.08 1.64
10/30/2022 1:00:00 PM 6.24 43.232 0.06 6.85 110.14 1.61
10/30/2022 1:15:00 PM 6.4 43.52 0.06 6.85 110.13 1.57
10/30/2022 1:30:00 PM 6.57 43.826 0.06 6.85 110.11 1.55
10/30/2022 1:45:00 PM 6.75 44.15 0.06 6.84 110.18 1.54
10/30/2022 2:00:00 PM 6.93 44.474 0.06 6.84 110.21 1.54
10/30/2022 2:15:00 PM 7.12 44.816 0.06 6.84 110.14 1.56
10/30/2022 2:30:00 PM 7.3 45.14 0.06 6.84 110.19 1.6
10/30/2022 2:45:00 PM 7.47 45.446 0.06 6.84 110.24 1.66
10/30/2022 3:00:00 PM 7.64 45.752 0.06 6.84 110.18 1.74
10/30/2022 3:15:00 PM 7.8 46.04 0.06 6.84 110.16 1.79
10/30/2022 3:30:00 PM 7.94 46.292 0.06 6.83 110.23 1.84
10/30/2022 3:45:00 PM 8.07 46.526 0.06 6.83 110.26 1.89
10/30/2022 4:00:00 PM 8.19 46.742 0.06 6.83 110.25 1.93
10/30/2022 4:15:00 PM 8.3 46.94 0.061 6.83 110.18 1.95
10/30/2022 4:30:00 PM 8.4 47.12 0.061 6.83 110.19 1.97
10/30/2022 4:45:00 PM 8.48 47.264 0.061 6.83 110.2 1.97
10/30/2022 5:00:00 PM 8.53 47.354 0.061 6.82 110.16 1.95
10/30/2022 5:15:00 PM 8.57 47.426 0.061 6.82 110.17 1.93
10/30/2022 5:30:00 PM 8.59 47.462 0.061 6.82 110.2 1.9
10/30/2022 5:45:00 PM 8.6 47.48 0.061 6.82 110.16 1.86
10/30/2022 6:00:00 PM 8.59 47.462 0.061 6.82 110.1 1.82
10/30/2022 6:15:00 PM 8.58 47.444 0.061 6.82 110.15 1.77
10/30/2022 6:30:00 PM 8.55 47.39 0.061 6.82 110.19 1.71
10/30/2022 6:45:00 PM 8.52 47.336 0.061 6.82 110.16 1.66
10/30/2022 7:00:00 PM 8.49 47.282 0.061 6.82 110.18 1.59
10/30/2022 7:15:00 PM 8.45 47.21 0.061 6.82 110.18 1.54
10/30/2022 7:30:00 PM 8.41 47.138 0.061 6.82 110.16 1.5
10/30/2022 7:45:00 PM 8.37 47.066 0.061 6.82 110.18 1.46
10/30/2022 8:00:00 PM 8.32 46.976 0.061 6.82 110.11 1.41
10/30/2022 8:15:00 PM 8.28 46.904 0.061 6.82 110.03 1.36
10/30/2022 8:30:00 PM 8.23 46.814 0.061 6.82 110.03 1.31
10/30/2022 8:45:00 PM 8.19 46.742 0.061 6.82 110.03 1.26
10/30/2022 9:00:00 PM 8.15 46.67 0.061 6.82 109.96 1.2
10/30/2022 9:15:00 PM 8.1 46.58 0.061 6.82 109.99 1.14
10/30/2022 9:30:00 PM 8.05 46.49 0.061 6.82 109.99 1.09
10/30/2022 9:45:00 PM 8.01 46.418 0.061 6.82 109.97 1.03
10/30/2022 10:00:00 PM 7.96 46.328 0.061 6.82 109.99 0.98
10/30/2022 10:15:00 PM 7.91 46.238 0.061 6.82 110.01 0.92
10/30/2022 10:30:00 PM 7.87 46.166 0.061 6.82 109.95 0.87
10/30/2022 10:45:00 PM 7.82 46.076 0.061 6.82 109.95 0.82
10/30/2022 11:00:00 PM 7.77 45.986 0.061 6.82 109.9 0.77
10/30/2022 11:15:00 PM 7.73 45.914 0.061 6.82 109.87 0.73
10/30/2022 11:30:00 PM 7.69 45.842 0.061 6.82 109.89 0.69
10/30/2022 11:45:00 PM 7.64 45.752 0.061 6.82 109.82 0.66
10/31/2022 12:00:00 AM 7.6 45.68 0.061 6.82 109.84 0.63
10/31/2022 12:15:00 AM 7.55 45.59 0.061 6.82 109.8 0.61
10/31/2022 12:30:00 AM 7.51 45.518 0.061 6.82 109.77 0.6
10/31/2022 12:45:00 AM 7.47 45.446 0.061 6.82 109.78 0.58
10/31/2022 1:00:00 AM 7.43 45.374 0.061 6.82 109.78 0.57
10/31/2022 1:15:00 AM 7.39 45.302 0.061 6.82 109.77 0.57
10/31/2022 1:30:00 AM 7.35 45.23 0.061 6.82 109.81 0.57
10/31/2022 1:45:00 AM 7.31 45.158 0.061 6.82 109.79 0.58
10/31/2022 2:00:00 AM 7.27 45.086 0.061 6.82 109.81 0.59
10/31/2022 2:15:00 AM 7.23 45.014 0.061 6.82 109.81 0.61
10/31/2022 2:30:00 AM 7.19 44.942 0.061 6.83 109.73 0.63
10/31/2022 2:45:00 AM 7.15 44.87 0.061 6.82 109.73 0.65
10/31/2022 3:00:00 AM 7.11 44.798 0.061 6.82 109.69 0.67
10/31/2022 3:15:00 AM 7.07 44.726 0.061 6.82 109.66 0.69
10/31/2022 3:30:00 AM 7.03 44.654 0.061 6.82 109.66 0.72
10/31/2022 3:45:00 AM 6.98 44.564 0.061 6.83 109.64 0.75
10/31/2022 4:00:00 AM 6.95 44.51 0.061 6.82 109.6 0.78
10/31/2022 4:15:00 AM 6.91 44.438 0.061 6.82 109.58 0.81
10/31/2022 4:30:00 AM 6.87 44.366 0.061 6.83 109.53 0.85
10/31/2022 4:45:00 AM 6.83 44.294 0.061 6.83 109.5 0.89
10/31/2022 5:00:00 AM 6.79 44.222 0.061 6.83 109.53 0.93
10/31/2022 5:15:00 AM 6.75 44.15 0.061 6.83 109.55 0.98
10/31/2022 5:30:00 AM 6.71 44.078 0.061 6.82 109.55 1.04
10/31/2022 5:45:00 AM 6.67 44.006 0.061 6.83 109.54 1.1
10/31/2022 6:00:00 AM 6.63 43.934 0.061 6.83 109.51 1.15
10/31/2022 6:15:00 AM 6.6 43.88 0.061 6.83 109.54 1.22
10/31/2022 6:30:00 AM 6.56 43.808 0.061 6.83 109.52 1.29
10/31/2022 6:45:00 AM 6.53 43.754 0.061 6.83 109.55 1.35
10/31/2022 7:00:00 AM 6.5 43.7 0.061 6.83 109.48 1.41
10/31/2022 7:15:00 AM 6.47 43.646 0.061 6.83 109.49 1.48
10/31/2022 7:30:00 AM 6.44 43.592 0.061 6.83 109.5 1.54
10/31/2022 7:45:00 AM 6.42 43.556 0.061 6.83 109.42 1.6
10/31/2022 8:00:00 AM 6.39 43.502 0.061 6.83 109.39 1.64
10/31/2022 8:15:00 AM 6.37 43.466 0.061 6.83 109.45 1.68
10/31/2022 8:30:00 AM 6.35 43.43 0.061 6.83 109.37 1.71
10/31/2022 8:45:00 AM 6.32 43.376 0.061 6.83 109.37 1.74
10/31/2022 9:00:00 AM 6.31 43.358 0.061 6.83 109.39 1.76
10/31/2022 9:15:00 AM 6.29 43.322 0.061 6.83 109.35 1.78
10/31/2022 9:30:00 AM 6.28 43.304 0.061 6.83 109.34 1.79
10/31/2022 9:45:00 AM 6.28 43.304 0.061 6.83 109.35 1.8
10/31/2022 10:00:00 AM 6.28 43.304 0.061 6.83 109.36 1.81
10/31/2022 10:15:00 AM 6.29 43.322 0.061 6.83 109.35 1.81
10/31/2022 10:30:00 AM 6.31 43.358 0.061 6.83 109.3 1.8
10/31/2022 10:45:00 AM 6.34 43.412 0.061 6.83 109.29 1.79
10/31/2022 11:00:00 AM 6.38 43.484 0.061 6.83 109.39 1.79
10/31/2022 11:15:00 AM 6.44 43.592 0.061 6.83 109.37 1.78
10/31/2022 11:30:00 AM 6.5 43.7 0.061 6.83 109.39 1.77
10/31/2022 11:45:00 AM 6.58 43.844 0.061 6.83 109.3 1.76
10/31/2022 12:00:00 PM 6.66 43.988 0.061 6.83 109.25 1.75
10/31/2022 12:15:00 PM 6.75 44.15 0.062 6.83 109.27 1.75
10/31/2022 12:30:00 PM 6.86 44.348 0.062 6.83 109.34 1.75
10/31/2022 12:45:00 PM 6.97 44.546 0.062 6.83 109.38 1.76
10/31/2022 1:00:00 PM 7.08 44.744 0.062 6.83 109.4 1.77
10/31/2022 1:15:00 PM 7.2 44.96 0.062 6.83 109.32 1.78
10/31/2022 1:30:00 PM 7.32 45.176 0.062 6.83 109.36 1.79
10/31/2022 1:45:00 PM 7.45 45.41 0.062 6.83 109.37 1.81
10/31/2022 2:00:00 PM 7.57 45.626 0.062 6.83 109.43 1.82
10/31/2022 2:15:00 PM 7.69 45.842 0.062 6.83 109.39 1.83
10/31/2022 2:30:00 PM 7.81 46.058 0.062 6.82 109.38 1.84
10/31/2022 2:45:00 PM 7.92 46.256 0.062 6.82 109.44 1.85
10/31/2022 3:00:00 PM 8.02 46.436 0.062 6.82 109.47 1.86
10/31/2022 3:15:00 PM 8.12 46.616 0.062 6.82 109.5 1.87
10/31/2022 3:30:00 PM 8.21 46.778 0.062 6.81 109.5 1.87
10/31/2022 3:45:00 PM 8.3 46.94 0.062 6.82 109.45 1.86
10/31/2022 4:00:00 PM 8.38 47.084 0.062 6.82 109.45 1.85
10/31/2022 4:15:00 PM 8.46 47.228 0.062 6.82 109.42 1.83
10/31/2022 4:30:00 PM 8.53 47.354 0.062 6.81 109.37 1.82
10/31/2022 4:45:00 PM 8.6 47.48 0.062 6.82 109.35 1.79
10/31/2022 5:00:00 PM 8.67 47.606 0.062 6.81 109.4 1.75
10/31/2022 5:15:00 PM 8.73 47.714 0.062 6.81 109.41 1.7
10/31/2022 5:30:00 PM 8.79 47.822 0.062 6.81 109.43 1.63
10/31/2022 5:45:00 PM 8.84 47.912 0.062 6.81 109.4 1.56
10/31/2022 6:00:00 PM 8.89 48.002 0.062 6.81 109.43 1.5
10/31/2022 6:15:00 PM 8.93 48.074 0.062 6.81 109.48 1.43
10/31/2022 6:30:00 PM 8.96 48.128 0.062 6.81 109.47 1.34
10/31/2022 6:45:00 PM 8.99 48.182 0.062 6.81 109.46 1.21
10/31/2022 7:00:00 PM 9.02 48.236 0.062 6.81 109.42 1.08
10/31/2022 7:15:00 PM 9.05 48.29 0.062 6.81 109.44 0.97
10/31/2022 7:30:00 PM 9.07 48.326 0.062 6.81 109.43 0.87
10/31/2022 7:45:00 PM 9.09 48.362 0.062 6.81 109.39 0.77
10/31/2022 8:00:00 PM 9.11 48.398 0.062 6.81 109.36 0.67
10/31/2022 8:15:00 PM 9.12 48.416 0.062 6.81 109.4 0.58
10/31/2022 8:30:00 PM 9.14 48.452 0.063 6.8 109.39 0.5
10/31/2022 8:45:00 PM 9.15 48.47 0.063 6.76 109.4 0.43
10/31/2022 9:00:00 PM 9.16 48.488 0.063 6.8 109.32 0.38
10/31/2022 9:15:00 PM 9.17 48.506 0.063 6.8 109.32 0.36
10/31/2022 9:30:00 PM 9.18 48.524 0.063 6.8 109.32 0.35
10/31/2022 9:45:00 PM 9.18 48.524 0.063 6.8 109.29 0.35
10/31/2022 10:00:00 PM 9.19 48.542 0.063 6.8 109.33 0.35
10/31/2022 10:15:00 PM 9.2 48.56 0.063 6.8 109.26 0.35
10/31/2022 10:30:00 PM 9.21 48.578 0.063 6.8 109.3 0.35
10/31/2022 10:45:00 PM 9.21 48.578 0.063 6.8 109.34 0.35
10/31/2022 11:00:00 PM 9.22 48.596 0.063 6.8 109.28 0.35
10/31/2022 11:15:00 PM 9.23 48.614 0.063 6.8 109.24 0.35
10/31/2022 11:30:00 PM 9.23 48.614 0.063 6.8 109.25 0.35
10/31/2022 11:45:00 PM 9.24 48.632 0.063 6.8 109.26 0.35
11/1/2022 12:00:00 AM 9.24 48.632 0.063 6.79 109.27 0.35
11/1/2022 12:15:00 AM 9.25 48.65 0.063 6.8 109.31 0.34
11/1/2022 12:30:00 AM 9.25 48.65 0.063 6.8 109.26 0.34
11/1/2022 12:45:00 AM 9.26 48.668 0.063 6.8 109.28 0.34
11/1/2022 1:00:00 AM 9.27 48.686 0.063 6.79 109.23 0.34
11/1/2022 1:15:00 AM 9.28 48.704 0.063 6.8 109.24 0.34
11/1/2022 1:30:00 AM 9.29 48.722 0.063 6.8 109.27 0.34
11/1/2022 1:45:00 AM 9.29 48.722 0.063 6.8 109.26 0.34
11/1/2022 2:00:00 AM 9.3 48.74 0.063 6.8 109.21 0.34
11/1/2022 2:15:00 AM 9.31 48.758 0.063 6.8 109.18 0.34
11/1/2022 2:30:00 AM 9.32 48.776 0.063 6.8 109.15 0.34
11/1/2022 2:45:00 AM 9.33 48.794 0.063 6.8 109.09 0.34
11/1/2022 3:00:00 AM 9.34 48.812 0.063 6.8 109.08 0.34
11/1/2022 3:15:00 AM 9.34 48.812 0.063 6.79 109.03 0.34
11/1/2022 3:30:00 AM 9.35 48.83 0.063 6.8 108.97 0.34
11/1/2022 3:45:00 AM 9.36 48.848 0.063 6.8 109.01 0.34
11/1/2022 4:00:00 AM 9.37 48.866 0.063 6.8 109 0.34
11/1/2022 4:15:00 AM 9.37 48.866 0.063 6.8 109.09 0.34
11/1/2022 4:30:00 AM 9.38 48.884 0.063 6.8 109.04 0.34
11/1/2022 4:45:00 AM 9.38 48.884 0.062 6.8 109.08 0.34
11/1/2022 5:00:00 AM 9.39 48.902 0.062 6.8 109 0.34
11/1/2022 5:15:00 AM 9.39 48.902 0.062 6.8 108.96 0.34
11/1/2022 5:30:00 AM 9.4 48.92 0.061 6.79 108.96 0.34
11/1/2022 5:45:00 AM 9.4 48.92 0.061 6.79 108.93 0.34
11/1/2022 6:00:00 AM 9.41 48.938 0.061 6.79 108.89 0.34
11/1/2022 6:15:00 AM 9.41 48.938 0.061 6.79 108.89 0.34
11/1/2022 6:30:00 AM 9.42 48.956 0.061 6.79 108.93 0.34
11/1/2022 6:45:00 AM 9.43 48.974 0.061 6.79 109.01 0.34
11/1/2022 7:00:00 AM 9.43 48.974 0.061 6.79 109.08 0.34
11/1/2022 7:15:00 AM 9.44 48.992 0.06 6.79 109.1 0.34
11/1/2022 7:30:00 AM 9.45 49.01 0.06 6.79 108.9 0.34
11/1/2022 7:45:00 AM 9.46 49.028 0.06 6.79 108.92 0.34
11/1/2022 8:00:00 AM 9.46 49.028 0.06 6.79 108.82 0.34
11/1/2022 8:15:00 AM 9.47 49.046 0.06 6.79 108.82 0.34
11/1/2022 8:30:00 AM 9.48 49.064 0.06 6.79 108.82 0.34
11/1/2022 8:45:00 AM 9.49 49.082 0.06 6.79 108.76 0.34
11/1/2022 9:00:00 AM 9.5 49.1 0.06 6.79 108.82 0.34
11/1/2022 9:15:00 AM 9.51 49.118 0.06 6.79 108.8 0.34
11/1/2022 9:30:00 AM 9.53 49.154 0.06 6.79 108.84 0.34
11/1/2022 9:45:00 AM 9.54 49.172 0.06 6.79 108.88 0.34
11/1/2022 10:00:00 AM 9.57 49.226 0.06 6.79 108.9 0.34
11/1/2022 10:15:00 AM 9.59 49.262 0.06 6.79 108.9 0.34
11/1/2022 10:30:00 AM 9.62 49.316 0.06 6.79 108.86 0.34
11/1/2022 10:45:00 AM 9.66 49.388 0.06 6.79 108.91 0.34
11/1/2022 11:00:00 AM 9.69 49.442 0.06 6.79 108.85 0.34
11/1/2022 11:15:00 AM 9.73 49.514 0.06 6.79 108.81 0.33
11/1/2022 11:30:00 AM 9.77 49.586 0.06 6.79 108.73 0.33
11/1/2022 11:45:00 AM 9.81 49.658 0.06 6.79 108.73 0.33
11/1/2022 12:00:00 PM 9.85 49.73 0.06 6.79 108.78 0.33
11/1/2022 12:15:00 PM 9.89 49.802 0.06 6.79 108.7 0.33
11/1/2022 12:30:00 PM 9.93 49.874 0.061 6.79 108.66 0.33
11/1/2022 12:45:00 PM 9.96 49.928 0.06 6.78 108.61 0.33
11/1/2022 1:00:00 PM 9.99 49.982 0.061 6.79 108.71 0.33
11/1/2022 1:15:00 PM 10.02 50.036 0.061 6.78 108.64 0.33
11/1/2022 1:30:00 PM 10.05 50.09 0.061 6.79 108.57 0.33
11/1/2022 1:45:00 PM 10.08 50.144 0.061 6.78 108.57 0.33
11/1/2022 2:00:00 PM 10.11 50.198 0.061 6.79 108.62 0.33
11/1/2022 2:15:00 PM 10.14 50.252 0.061 6.79 108.6 0.33
11/1/2022 2:30:00 PM 10.18 50.324 0.062 6.78 108.59 0.33
11/1/2022 2:45:00 PM 10.22 50.396 0.062 6.78 108.59 0.33
11/1/2022 3:00:00 PM 10.26 50.468 0.062 6.78 108.63 0.33
11/1/2022 3:15:00 PM 10.31 50.558 0.063 6.78 108.57 0.33
11/1/2022 3:30:00 PM 10.36 50.648 0.063 6.78 108.56 0.33
11/1/2022 3:45:00 PM 10.41 50.738 0.063 6.78 108.6 0.33
11/1/2022 4:00:00 PM 10.47 50.846 0.064 6.78 108.48 0.33
11/1/2022 4:15:00 PM 10.54 50.972 0.064 6.78 108.45 0.33
11/1/2022 4:30:00 PM 10.6 51.08 0.064 6.78 108.46 0.33
11/1/2022 4:45:00 PM 10.65 51.17 0.064 6.78 108.51 0.33
11/1/2022 5:00:00 PM 10.7 51.26 0.064 6.78 108.57 0.33
11/1/2022 5:15:00 PM 10.73 51.314 0.064 6.78 108.47 0.33
11/1/2022 5:30:00 PM 10.76 51.368 0.064 6.78 108.54 0.33
11/1/2022 5:45:00 PM 10.76 51.368 0.064 6.77 108.55 0.36
11/1/2022 6:00:00 PM 10.76 51.368 0.064 6.78 108.45 0.39
11/1/2022 6:15:00 PM 10.76 51.368 0.064 6.78 108.53 0.44
11/1/2022 6:30:00 PM 10.75 51.35 0.064 6.78 108.57 0.46
11/1/2022 6:45:00 PM 10.74 51.332 0.064 6.78 108.66 0.45
11/1/2022 7:00:00 PM 10.73 51.314 0.064 6.78 108.54 0.42
11/1/2022 7:15:00 PM 10.72 51.296 0.064 6.78 108.46 0.39
11/1/2022 7:30:00 PM 10.71 51.278 0.064 6.78 108.44 0.36
11/1/2022 7:45:00 PM 10.7 51.26 0.064 6.78 108.35 0.35
11/1/2022 8:00:00 PM 10.69 51.242 0.064 6.78 108.37 0.34
11/1/2022 8:15:00 PM 10.68 51.224 0.063 6.78 108.32 0.34
11/1/2022 8:30:00 PM 10.67 51.206 0.063 6.78 108.3 0.33
11/1/2022 8:45:00 PM 10.65 51.17 0.063 6.78 108.31 0.33
11/1/2022 9:00:00 PM 10.64 51.152 0.063 6.78 108.29 0.33
11/1/2022 9:15:00 PM 10.63 51.134 0.063 6.78 108.29 0.33
11/1/2022 9:30:00 PM 10.61 51.098 0.063 6.78 108.33 0.33
11/1/2022 9:45:00 PM 10.6 51.08 0.063 6.78 108.36 0.33
11/1/2022 10:00:00 PM 10.59 51.062 0.063 6.78 108.26 0.33
11/1/2022 10:15:00 PM 10.57 51.026 0.063 6.78 108.26 0.33
11/1/2022 10:30:00 PM 10.55 50.99 0.063 6.78 108.25 0.33
11/1/2022 10:45:00 PM 10.54 50.972 0.063 6.78 108.3 0.33
11/1/2022 11:00:00 PM 10.52 50.936 0.063 6.78 108.32 0.33
11/1/2022 11:15:00 PM 10.49 50.882 0.063 6.78 108.27 0.33
11/1/2022 11:30:00 PM 10.47 50.846 0.063 6.78 108.22 0.33
11/1/2022 11:45:00 PM 10.44 50.792 0.063 6.78 108.3 0.33
11/2/2022 12:00:00 AM 10.41 50.738 0.063 6.78 108.23 0.33
11/2/2022 12:15:00 AM 10.39 50.702 0.063 6.78 108.21 0.33
11/2/2022 12:30:00 AM 10.36 50.648 0.063 6.78 108.15 0.33
11/2/2022 12:45:00 AM 10.33 50.594 0.063 6.78 108.16 0.33
11/2/2022 1:00:00 AM 10.3 50.54 0.063 6.78 108.23 0.33
11/2/2022 1:15:00 AM 10.26 50.468 0.063 6.78 108.33 0.33
11/2/2022 1:30:00 AM 10.23 50.414 0.063 6.79 108.16 0.33
11/2/2022 1:45:00 AM 10.2 50.36 0.063 6.79 108.17 0.33
11/2/2022 2:00:00 AM 10.16 50.288 0.063 6.79 108.15 0.33
11/2/2022 2:15:00 AM 10.13 50.234 0.063 6.79 108.13 0.33
11/2/2022 2:30:00 AM 10.1 50.18 0.063 6.78 108.01 0.33
11/2/2022 2:45:00 AM 10.07 50.126 0.063 6.79 107.95 0.33
11/2/2022 3:00:00 AM 10.04 50.072 0.063 6.79 107.94 0.33
11/2/2022 3:15:00 AM 10.01 50.018 0.063 6.78 107.97 0.33
11/2/2022 3:30:00 AM 9.98 49.964 0.063 6.79 107.99 0.33
11/2/2022 3:45:00 AM 9.94 49.892 0.063 6.79 107.87 0.33
11/2/2022 4:00:00 AM 9.91 49.838 0.063 6.79 107.92 0.33
11/2/2022 4:15:00 AM 9.87 49.766 0.063 6.79 107.97 0.33
11/2/2022 4:30:00 AM 9.83 49.694 0.063 6.79 107.89 0.33
11/2/2022 4:45:00 AM 9.79 49.622 0.063 6.79 107.85 0.33
11/2/2022 5:00:00 AM 9.75 49.55 0.063 6.79 107.91 0.33
11/2/2022 5:15:00 AM 9.71 49.478 0.063 6.79 107.82 0.33
11/2/2022 5:30:00 AM 9.67 49.406 0.063 6.79 107.97 0.33
11/2/2022 5:45:00 AM 9.64 49.352 0.063 6.79 107.89 0.33
11/2/2022 6:00:00 AM 9.61 49.298 0.063 6.79 107.84 0.34
11/2/2022 6:15:00 AM 9.58 49.244 0.063 6.79 107.79 0.34
11/2/2022 6:30:00 AM 9.55 49.19 0.063 6.79 107.8 0.34
11/2/2022 6:45:00 AM 9.53 49.154 0.063 6.79 107.75 0.34
11/2/2022 7:00:00 AM 9.51 49.118 0.063 6.79 107.79 0.34
11/2/2022 7:15:00 AM 9.49 49.082 0.063 6.79 107.75 0.34
11/2/2022 7:30:00 AM 9.47 49.046 0.063 6.79 107.78 0.34
11/2/2022 7:45:00 AM 9.45 49.01 0.063 6.8 107.79 0.34
11/2/2022 8:00:00 AM 9.43 48.974 0.063 6.79 107.93 0.34
11/2/2022 8:15:00 AM 9.41 48.938 0.063 6.8 107.86 0.34
11/2/2022 8:30:00 AM 9.39 48.902 0.063 6.8 107.81 0.34
11/2/2022 8:45:00 AM 9.37 48.866 0.063 6.8 107.76 0.34
11/2/2022 9:00:00 AM 9.35 48.83 0.063 6.79 107.73 0.33
11/2/2022 9:15:00 AM 9.34 48.812 0.063 6.8 107.78 0.34
11/2/2022 9:30:00 AM 9.32 48.776 0.063 6.8 107.85 0.34
11/2/2022 9:45:00 AM 9.31 48.758 0.063 6.8 107.86 0.34
11/2/2022 10:00:00 AM 9.29 48.722 0.063 6.8 107.82 0.34
11/2/2022 10:15:00 AM 9.29 48.722 0.063 6.8 107.74 0.34
11/2/2022 10:30:00 AM 9.29 48.722 0.063 6.8 107.7 0.34
11/2/2022 10:45:00 AM 9.3 48.74 0.063 6.8 107.68 0.34
11/2/2022 11:00:00 AM 9.32 48.776 0.063 6.8 107.68 0.34
11/2/2022 11:15:00 AM 9.35 48.83 0.063 6.79 107.64 0.34
11/2/2022 11:30:00 AM 9.38 48.884 0.063 6.8 107.62 0.34
11/2/2022 11:45:00 AM 9.43 48.974 0.064 6.8 107.69 0.33
11/2/2022 12:00:00 PM 9.49 49.082 0.063 6.8 107.67 0.33
11/2/2022 12:15:00 PM 9.55 49.19 0.064 6.8 107.68 0.33
11/2/2022 12:30:00 PM 9.63 49.334 0.064 6.8 107.67 0.33
11/2/2022 12:45:00 PM 9.72 49.496 0.064 6.8 107.63 0.33
11/2/2022 1:00:00 PM 9.83 49.694 0.064 6.8 107.61 0.33
11/2/2022 1:15:00 PM 9.95 49.91 0.064 6.8 107.6 0.33
11/2/2022 1:30:00 PM 10.08 50.144 0.064 6.8 107.65 0.33
11/2/2022 1:45:00 PM 10.23 50.414 0.064 6.79 107.68 0.33
11/2/2022 2:00:00 PM 10.38 50.684 0.064 6.79 107.57 0.33
11/2/2022 2:15:00 PM 10.53 50.954 0.064 6.79 107.6 0.33
11/2/2022 2:30:00 PM 10.67 51.206 0.064 6.79 107.72 0.32
11/2/2022 2:45:00 PM 10.81 51.458 0.064 6.79 107.68 0.32
11/2/2022 3:00:00 PM 10.94 51.692 0.064 6.79 107.53 0.32
11/2/2022 3:15:00 PM 11.05 51.89 0.064 6.79 107.58 0.32
11/2/2022 3:30:00 PM 11.16 52.088 0.064 6.79 107.6 0.32
11/2/2022 3:45:00 PM 11.25 52.25 0.064 6.78 107.55 0.32
11/2/2022 4:00:00 PM 11.33 52.394 0.064 6.78 107.57 0.32
11/2/2022 4:15:00 PM 11.39 52.502 0.064 6.78 107.57 0.32
11/2/2022 4:30:00 PM 11.44 52.592 0.064 6.78 107.59 0.32
11/2/2022 4:45:00 PM 11.47 52.646 0.064 6.78 107.67 0.32
11/2/2022 5:00:00 PM 11.49 52.682 0.064 6.78 107.63 0.32
11/2/2022 5:15:00 PM 11.48 52.664 0.064 6.78 107.64 0.32
11/2/2022 5:30:00 PM 11.47 52.646 0.064 6.78 107.56 0.32
11/2/2022 5:45:00 PM 11.44 52.592 0.064 6.78 107.51 0.32
11/2/2022 6:00:00 PM 11.39 52.502 0.064 6.78 107.57 0.32
11/2/2022 6:15:00 PM 11.35 52.43 0.064 6.78 107.62 0.32
11/2/2022 6:30:00 PM 11.29 52.322 0.064 6.78 107.56 0.32
11/2/2022 6:45:00 PM 11.23 52.214 0.064 6.78 107.48 0.32
11/2/2022 7:00:00 PM 11.17 52.106 0.064 6.79 107.41 0.32
11/2/2022 7:15:00 PM 11.11 51.998 0.064 6.79 107.49 0.32
11/2/2022 7:30:00 PM 11.05 51.89 0.064 6.79 107.44 0.32
11/2/2022 7:45:00 PM 10.99 51.782 0.064 6.79 107.43 0.32
11/2/2022 8:00:00 PM 10.93 51.674 0.064 6.79 107.38 0.32
11/2/2022 8:15:00 PM 10.87 51.566 0.064 6.79 107.32 0.32
11/2/2022 8:30:00 PM 10.81 51.458 0.064 6.79 107.36 0.32
11/2/2022 8:45:00 PM 10.75 51.35 0.064 6.79 107.36 0.32
11/2/2022 9:00:00 PM 10.7 51.26 0.064 6.79 107.39 0.32
11/2/2022 9:15:00 PM 10.64 51.152 0.064 6.79 107.41 0.32
11/2/2022 9:30:00 PM 10.58 51.044 0.064 6.79 107.44 0.32
11/2/2022 9:45:00 PM 10.52 50.936 0.064 6.79 107.4 0.32
11/2/2022 10:00:00 PM 10.46 50.828 0.064 6.79 107.39 0.32
11/2/2022 10:15:00 PM 10.4 50.72 0.064 6.79 107.32 0.32
11/2/2022 10:30:00 PM 10.33 50.594 0.064 6.8 107.31 0.33
11/2/2022 10:45:00 PM 10.27 50.486 0.064 6.79 107.21 0.33
11/2/2022 11:00:00 PM 10.2 50.36 0.064 6.79 107.24 0.33
11/2/2022 11:15:00 PM 10.14 50.252 0.064 6.8 107.2 0.33
11/2/2022 11:30:00 PM 10.07 50.126 0.064 6.8 107.13 0.33
11/2/2022 11:45:00 PM 10.01 50.018 0.064 6.8 107.15 0.33
11/3/2022 12:00:00 AM 9.94 49.892 0.064 6.8 107.21 0.33
11/3/2022 12:15:00 AM 9.88 49.784 0.064 6.8 107.21 0.33
11/3/2022 12:30:00 AM 9.81 49.658 0.064 6.8 107.06 0.33
11/3/2022 12:45:00 AM 9.74 49.532 0.064 6.8 106.94 0.33
11/3/2022 1:00:00 AM 9.68 49.424 0.064 6.8 107.07 0.33
11/3/2022 1:15:00 AM 9.61 49.298 0.064 6.81 107.08 0.33
11/3/2022 1:30:00 AM 9.54 49.172 0.064 6.81 106.94 0.33
11/3/2022 1:45:00 AM 9.48 49.064 0.064 6.81 106.91 0.33
11/3/2022 2:00:00 AM 9.41 48.938 0.064 6.81 107.01 0.33
11/3/2022 2:15:00 AM 9.35 48.83 0.064 6.81 106.98 0.34
11/3/2022 2:30:00 AM 9.29 48.722 0.064 6.81 106.99 0.34
11/3/2022 2:45:00 AM 9.22 48.596 0.064 6.81 107.1 0.34
11/3/2022 3:00:00 AM 9.16 48.488 0.064 6.81 107.01 0.34
11/3/2022 3:15:00 AM 9.09 48.362 0.064 6.81 106.99 0.34
11/3/2022 3:30:00 AM 9.03 48.254 0.064 6.81 106.94 0.34
11/3/2022 3:45:00 AM 8.96 48.128 0.064 6.81 106.93 0.34
11/3/2022 4:00:00 AM 8.9 48.02 0.064 6.81 106.92 0.34
11/3/2022 4:15:00 AM 8.84 47.912 0.064 6.81 106.85 0.34
11/3/2022 4:30:00 AM 8.78 47.804 0.064 6.82 106.87 0.34
11/3/2022 4:45:00 AM 8.72 47.696 0.064 6.81 106.91 0.34
11/3/2022 5:00:00 AM 8.66 47.588 0.064 6.82 106.95 0.34
11/3/2022 5:15:00 AM 8.6 47.48 0.064 6.82 106.85 0.34
11/3/2022 5:30:00 AM 8.54 47.372 0.064 6.82 106.79 0.34
11/3/2022 5:45:00 AM 8.49 47.282 0.064 6.82 106.87 0.34
11/3/2022 6:00:00 AM 8.43 47.174 0.064 6.82 106.83 0.34
11/3/2022 6:15:00 AM 8.37 47.066 0.064 6.82 106.83 0.34
11/3/2022 6:30:00 AM 8.31 46.958 0.064 6.82 106.81 0.34
11/3/2022 6:45:00 AM 8.26 46.868 0.064 6.82 106.78 0.35
11/3/2022 7:00:00 AM 8.21 46.778 0.064 6.82 106.73 0.35
11/3/2022 7:15:00 AM 8.15 46.67 0.064 6.82 106.72 0.35
11/3/2022 7:30:00 AM 8.1 46.58 0.064 6.82 106.72 0.35
11/3/2022 7:45:00 AM 8.05 46.49 0.064 6.83 106.74 0.35
11/3/2022 8:00:00 AM 8 46.4 0.064 6.83 106.77 0.35
11/3/2022 8:15:00 AM 7.95 46.31 0.064 6.82 106.75 0.35
11/3/2022 8:30:00 AM 7.9 46.22 0.064 6.83 106.73 0.35
11/3/2022 8:45:00 AM 7.85 46.13 0.064 6.83 106.73 0.35
11/3/2022 9:00:00 AM 7.81 46.058 0.064 6.83 106.68 0.35
11/3/2022 9:15:00 AM 7.77 45.986 0.064 6.83 106.7 0.35
11/3/2022 9:30:00 AM 7.73 45.914 0.064 6.83 106.62 0.35
11/3/2022 9:45:00 AM 7.69 45.842 0.064 6.84 106.62 0.35
11/3/2022 10:00:00 AM 7.66 45.788 0.064 6.83 106.64 0.35
11/3/2022 10:15:00 AM 7.64 45.752 0.064 6.84 106.68 0.35
11/3/2022 10:30:00 AM 7.63 45.734 0.064 6.83 106.64 0.35
11/3/2022 10:45:00 AM 7.64 45.752 0.064 6.84 106.63 0.35
11/3/2022 11:00:00 AM 7.65 45.77 0.064 6.84 106.65 0.35
11/3/2022 11:15:00 AM 7.68 45.824 0.064 6.84 106.62 0.35
11/3/2022 11:30:00 AM 7.73 45.914 0.064 6.84 106.66 0.35
11/3/2022 11:45:00 AM 7.78 46.004 0.064 6.84 106.65 0.35
11/3/2022 12:00:00 PM 7.85 46.13 0.064 6.84 106.67 0.35
11/3/2022 12:15:00 PM 7.93 46.274 0.064 6.84 106.6 0.35
11/3/2022 12:30:00 PM 8.03 46.454 0.064 6.84 106.67 0.35
11/3/2022 12:45:00 PM 8.14 46.652 0.064 6.84 106.65 0.35
11/3/2022 1:00:00 PM 8.27 46.886 0.064 6.84 106.73 0.35
11/3/2022 1:15:00 PM 8.41 47.138 0.064 6.83 106.67 0.34
11/3/2022 1:30:00 PM 8.57 47.426 0.064 6.83 106.6 0.34
11/3/2022 1:45:00 PM 8.74 47.732 0.064 6.83 106.7 0.34
11/3/2022 2:00:00 PM 8.92 48.056 0.064 6.83 106.74 0.34
11/3/2022 2:15:00 PM 9.1 48.38 0.064 6.83 106.66 0.34
11/3/2022 2:30:00 PM 9.27 48.686 0.064 6.83 106.69 0.34
11/3/2022 2:45:00 PM 9.44 48.992 0.064 6.83 106.78 0.33
11/3/2022 3:00:00 PM 9.61 49.298 0.064 6.83 106.68 0.33
11/3/2022 3:15:00 PM 9.76 49.568 0.064 6.83 106.71 0.33
11/3/2022 3:30:00 PM 9.9 49.82 0.064 6.83 106.72 0.33
11/3/2022 3:45:00 PM 10.02 50.036 0.064 6.82 106.76 0.33
11/3/2022 4:00:00 PM 10.13 50.234 0.065 6.82 106.8 0.33
11/3/2022 4:15:00 PM 10.22 50.396 0.065 6.82 106.73 0.33
11/3/2022 4:30:00 PM 10.3 50.54 0.065 6.82 106.7 0.33
11/3/2022 4:45:00 PM 10.36 50.648 0.065 6.82 106.64 0.33
11/3/2022 5:00:00 PM 10.4 50.72 0.065 6.82 106.66 0.32
11/3/2022 5:15:00 PM 10.42 50.756 0.065 6.82 106.66 0.32
11/3/2022 5:30:00 PM 10.42 50.756 0.065 6.82 106.67 0.32
11/3/2022 5:45:00 PM 10.41 50.738 0.065 6.82 106.63 0.33
11/3/2022 6:00:00 PM 10.39 50.702 0.065 6.82 106.65 0.33
11/3/2022 6:15:00 PM 10.35 50.63 0.065 6.82 106.68 0.32
11/3/2022 6:30:00 PM 10.31 50.558 0.065 6.82 106.75 0.33
11/3/2022 6:45:00 PM 10.26 50.468 0.065 6.82 106.72 0.33
11/3/2022 7:00:00 PM 10.2 50.36 0.065 6.82 106.63 0.33
11/3/2022 7:15:00 PM 10.14 50.252 0.065 6.82 106.61 0.33
11/3/2022 7:30:00 PM 10.09 50.162 0.065 6.82 106.52 0.33
11/3/2022 7:45:00 PM 10.03 50.054 0.065 6.82 106.56 0.33
11/3/2022 8:00:00 PM 9.97 49.946 0.065 6.82 106.56 0.33
11/3/2022 8:15:00 PM 9.92 49.856 0.065 6.82 106.53 0.33
11/3/2022 8:30:00 PM 9.86 49.748 0.065 6.82 106.58 0.33
11/3/2022 8:45:00 PM 9.81 49.658 0.065 6.82 106.58 0.33
11/3/2022 9:00:00 PM 9.76 49.568 0.065 6.82 106.53 0.33
11/3/2022 9:15:00 PM 9.71 49.478 0.065 6.82 106.48 0.33
11/3/2022 9:30:00 PM 9.65 49.37 0.065 6.82 106.51 0.33
11/3/2022 9:45:00 PM 9.6 49.28 0.065 6.82 106.49 0.33
11/3/2022 10:00:00 PM 9.55 49.19 0.065 6.82 106.44 0.33
11/3/2022 10:15:00 PM 9.5 49.1 0.065 6.82 106.44 0.33
11/3/2022 10:30:00 PM 9.44 48.992 0.065 6.82 106.46 0.33
11/3/2022 10:45:00 PM 9.39 48.902 0.065 6.82 106.45 0.33
11/3/2022 11:00:00 PM 9.33 48.794 0.065 6.82 106.44 0.33
11/3/2022 11:15:00 PM 9.28 48.704 0.065 6.82 106.45 0.33
11/3/2022 11:30:00 PM 9.22 48.596 0.065 6.82 106.47 0.34
11/3/2022 11:45:00 PM 9.16 48.488 0.065 6.82 106.42 0.34
11/4/2022 12:00:00 AM 9.1 48.38 0.065 6.82 106.45 0.34
11/4/2022 12:15:00 AM 9.05 48.29 0.065 6.82 106.46 0.34
11/4/2022 12:30:00 AM 8.99 48.182 0.065 6.82 106.39 0.34
11/4/2022 12:45:00 AM 8.93 48.074 0.065 6.83 106.33 0.34
11/4/2022 1:00:00 AM 8.88 47.984 0.065 6.82 106.29 0.34
11/4/2022 1:15:00 AM 8.82 47.876 0.065 6.83 106.27 0.34
11/4/2022 1:30:00 AM 8.76 47.768 0.065 6.83 106.25 0.34
11/4/2022 1:45:00 AM 8.7 47.66 0.065 6.83 106.32 0.34
11/4/2022 2:00:00 AM 8.65 47.57 0.065 6.83 106.32 0.34
11/4/2022 2:15:00 AM 8.59 47.462 0.065 6.83 106.34 0.34
11/4/2022 2:30:00 AM 8.53 47.354 0.065 6.83 106.3 0.34
11/4/2022 2:45:00 AM 8.47 47.246 0.065 6.83 106.3 0.34
11/4/2022 3:00:00 AM 8.42 47.156 0.065 6.83 106.3 0.34
11/4/2022 3:15:00 AM 8.37 47.066 0.065 6.83 106.22 0.35
11/4/2022 3:30:00 AM 8.31 46.958 0.065 6.83 106.21 0.36
11/4/2022 3:45:00 AM 8.26 46.868 0.065 6.83 106.2 0.39
11/4/2022 4:00:00 AM 8.21 46.778 0.065 6.83 106.13 0.45
11/4/2022 4:15:00 AM 8.15 46.67 0.065 6.83 106.12 0.55
11/4/2022 4:30:00 AM 8.1 46.58 0.065 6.83 106.13 0.67
11/4/2022 4:45:00 AM 8.06 46.508 0.065 6.83 106.13 0.83
11/4/2022 5:00:00 AM 8.01 46.418 0.065 6.83 106.15 0.99
11/4/2022 5:15:00 AM 7.96 46.328 0.065 6.83 106.15 1.16
11/4/2022 5:30:00 AM 7.92 46.256 0.065 6.83 106.12 1.33
11/4/2022 5:45:00 AM 7.87 46.166 0.065 6.84 106.1 1.5
11/4/2022 6:00:00 AM 7.83 46.094 0.065 6.83 106.14 1.65
11/4/2022 6:15:00 AM 7.79 46.022 0.065 6.84 106.13 1.79
11/4/2022 6:30:00 AM 7.75 45.95 0.065 6.84 106.07 1.91
11/4/2022 6:45:00 AM 7.71 45.878 0.065 6.84 106.03 2.01
11/4/2022 7:00:00 AM 7.68 45.824 0.065 6.84 106.01 2.09
11/4/2022 7:15:00 AM 7.64 45.752 0.065 6.84 106.02 2.16
11/4/2022 7:30:00 AM 7.6 45.68 0.064 6.84 106 2.2
11/4/2022 7:45:00 AM 7.57 45.626 0.064 6.84 106 2.23
11/4/2022 8:00:00 AM 7.54 45.572 0.064 6.84 105.97 2.28
11/4/2022 8:15:00 AM 7.51 45.518 0.064 6.84 105.97 2.35
11/4/2022 8:30:00 AM 7.48 45.464 0.064 6.84 106.09 2.42
11/4/2022 8:45:00 AM 7.45 45.41 0.064 6.84 106.1 2.48
11/4/2022 9:00:00 AM 7.43 45.374 0.064 6.84 106.01 2.55
11/4/2022 9:15:00 AM 7.41 45.338 0.064 6.84 105.96 2.61
11/4/2022 9:30:00 AM 7.4 45.32 0.064 6.84 105.98 2.67
11/4/2022 9:45:00 AM 7.39 45.302 0.064 6.84 106.01 2.73
11/4/2022 10:00:00 AM 7.4 45.32 0.064 6.84 105.99 2.81
11/4/2022 10:15:00 AM 7.41 45.338 0.064 6.84 105.97 2.88
11/4/2022 10:30:00 AM 7.43 45.374 0.064 6.84 106 2.95
11/4/2022 10:45:00 AM 7.46 45.428 0.064 6.84 105.95 3.02
11/4/2022 11:00:00 AM 7.51 45.518 0.064 6.84 106.05 3.09
11/4/2022 11:15:00 AM 7.57 45.626 0.064 6.84 106.09 3.19
11/4/2022 11:30:00 AM 7.64 45.752 0.064 6.84 106.07 3.26
11/4/2022 11:45:00 AM 7.73 45.914 0.064 6.84 106.11 3.33
11/4/2022 12:00:00 PM 7.82 46.076 0.064 6.84 106.07 3.39
11/4/2022 12:15:00 PM 7.92 46.256 0.064 6.84 106.05 3.46
11/4/2022 12:30:00 PM 8.04 46.472 0.063 6.84 106.01 3.54
11/4/2022 12:45:00 PM 8.17 46.706 0.063 6.84 106.1 3.64
11/4/2022 1:00:00 PM 8.31 46.958 0.063 6.84 106.15 3.74
11/4/2022 1:15:00 PM 8.47 47.246 0.063 6.84 106.09 3.83
11/4/2022 1:30:00 PM 8.64 47.552 0.063 6.84 106.16 3.93
11/4/2022 1:45:00 PM 8.82 47.876 0.063 6.84 106.21 4.02
11/4/2022 2:00:00 PM 9.01 48.218 0.063 6.84 106.18 4.09
11/4/2022 2:15:00 PM 9.21 48.578 0.063 6.83 106.15 4.15
11/4/2022 2:30:00 PM 9.4 48.92 0.063 6.83 106.22 4.26
11/4/2022 2:45:00 PM 9.58 49.244 0.063 6.83 106.15 4.38
11/4/2022 3:00:00 PM 9.76 49.568 0.063 6.83 106.11 4.45
11/4/2022 3:15:00 PM 9.93 49.874 0.063 6.82 106.14 4.49
11/4/2022 3:30:00 PM 10.09 50.162 0.063 6.82 106.2 4.5
11/4/2022 3:45:00 PM 10.23 50.414 0.063 6.82 106.12 4.5
11/4/2022 4:00:00 PM 10.37 50.666 0.063 6.82 106.02 4.51
11/4/2022 4:15:00 PM 10.49 50.882 0.063 6.82 106.11 4.52
11/4/2022 4:30:00 PM 10.59 51.062 0.063 6.82 106.29 4.53
11/4/2022 4:45:00 PM 10.67 51.206 0.063 6.81 106.16 4.54
11/4/2022 5:00:00 PM 10.73 51.314 0.063 6.81 106.1 4.54
11/4/2022 5:15:00 PM 10.78 51.404 0.063 6.81 106.09 4.54
11/4/2022 5:30:00 PM 10.8 51.44 0.062 6.82 106.21 4.54
11/4/2022 5:45:00 PM 10.81 51.458 0.062 6.81 106.18 4.56
11/4/2022 6:00:00 PM 10.8 51.44 0.062 6.81 106.11 4.57
11/4/2022 6:15:00 PM 10.77 51.386 0.062 6.82 106.03 4.59
11/4/2022 6:30:00 PM 10.74 51.332 0.062 6.82 106.11 4.61
11/4/2022 6:45:00 PM 10.7 51.26 0.062 6.81 106.05 4.63
11/4/2022 7:00:00 PM 10.65 51.17 0.062 6.82 105.99 4.64
11/4/2022 7:15:00 PM 10.6 51.08 0.062 6.82 105.96 4.61
11/4/2022 7:30:00 PM 10.56 51.008 0.062 6.82 105.91 4.58
11/4/2022 7:45:00 PM 10.51 50.918 0.062 6.82 105.9 4.52
11/4/2022 8:00:00 PM 10.47 50.846 0.062 6.82 105.81 4.45
11/4/2022 8:15:00 PM 10.43 50.774 0.062 6.81 105.92 4.37
11/4/2022 8:30:00 PM 10.39 50.702 0.062 6.81 105.91 4.28
11/4/2022 8:45:00 PM 10.35 50.63 0.061 6.81 105.92 4.2
11/4/2022 9:00:00 PM 10.32 50.576 0.061 6.81 105.95 4.12
11/4/2022 9:15:00 PM 10.28 50.504 0.061 6.81 105.93 4.07
11/4/2022 9:30:00 PM 10.25 50.45 0.061 6.82 105.94 4.04
11/4/2022 9:45:00 PM 10.22 50.396 0.061 6.81 105.94 4.01
11/4/2022 10:00:00 PM 10.19 50.342 0.061 6.81 105.97 4
11/4/2022 10:15:00 PM 10.16 50.288 0.061 6.81 105.86 4
11/4/2022 10:30:00 PM 10.13 50.234 0.061 6.81 105.78 4
11/4/2022 10:45:00 PM 10.1 50.18 0.061 6.81 105.77 4
11/4/2022 11:00:00 PM 10.08 50.144 0.061 6.81 105.78 4.01
11/4/2022 11:15:00 PM 10.05 50.09 0.061 6.82 105.83 4.03
11/4/2022 11:30:00 PM 10.02 50.036 0.061 6.81 105.7 4.03
11/4/2022 11:45:00 PM 10 50 0.061 6.82 105.68 4.05
11/5/2022 12:00:00 AM 9.97 49.946 0.061 6.82 105.86 4.06
11/5/2022 12:15:00 AM 9.94 49.892 0.061 6.82 105.77 4.08
11/5/2022 12:30:00 AM 9.92 49.856 0.061 6.82 105.8 4.1
11/5/2022 12:45:00 AM 9.89 49.802 0.061 6.82 105.76 4.12
11/5/2022 1:00:00 AM 9.86 49.748 0.06 6.82 105.86 4.14
11/5/2022 1:15:00 AM 9.84 49.712 0.06 6.82 105.65 4.15
11/5/2022 1:30:00 AM 9.81 49.658 0.06 6.82 105.8 4.17
11/5/2022 1:45:00 AM 9.78 49.604 0.06 6.82 105.73 4.18
11/5/2022 2:00:00 AM 9.76 49.568 0.06 6.82 105.86 4.14
11/5/2022 2:15:00 AM 9.73 49.514 0.06 6.82 105.69 4.11
11/5/2022 2:30:00 AM 9.71 49.478 0.06 6.82 105.57 4.08
11/5/2022 2:45:00 AM 9.69 49.442 0.06 6.81 105.57 4.08
11/5/2022 3:00:00 AM 9.67 49.406 0.06 6.82 105.56 4.04
11/5/2022 3:15:00 AM 9.66 49.388 0.06 6.82 105.53 4.01
11/5/2022 3:30:00 AM 9.65 49.37 0.06 6.82 105.65 3.99
11/5/2022 3:45:00 AM 9.65 49.37 0.06 6.82 105.54 3.97
11/5/2022 4:00:00 AM 9.64 49.352 0.06 6.82 105.53 4
11/5/2022 4:15:00 AM 9.64 49.352 0.06 6.82 105.47 3.94
11/5/2022 4:30:00 AM 9.64 49.352 0.06 6.82 105.51 3.91
11/5/2022 4:45:00 AM 9.64 49.352 0.06 6.82 105.55 3.88
11/5/2022 5:00:00 AM 9.65 49.37 0.06 6.81 105.53 3.84
11/5/2022 5:15:00 AM 9.65 49.37 0.06 6.82 105.66 3.8
11/5/2022 5:30:00 AM 9.65 49.37 0.06 6.82 105.74 3.76
11/5/2022 5:45:00 AM 9.66 49.388 0.06 6.82 105.73 3.73
11/5/2022 6:00:00 AM 9.66 49.388 0.06 6.82 105.62 3.69
11/5/2022 6:15:00 AM 9.66 49.388 0.06 6.82 105.56 3.68
11/5/2022 6:30:00 AM 9.67 49.406 0.06 6.82 105.54 3.68
11/5/2022 6:45:00 AM 9.68 49.424 0.06 6.82 105.59 3.67
11/5/2022 7:00:00 AM 9.69 49.442 0.06 6.82 105.53 3.65
11/5/2022 7:15:00 AM 9.7 49.46 0.06 6.82 105.71 3.63
11/5/2022 7:30:00 AM 9.71 49.478 0.06 6.82 105.72 3.6
11/5/2022 7:45:00 AM 9.73 49.514 0.06 6.82 105.87 3.57
11/5/2022 8:00:00 AM 9.75 49.55 0.06 6.82 105.62 3.54
11/5/2022 8:15:00 AM 9.77 49.586 0.06 6.82 105.5 3.53
11/5/2022 8:30:00 AM 9.79 49.622 0.06 6.82 105.57 3.53
11/5/2022 8:45:00 AM 9.83 49.694 0.06 6.82 105.7 3.55
11/5/2022 9:00:00 AM 9.86 49.748 0.06 6.82 105.44 3.61
11/5/2022 9:15:00 AM 9.9 49.82 0.06 6.82 105.48 3.69
11/5/2022 9:30:00 AM 9.94 49.892 0.06 6.82 105.6 3.79
11/5/2022 9:45:00 AM 10 50 0.06 6.82 105.56 3.88
11/5/2022 10:00:00 AM 10.05 50.09 0.06 6.82 105.68 3.94
11/5/2022 10:15:00 AM 10.11 50.198 0.06 6.82 105.53 4.03
11/5/2022 10:30:00 AM 10.17 50.306 0.06 6.82 105.52 4.12
11/5/2022 10:45:00 AM 10.23 50.414 0.06 6.82 105.53 4.19
11/5/2022 11:00:00 AM 10.29 50.522 0.06 6.82 105.61 4.26
11/5/2022 11:15:00 AM 10.35 50.63 0.06 6.82 105.32 4.35
11/5/2022 11:30:00 AM 10.41 50.738 0.06 6.81 105.29 4.43
11/5/2022 11:45:00 AM 10.47 50.846 0.06 6.81 105.36 4.5
11/5/2022 12:00:00 PM 10.53 50.954 0.06 6.81 105.29 4.6
11/5/2022 12:15:00 PM 10.6 51.08 0.06 6.81 105.46 4.7
11/5/2022 12:30:00 PM 10.67 51.206 0.06 6.81 105.33 4.79
11/5/2022 12:45:00 PM 10.74 51.332 0.06 6.81 105.49 4.87
11/5/2022 1:00:00 PM 10.82 51.476 0.06 6.81 105.55 4.94
11/5/2022 1:15:00 PM 10.89 51.602 0.06 6.81 105.49 4.99
11/5/2022 1:30:00 PM 10.97 51.746 0.06 6.81 105.61 5.04
11/5/2022 1:45:00 PM 11.06 51.908 0.06 6.81 105.53 5.12
11/5/2022 2:00:00 PM 11.15 52.07 0.06 6.81 105.49 5.16
11/5/2022 2:15:00 PM 11.25 52.25 0.06 6.8 105.54 5.2
11/5/2022 2:30:00 PM 11.35 52.43 0.06 6.8 105.61 5.24
11/5/2022 2:45:00 PM 11.45 52.61 0.06 6.8 105.38 5.27
11/5/2022 3:00:00 PM 11.55 52.79 0.06 6.8 105.4 5.29
11/5/2022 3:15:00 PM 11.63 52.934 0.06 6.8 105.33 5.31
11/5/2022 3:30:00 PM 11.72 53.096 0.06 6.8 105.22 5.33
11/5/2022 3:45:00 PM 11.79 53.222 0.06 6.8 105.46 5.34
11/5/2022 4:00:00 PM 11.85 53.33 0.06 6.79 105.37 5.34
11/5/2022 4:15:00 PM 11.91 53.438 0.06 6.8 105.44 5.32
11/5/2022 4:30:00 PM 11.96 53.528 0.06 6.8 105.49 5.28
11/5/2022 4:45:00 PM 12.01 53.618 0.06 6.8 105.47 5.23
11/5/2022 5:00:00 PM 12.06 53.708 0.06 6.8 105.5 5.17
11/5/2022 5:15:00 PM 12.11 53.798 0.06 6.79 105.37 5.11
11/5/2022 5:30:00 PM 12.15 53.87 0.06 6.79 105.36 5.04
11/5/2022 5:45:00 PM 12.19 53.942 0.06 6.79 105.35 4.98
11/5/2022 6:00:00 PM 12.22 53.996 0.06 6.79 105.48 4.92
11/5/2022 6:15:00 PM 12.25 54.05 0.06 6.79 105.3 4.85
11/5/2022 6:30:00 PM 12.27 54.086 0.06 6.79 105.25 4.73
11/5/2022 6:45:00 PM 12.29 54.122 0.06 6.79 105.42 4.61
11/5/2022 7:00:00 PM 12.31 54.158 0.06 6.79 105.43 4.5
11/5/2022 7:15:00 PM 12.32 54.176 0.06 6.79 105.36 4.4
11/5/2022 7:30:00 PM 12.33 54.194 0.06 6.79 105.26 4.29
11/5/2022 7:45:00 PM 12.34 54.212 0.06 6.79 105.36 4.18
11/5/2022 8:00:00 PM 12.34 54.212 0.06 6.79 105.39 4.07
11/5/2022 8:15:00 PM 12.35 54.23 0.06 6.79 105.29 3.96
11/5/2022 8:30:00 PM 12.35 54.23 0.06 6.79 105.2 3.85
11/5/2022 8:45:00 PM 12.35 54.23 0.06 6.79 105.02 3.75
11/5/2022 9:00:00 PM 12.35 54.23 0.06 6.79 104.94 3.66
11/5/2022 9:15:00 PM 12.35 54.23 0.06 6.79 105.04 3.59
11/5/2022 9:30:00 PM 12.34 54.212 0.06 6.79 104.97 3.52
11/5/2022 9:45:00 PM 12.34 54.212 0.06 6.79 104.92 3.49
11/5/2022 10:00:00 PM 12.33 54.194 0.06 6.79 105.08 3.46
11/5/2022 10:15:00 PM 12.33 54.194 0.06 6.79 105.11 3.42
11/5/2022 10:30:00 PM 12.32 54.176 0.06 6.79 104.9 3.38
11/5/2022 10:45:00 PM 12.31 54.158 0.06 6.78 104.95 3.36
11/5/2022 11:00:00 PM 12.31 54.158 0.06 6.78 105.06 3.35
11/5/2022 11:15:00 PM 12.3 54.14 0.06 6.78 104.91 3.36
11/5/2022 11:30:00 PM 12.3 54.14 0.06 6.78 104.96 3.33
11/5/2022 11:45:00 PM 12.3 54.14 0.06 6.78 105.04 3.33
11/6/2022 12:00:00 AM 12.29 54.122 0.06 6.78 105.06 3.32
11/6/2022 12:15:00 AM 12.29 54.122 0.06 6.84 105.05 3.32
11/6/2022 12:30:00 AM 12.29 54.122 0.06 6.78 105.06 3.3
11/6/2022 12:45:00 AM 12.29 54.122 0.06 6.78 105.05 3.27
11/6/2022 1:00:00 AM 12.3 54.14 0.06 6.78 105.1 3.3
11/6/2022 1:15:00 AM 12.3 54.14 0.06 6.78 104.88 3.32
11/6/2022 1:30:00 AM 12.31 54.158 0.06 6.78 104.9 3.35
11/6/2022 1:45:00 AM 12.32 54.176 0.06 6.78 104.89 3.37
11/6/2022 2:00:00 AM 12.33 54.194 0.06 6.78 104.95 3.38
11/6/2022 2:15:00 AM 12.34 54.212 0.06 6.78 104.85 3.39
11/6/2022 2:30:00 AM 12.35 54.23 0.06 6.78 104.81 3.39
11/6/2022 2:45:00 AM 12.36 54.248 0.06 6.78 104.74 3.39
11/6/2022 3:00:00 AM 12.37 54.266 0.061 6.77 104.9 3.38
11/6/2022 3:15:00 AM 12.39 54.302 0.061 6.78 104.79 3.37
11/6/2022 3:30:00 AM 12.4 54.32 0.061 6.78 104.81 3.37
11/6/2022 3:45:00 AM 12.41 54.338 0.061 6.78 104.75 3.38
11/6/2022 4:00:00 AM 12.42 54.356 0.061 6.78 104.86 3.39
11/6/2022 4:30:00 AM 12.48 54.464 0.061 6.78 104.6 3.49
11/6/2022 4:45:00 AM 12.48 54.464 0.061 6.78 104.62 3.47
11/6/2022 5:00:00 AM 12.48 54.464 0.061 6.78 104.66 3.46
11/6/2022 5:15:00 AM 12.49 54.482 0.061 6.78 104.63 3.46
11/6/2022 5:30:00 AM 12.5 54.5 0.061 6.78 104.61 3.47
11/6/2022 5:45:00 AM 12.5 54.5 0.061 6.78 104.61 3.49
11/6/2022 6:00:00 AM 12.51 54.518 0.061 6.78 104.54 3.5
11/6/2022 6:15:00 AM 12.52 54.536 0.061 6.78 104.58 3.54
11/6/2022 6:30:00 AM 12.53 54.554 0.061 6.78 104.59 3.57
11/6/2022 6:45:00 AM 12.54 54.572 0.061 6.78 104.71 3.59
11/6/2022 7:00:00 AM 12.55 54.59 0.061 6.78 104.79 3.6
11/6/2022 7:15:00 AM 12.56 54.608 0.061 6.78 104.87 3.61
11/6/2022 7:30:00 AM 12.57 54.626 0.061 6.78 104.76 3.63
11/6/2022 7:45:00 AM 12.58 54.644 0.061 6.78 104.68 3.67
11/6/2022 8:00:00 AM 12.6 54.68 0.061 6.78 104.63 3.71
11/6/2022 8:15:00 AM 12.62 54.716 0.061 6.78 104.69 3.77
11/6/2022 8:30:00 AM 12.64 54.752 0.061 6.78 104.71 3.82
11/6/2022 8:45:00 AM 12.65 54.77 0.061 6.78 104.5 3.86
11/6/2022 9:00:00 AM 12.66 54.788 0.061 6.78 104.51 3.88
11/6/2022 9:15:00 AM 12.68 54.824 0.061 6.78 104.53 3.91
11/6/2022 9:30:00 AM 12.69 54.842 0.061 6.78 104.45 3.94
11/6/2022 9:45:00 AM 12.71 54.878 0.061 6.78 104.45 3.96
11/6/2022 10:00:00 AM 12.72 54.896 0.061 6.78 104.48 3.99
11/6/2022 10:15:00 AM 12.75 54.95 0.061 6.78 104.45 4.03
11/6/2022 10:30:00 AM 12.77 54.986 0.061 6.78 104.53 4.09
11/6/2022 10:45:00 AM 12.81 55.058 0.061 6.78 104.59 4.18
11/6/2022 11:00:00 AM 12.85 55.13 0.061 6.78 104.54 4.3
11/6/2022 11:15:00 AM 12.9 55.22 0.061 6.78 104.53 4.43
11/6/2022 11:30:00 AM 12.95 55.31 0.061 6.78 104.47 4.56
11/6/2022 11:45:00 AM 13.01 55.418 0.061 6.78 104.39 4.7
11/6/2022 12:00:00 PM 13.07 55.526 0.061 6.78 104.31 4.82
11/6/2022 12:15:00 PM 13.14 55.652 0.061 6.78 104.33 4.95
11/6/2022 12:30:00 PM 13.2 55.76 0.061 6.78 104.32 5.03
11/6/2022 12:45:00 PM 13.27 55.886 0.061 6.78 104.4 5.1
11/6/2022 1:00:00 PM 13.35 56.03 0.061 6.78 104.38 5.14
11/6/2022 1:15:00 PM 13.44 56.192 0.06 6.78 104.33 5.17
11/6/2022 1:30:00 PM 13.54 56.372 0.06 6.77 104.23 5.2
11/6/2022 1:45:00 PM 13.64 56.552 0.06 6.77 104.24 5.23
11/6/2022 2:00:00 PM 13.74 56.732 0.06 6.77 104.29 5.26
11/6/2022 2:15:00 PM 13.83 56.894 0.06 6.77 104.47 5.28
11/6/2022 2:30:00 PM 13.92 57.056 0.06 6.76 104.61 5.28
11/6/2022 2:45:00 PM 14.01 57.218 0.06 6.77 104.66 5.27
11/6/2022 3:00:00 PM 14.1 57.38 0.06 6.77 104.51 5.26
11/6/2022 3:15:00 PM 14.18 57.524 0.06 6.77 104.67 5.23
11/6/2022 3:30:00 PM 14.25 57.65 0.06 6.77 104.71 5.22
11/6/2022 3:45:00 PM 14.31 57.758 0.06 6.77 104.34 5.19
11/6/2022 4:00:00 PM 14.36 57.848 0.06 6.77 104.34 5.17
11/6/2022 4:15:00 PM 14.39 57.902 0.06 6.77 104.39 5.12
11/6/2022 4:30:00 PM 14.41 57.938 0.059 6.76 104.44 5.06
11/6/2022 4:45:00 PM 14.42 57.956 0.059 6.76 104.45 4.99
11/6/2022 5:00:00 PM 14.42 57.956 0.06 6.76 104.48 4.92
11/6/2022 5:15:00 PM 14.41 57.938 0.06 6.76 104.39 4.83
11/6/2022 5:30:00 PM 14.4 57.92 0.06 6.76 104.4 4.78
11/6/2022 5:45:00 PM 14.38 57.884 0.06 6.76 104.42 4.66
11/6/2022 6:00:00 PM 14.36 57.848 0.06 6.77 104.36 4.5
11/6/2022 6:15:00 PM 14.33 57.794 0.06 6.76 104.35 4.35
11/6/2022 6:30:00 PM 14.3 57.74 0.06 6.77 104.43 4.17
11/6/2022 6:45:00 PM 14.27 57.686 0.059 6.76 104.36 3.99
11/6/2022 7:00:00 PM 14.24 57.632 0.06 6.76 104.41 3.81
11/6/2022 7:15:00 PM 14.21 57.578 0.06 6.76 104.41 3.65
11/6/2022 7:30:00 PM 14.18 57.524 0.059 6.77 104.47 3.53
11/6/2022 7:45:00 PM 14.15 57.47 0.06 6.77 104.34 3.42
11/6/2022 8:00:00 PM 14.12 57.416 0.059 6.76 104.28 3.32
11/6/2022 8:15:00 PM 14.1 57.38 0.059 6.77 104.25 3.22
11/6/2022 8:30:00 PM 14.07 57.326 0.059 6.76 104.18 3.14
11/6/2022 8:45:00 PM 14.04 57.272 0.059 6.76 104.13 3.08
11/6/2022 9:00:00 PM 14.01 57.218 0.059 6.76 104.11 3.04
11/6/2022 9:15:00 PM 13.99 57.182 0.059 6.76 104.03 3.03
11/6/2022 9:30:00 PM 13.97 57.146 0.059 6.76 103.99 3.03
11/6/2022 9:45:00 PM 13.95 57.11 0.059 6.77 103.95 3.04
11/6/2022 10:00:00 PM 13.94 57.092 0.059 6.77 103.97 3.05
11/6/2022 10:15:00 PM 13.92 57.056 0.059 6.76 103.86 3.06
11/6/2022 10:30:00 PM 13.91 57.038 0.059 6.76 103.87 3.09
11/6/2022 10:45:00 PM 13.9 57.02 0.06 6.77 103.86 3.11
11/6/2022 11:00:00 PM 13.89 57.002 0.06 6.77 103.82 3.14
11/6/2022 11:15:00 PM 13.89 57.002 0.06 6.77 103.83 3.18
11/6/2022 11:30:00 PM 13.88 56.984 0.06 6.77 103.83 3.21
11/6/2022 11:45:00 PM 13.88 56.984 0.06 6.77 103.79 3.25
11/7/2022 12:00:00 AM 13.88 56.984 0.06 6.77 103.8 3.29
11/7/2022 12:15:00 AM 13.88 56.984 0.06 6.77 103.8 3.33
11/7/2022 12:30:00 AM 13.87 56.966 0.06 6.77 103.85 3.38
11/7/2022 12:45:00 AM 13.86 56.948 0.06 6.77 103.82 3.43
11/7/2022 1:00:00 AM 13.85 56.93 0.06 6.77 103.83 3.47
11/7/2022 1:15:00 AM 13.84 56.912 0.06 6.76 103.83 3.48
11/7/2022 1:30:00 AM 13.82 56.876 0.06 6.77 103.7 3.47
11/7/2022 1:45:00 AM 13.81 56.858 0.06 6.77 103.67 3.48
11/7/2022 2:00:00 AM 13.79 56.822 0.06 6.77 103.7 3.47
11/7/2022 2:15:00 AM 13.77 56.786 0.06 6.77 103.67 3.45
11/7/2022 2:30:00 AM 13.75 56.75 0.06 6.77 103.73 3.45
11/7/2022 2:45:00 AM 13.73 56.714 0.06 6.77 103.69 3.44
11/7/2022 3:00:00 AM 13.71 56.678 0.06 6.77 103.64 3.42
11/7/2022 3:15:00 AM 13.69 56.642 0.06 6.77 103.63 3.41
11/7/2022 3:30:00 AM 13.66 56.588 0.06 6.77 103.63 3.4
11/7/2022 3:45:00 AM 13.64 56.552 0.06 6.77 103.7 3.41
11/7/2022 4:00:00 AM 13.62 56.516 0.06 6.77 103.65 3.42
11/7/2022 4:15:00 AM 13.59 56.462 0.06 6.77 103.69 3.43
11/7/2022 4:30:00 AM 13.56 56.408 0.06 6.77 103.58 3.46
11/7/2022 4:45:00 AM 13.53 56.354 0.06 6.77 103.6 3.49
11/7/2022 5:00:00 AM 13.5 56.3 0.06 6.77 103.61 3.54
11/7/2022 5:15:00 AM 13.47 56.246 0.06 6.78 103.6 3.6
11/7/2022 5:30:00 AM 13.44 56.192 0.06 6.78 103.55 3.64
11/7/2022 5:45:00 AM 13.4 56.12 0.06 6.78 103.5 3.67
11/7/2022 6:00:00 AM 13.36 56.048 0.06 6.78 103.5 3.7
11/7/2022 6:15:00 AM 13.32 55.976 0.06 6.78 103.51 3.71
11/7/2022 6:30:00 AM 13.27 55.886 0.06 6.77 103.38 3.72
11/7/2022 6:45:00 AM 13.22 55.796 0.06 6.78 103.43 3.73
11/7/2022 7:00:00 AM 13.17 55.706 0.06 6.78 103.42 3.73
11/7/2022 7:15:00 AM 13.12 55.616 0.06 6.78 103.43 3.75
11/7/2022 7:30:00 AM 13.06 55.508 0.06 6.78 103.45 3.76
11/7/2022 7:45:00 AM 13.01 55.418 0.06 6.78 103.44 3.77
11/7/2022 8:00:00 AM 12.95 55.31 0.06 6.78 103.41 3.79
11/7/2022 8:15:00 AM 12.9 55.22 0.06 6.79 103.46 3.8
11/7/2022 8:30:00 AM 12.84 55.112 0.06 6.78 103.41 3.82
11/7/2022 8:45:00 AM 12.79 55.022 0.06 6.79 103.36 3.85
11/7/2022 9:00:00 AM 12.74 54.932 0.06 6.78 103.29 3.9
11/7/2022 9:15:00 AM 12.7 54.86 0.06 6.79 103.23 3.95
11/7/2022 9:30:00 AM 12.67 54.806 0.06 6.79 103.3 4.02
11/7/2022 9:45:00 AM 12.64 54.752 0.06 6.79 103.28 4.11
11/7/2022 10:00:00 AM 12.62 54.716 0.06 6.79 103.19 4.26
11/7/2022 10:15:00 AM 12.61 54.698 0.06 6.79 103.22 4.43
11/7/2022 10:30:00 AM 12.62 54.716 0.06 6.79 103.22 4.56
11/7/2022 10:45:00 AM 12.63 54.734 0.06 6.79 103.25 4.65
11/7/2022 11:00:00 AM 12.65 54.77 0.06 6.79 103.2 4.72
11/7/2022 11:15:00 AM 12.68 54.824 0.06 6.79 103.27 4.78
11/7/2022 11:30:00 AM 12.72 54.896 0.06 6.79 103.22 4.84
11/7/2022 11:45:00 AM 12.77 54.986 0.06 6.79 103.3 4.87
11/7/2022 12:00:00 PM 12.82 55.076 0.06 6.79 103.29 4.92
11/7/2022 12:15:00 PM 12.89 55.202 0.06 6.79 103.27 4.95
11/7/2022 12:30:00 PM 12.96 55.328 0.06 6.79 103.17 5.01
11/7/2022 12:45:00 PM 13.05 55.49 0.06 6.79 103.2 5.06
11/7/2022 1:00:00 PM 13.15 55.67 0.06 6.79 103.24 5.09
11/7/2022 1:15:00 PM 13.26 55.868 0.06 6.78 103.26 5.08
11/7/2022 1:30:00 PM 13.36 56.048 0.06 6.78 103.32 5.07
11/7/2022 1:45:00 PM 13.46 56.228 0.06 6.78 103.25 5.08
11/7/2022 2:00:00 PM 13.55 56.39 0.06 6.78 103.22 5.1
11/7/2022 2:15:00 PM 13.64 56.552 0.06 6.78 103.16 5.12
11/7/2022 2:30:00 PM 13.7 56.66 0.06 6.78 103.24 5.16
11/7/2022 2:45:00 PM 13.76 56.768 0.06 6.78 103.21 5.22
11/7/2022 3:00:00 PM 13.8 56.84 0.06 6.78 103.15 5.25
11/7/2022 3:15:00 PM 13.83 56.894 0.06 6.78 103.16 5.27
11/7/2022 3:30:00 PM 13.84 56.912 0.06 6.78 103.06 5.27
11/7/2022 3:45:00 PM 13.83 56.894 0.06 6.78 102.97 5.27
11/7/2022 4:00:00 PM 13.8 56.84 0.06 6.78 102.96 5.29
11/7/2022 4:15:00 PM 13.76 56.768 0.06 6.78 103.01 5.3
11/7/2022 4:30:00 PM 13.7 56.66 0.06 6.79 103.07 5.33
11/7/2022 4:45:00 PM 13.62 56.516 0.06 6.79 103.11 5.34
11/7/2022 5:00:00 PM 13.54 56.372 0.06 6.79 103.03 5.35
11/7/2022 5:15:00 PM 13.44 56.192 0.059 6.79 102.98 5.33
11/7/2022 5:30:00 PM 13.33 55.994 0.059 6.79 102.9 5.28
11/7/2022 5:45:00 PM 13.21 55.778 0.059 6.79 102.92 5.2
11/7/2022 6:00:00 PM 13.09 55.562 0.059 6.79 102.95 5.12
11/7/2022 6:15:00 PM 12.97 55.346 0.059 6.79 102.96 4.99
11/7/2022 6:30:00 PM 12.85 55.13 0.059 6.79 102.87 4.84
11/7/2022 6:45:00 PM 12.73 54.914 0.059 6.79 102.77 4.7
11/7/2022 7:00:00 PM 12.61 54.698 0.059 6.79 102.78 4.58
11/7/2022 7:15:00 PM 12.49 54.482 0.059 6.8 102.82 4.48
11/7/2022 7:30:00 PM 12.37 54.266 0.059 6.8 102.77 4.4
11/7/2022 7:45:00 PM 12.26 54.068 0.059 6.8 102.77 4.35
11/7/2022 8:00:00 PM 12.15 53.87 0.059 6.8 102.67 4.31
11/7/2022 8:15:00 PM 12.05 53.69 0.059 6.8 102.66 4.28
11/7/2022 8:30:00 PM 11.94 53.492 0.059 6.8 102.66 4.28
11/7/2022 8:45:00 PM 11.84 53.312 0.058 6.8 102.7 4.28
11/7/2022 9:00:00 PM 11.74 53.132 0.058 6.8 102.66 4.29
11/7/2022 9:15:00 PM 11.65 52.97 0.058 6.8 102.66 4.32
11/7/2022 9:30:00 PM 11.56 52.808 0.058 6.81 102.66 4.33
11/7/2022 9:45:00 PM 11.47 52.646 0.058 6.81 102.57 4.35
11/7/2022 10:00:00 PM 11.39 52.502 0.058 6.81 102.63 4.38
11/7/2022 10:15:00 PM 11.31 52.358 0.058 6.81 102.63 4.42
11/7/2022 10:30:00 PM 11.23 52.214 0.058 6.81 102.58 4.45
11/7/2022 10:45:00 PM 11.15 52.07 0.058 6.81 102.59 4.48
11/7/2022 11:00:00 PM 11.07 51.926 0.058 6.81 102.55 4.52
11/7/2022 11:15:00 PM 10.99 51.782 0.058 6.81 102.54 4.57
11/7/2022 11:30:00 PM 10.92 51.656 0.058 6.82 102.53 4.62
11/7/2022 11:45:00 PM 10.84 51.512 0.058 6.81 102.47 4.67
11/8/2022 12:00:00 AM 10.77 51.386 0.058 6.82 102.51 4.72
11/8/2022 12:15:00 AM 10.7 51.26 0.058 6.82 102.48 4.75
11/8/2022 12:30:00 AM 10.62 51.116 0.058 6.82 102.54 4.77
11/8/2022 12:45:00 AM 10.55 50.99 0.058 6.82 102.49 4.79
11/8/2022 1:00:00 AM 10.48 50.864 0.058 6.82 102.5 4.79
11/8/2022 1:15:00 AM 10.41 50.738 0.058 6.83 102.42 4.8
11/8/2022 1:30:00 AM 10.34 50.612 0.058 6.83 102.38 4.82
11/8/2022 1:45:00 AM 10.27 50.486 0.058 6.83 102.33 4.83
11/8/2022 2:00:00 AM 10.19 50.342 0.058 6.83 102.31 4.85
11/8/2022 2:15:00 AM 10.12 50.216 0.058 6.83 102.28 4.87
11/8/2022 2:30:00 AM 10.05 50.09 0.058 6.83 102.29 4.91
11/8/2022 2:45:00 AM 9.99 49.982 0.058 6.83 102.33 4.94
11/8/2022 3:00:00 AM 9.92 49.856 0.058 6.84 102.39 4.99
11/8/2022 3:15:00 AM 9.85 49.73 0.058 6.84 102.35 5.03
11/8/2022 3:30:00 AM 9.79 49.622 0.058 6.84 102.26 5.07
11/8/2022 3:45:00 AM 9.73 49.514 0.058 6.84 102.25 5.12
11/8/2022 4:00:00 AM 9.67 49.406 0.058 6.84 102.22 5.17
11/8/2022 4:15:00 AM 9.61 49.298 0.058 6.84 102.19 5.22
11/8/2022 4:30:00 AM 9.55 49.19 0.058 6.84 102.16 5.25
11/8/2022 4:45:00 AM 9.49 49.082 0.058 6.84 102.13 5.25
11/8/2022 5:00:00 AM 9.44 48.992 0.058 6.84 102.15 5.22
11/8/2022 5:15:00 AM 9.39 48.902 0.058 6.84 102.2 5.15
11/8/2022 5:30:00 AM 9.33 48.794 0.058 6.85 102.26 5.08
11/8/2022 5:45:00 AM 9.28 48.704 0.058 6.85 102.2 5.03
11/8/2022 6:00:00 AM 9.23 48.614 0.058 6.85 102.16 5.02
11/8/2022 6:15:00 AM 9.18 48.524 0.058 6.85 102.19 5.03
11/8/2022 6:30:00 AM 9.12 48.416 0.058 6.85 102.18 5.07
11/8/2022 6:45:00 AM 9.07 48.326 0.058 6.85 102.18 5.12
11/8/2022 7:00:00 AM 9.02 48.236 0.058 6.85 102.15 5.17
11/8/2022 7:15:00 AM 8.97 48.146 0.058 6.85 102.14 5.21
11/8/2022 7:30:00 AM 8.92 48.056 0.058 6.85 102.15 5.26
11/8/2022 7:45:00 AM 8.87 47.966 0.058 6.85 102.08 5.3
11/8/2022 8:00:00 AM 8.82 47.876 0.058 6.85 102.12 5.34
11/8/2022 8:15:00 AM 8.77 47.786 0.058 6.86 102.12 5.39
11/8/2022 8:30:00 AM 8.73 47.714 0.058 6.86 102.03 5.45
11/8/2022 8:45:00 AM 8.69 47.642 0.058 6.86 102.03 5.52
11/8/2022 9:00:00 AM 8.66 47.588 0.058 6.86 102.11 5.59
11/8/2022 9:15:00 AM 8.63 47.534 0.058 6.86 102.13 5.66
11/8/2022 9:30:00 AM 8.6 47.48 0.058 6.86 102.16 5.75
11/8/2022 9:45:00 AM 8.59 47.462 0.058 6.86 102.08 5.85
11/8/2022 10:00:00 AM 8.58 47.444 0.058 6.86 102.09 5.96
11/8/2022 10:15:00 AM 8.59 47.462 0.058 6.86 102.11 6.06
11/8/2022 10:30:00 AM 8.6 47.48 0.058 6.86 102.1 6.17
11/8/2022 10:45:00 AM 8.63 47.534 0.058 6.86 102.05 6.27
11/8/2022 11:00:00 AM 8.66 47.588 0.058 6.86 101.98 6.38
11/8/2022 11:15:00 AM 8.7 47.66 0.058 6.89 102.02 6.49
11/8/2022 11:30:00 AM 8.75 47.75 0.058 6.86 101.98 6.59
11/8/2022 11:45:00 AM 8.81 47.858 0.058 6.86 101.96 6.68
11/8/2022 12:00:00 PM 8.88 47.984 0.058 6.86 102.01 6.78
11/8/2022 12:15:00 PM 8.95 48.11 0.058 6.86 102.07 6.85
11/8/2022 12:30:00 PM 9.04 48.272 0.058 6.86 102.01 6.92
11/8/2022 12:45:00 PM 9.14 48.452 0.058 6.86 101.94 6.98
11/8/2022 1:00:00 PM 9.25 48.65 0.058 6.86 101.96 7.05
11/8/2022 1:15:00 PM 9.37 48.866 0.058 6.86 101.98 7.1
11/8/2022 1:30:00 PM 9.49 49.082 0.058 6.86 102.12 7.12
11/8/2022 1:45:00 PM 9.61 49.298 0.058 6.86 102.1 7.15
11/8/2022 2:00:00 PM 9.73 49.514 0.058 6.86 102 7.16
11/8/2022 2:15:00 PM 9.83 49.694 0.058 6.86 102.01 7.16
11/8/2022 2:30:00 PM 9.93 49.874 0.058 6.86 102.09 7.14
11/8/2022 2:45:00 PM 10.01 50.018 0.058 6.86 102.08 7.09
11/8/2022 3:00:00 PM 10.08 50.144 0.058 6.86 102.11 7.04
11/8/2022 3:15:00 PM 10.14 50.252 0.058 6.86 102.13 6.97
11/8/2022 3:30:00 PM 10.17 50.306 0.059 6.86 102.18 6.89
11/8/2022 3:45:00 PM 10.2 50.36 0.059 6.86 102.14 6.82
11/8/2022 4:00:00 PM 10.2 50.36 0.058 6.86 102.05 6.77
11/8/2022 4:15:00 PM 10.18 50.324 0.059 6.86 102.11 6.74
11/8/2022 4:30:00 PM 10.14 50.252 0.059 6.86 102.04 6.72
11/8/2022 4:45:00 PM 10.09 50.162 0.059 6.86 101.92 6.7
11/8/2022 5:00:00 PM 10.03 50.054 0.059 6.86 101.98 6.69
11/8/2022 5:15:00 PM 9.96 49.928 0.059 6.86 102.01 6.68
11/8/2022 5:30:00 PM 9.88 49.784 0.058 6.86 102.04 6.64
11/8/2022 5:45:00 PM 9.79 49.622 0.058 6.86 102.04 6.59
11/8/2022 6:00:00 PM 9.7 49.46 0.058 6.86 101.9 6.57
11/8/2022 6:15:00 PM 9.61 49.298 0.058 6.86 101.92 6.55
11/8/2022 6:30:00 PM 9.51 49.118 0.058 6.86 101.9 6.58
11/8/2022 6:45:00 PM 9.42 48.956 0.058 6.86 101.88 6.62
11/8/2022 7:00:00 PM 9.32 48.776 0.058 6.86 101.93 6.78
11/8/2022 7:15:00 PM 9.22 48.596 0.058 6.86 101.94 7
11/8/2022 7:30:00 PM 9.13 48.434 0.058 6.86 101.88 7.2
11/8/2022 7:45:00 PM 9.04 48.272 0.057 6.86 101.79 7.4
11/8/2022 8:00:00 PM 8.95 48.11 0.057 6.86 101.81 7.56
11/8/2022 8:15:00 PM 8.86 47.948 0.057 6.86 101.74 7.72
11/8/2022 8:30:00 PM 8.78 47.804 0.057 6.86 101.77 7.89
11/8/2022 8:45:00 PM 8.7 47.66 0.057 6.86 101.8 7.99
11/8/2022 9:00:00 PM 8.63 47.534 0.057 6.86 101.82 8.07
11/8/2022 9:15:00 PM 8.56 47.408 0.056 6.86 101.85 8.14
11/8/2022 9:30:00 PM 8.49 47.282 0.056 6.86 101.81 8.21
11/8/2022 9:45:00 PM 8.43 47.174 0.056 6.86 101.81 8.27
11/8/2022 10:00:00 PM 8.36 47.048 0.056 6.86 101.74 8.33
11/8/2022 10:15:00 PM 8.3 46.94 0.056 6.86 101.82 8.38
11/8/2022 10:30:00 PM 8.24 46.832 0.056 6.86 101.67 8.42
11/8/2022 10:45:00 PM 8.17 46.706 0.056 6.86 101.78 8.45
11/8/2022 11:00:00 PM 8.11 46.598 0.056 6.86 101.74 8.47
11/8/2022 11:15:00 PM 8.04 46.472 0.056 6.87 101.79 8.48
11/8/2022 11:30:00 PM 7.98 46.364 0.055 6.86 101.79 8.54
11/8/2022 11:45:00 PM 7.92 46.256 0.055 6.87 101.74 8.61
11/9/2022 12:00:00 AM 7.85 46.13 0.055 6.87 101.77 8.71
11/9/2022 12:15:00 AM 7.79 46.022 0.055 6.87 101.71 8.86
11/9/2022 12:30:00 AM 7.72 45.896 0.055 6.87 101.76 8.99
11/9/2022 12:45:00 AM 7.65 45.77 0.055 6.87 101.72 9.11
11/9/2022 1:00:00 AM 7.58 45.644 0.055 6.88 101.6 9.25
11/9/2022 1:15:00 AM 7.51 45.518 0.055 6.88 101.59 9.35
11/9/2022 1:30:00 AM 7.45 45.41 0.054 6.88 101.67 9.43
11/9/2022 1:45:00 AM 7.38 45.284 0.054 6.88 101.74 9.51
11/9/2022 2:00:00 AM 7.31 45.158 0.054 6.88 101.76 9.57
11/9/2022 2:15:00 AM 7.24 45.032 0.054 6.88 101.81 9.65
11/9/2022 2:30:00 AM 7.18 44.924 0.054 6.88 101.83 9.7
11/9/2022 2:45:00 AM 7.11 44.798 0.054 6.88 101.76 9.72
11/9/2022 3:00:00 AM 7.05 44.69 0.054 6.88 101.75 9.75
11/9/2022 3:15:00 AM 6.98 44.564 0.054 6.89 101.79 9.8
11/9/2022 3:30:00 AM 6.92 44.456 0.054 6.89 101.83 9.85
11/9/2022 3:45:00 AM 6.86 44.348 0.054 6.88 101.75 9.91
11/9/2022 4:00:00 AM 6.8 44.24 0.054 6.89 101.79 9.95
11/9/2022 4:15:00 AM 6.74 44.132 0.054 6.89 101.81 9.98
11/9/2022 4:30:00 AM 6.68 44.024 0.054 6.89 101.83 10.01
11/9/2022 4:45:00 AM 6.62 43.916 0.054 6.89 101.85 10.04
11/9/2022 5:00:00 AM 6.57 43.826 0.053 6.89 101.88 10.08
11/9/2022 5:15:00 AM 6.51 43.718 0.053 6.89 101.91 10.09
11/9/2022 5:30:00 AM 6.46 43.628 0.053 6.89 101.9 10.08
11/9/2022 5:45:00 AM 6.4 43.52 0.053 6.89 101.91 10.08
11/9/2022 6:00:00 AM 6.35 43.43 0.053 6.9 101.93 10.12
11/9/2022 6:15:00 AM 6.29 43.322 0.053 6.94 101.9 10.17
11/9/2022 6:30:00 AM 6.24 43.232 0.053 6.92 101.92 10.22
11/9/2022 6:45:00 AM 6.18 43.124 0.053 6.9 101.99 10.27
11/9/2022 7:00:00 AM 6.13 43.034 0.053 6.9 102.04 10.32
11/9/2022 7:15:00 AM 6.07 42.926 0.053 6.9 102.07 10.4
11/9/2022 7:30:00 AM 6 42.8 0.053 6.92 102.14 10.52
11/9/2022 7:45:00 AM 5.94 42.692 0.053 6.89 102.05 10.64
11/9/2022 8:00:00 AM 5.89 42.602 0.053 6.9 102.12 10.74
11/9/2022 8:15:00 AM 5.84 42.512 0.053 6.88 102.11 10.84
11/9/2022 8:30:00 AM 5.79 42.422 0.053 6.9 102.15 10.95
11/9/2022 8:45:00 AM 5.76 42.368 0.053 6.9 102.18 11.08
11/9/2022 9:00:00 AM 5.72 42.296 0.053 6.9 102.19 11.21
11/9/2022 9:15:00 AM 5.7 42.26 0.053 6.91 102.22 11.32
11/9/2022 9:30:00 AM 5.69 42.242 0.053 6.91 102.23 11.41
11/9/2022 9:45:00 AM 5.7 42.26 0.053 6.91 102.32 11.51
11/9/2022 10:00:00 AM 5.73 42.314 0.053 6.91 102.45 11.63
11/9/2022 10:15:00 AM 5.77 42.386 0.053 6.91 102.55 11.72
11/9/2022 10:30:00 AM 5.82 42.476 0.053 6.91 102.67 11.81
11/9/2022 10:45:00 AM 5.88 42.584 0.052 6.91 102.64 11.87
11/9/2022 11:00:00 AM 5.96 42.728 0.052 6.91 102.63 11.92
11/9/2022 11:15:00 AM 6.04 42.872 0.052 6.91 102.68 11.97
11/9/2022 11:30:00 AM 6.15 43.07 0.052 6.92 102.74 12.02
11/9/2022 11:45:00 AM 6.26 43.268 0.052 6.92 102.88 12.06
11/9/2022 12:00:00 PM 6.37 43.466 0.052 6.92 102.98 12.08
11/9/2022 12:15:00 PM 6.5 43.7 0.052 6.91 103.04 12.09
11/9/2022 12:30:00 PM 6.63 43.934 0.052 6.92 103.08 12.1
11/9/2022 12:45:00 PM 6.78 44.204 0.052 6.92 103.13 12.09
11/9/2022 1:00:00 PM 6.94 44.492 0.052 6.92 103.16 12.09
11/9/2022 1:15:00 PM 7.11 44.798 0.052 6.92 103.26 12.06
11/9/2022 1:30:00 PM 7.28 45.104 0.052 6.92 103.44 12.03
11/9/2022 1:45:00 PM 7.45 45.41 0.052 6.92 103.58 12
11/9/2022 2:00:00 PM 7.61 45.698 0.052 6.91 103.71 11.95
11/9/2022 2:15:00 PM 7.75 45.95 0.052 6.92 103.87 11.9
11/9/2022 2:30:00 PM 7.87 46.166 0.052 6.92 103.8 11.84
11/9/2022 2:45:00 PM 7.97 46.346 0.052 6.92 103.79 11.76
11/9/2022 3:00:00 PM 8.05 46.49 0.052 6.91 103.98 11.69
11/9/2022 3:15:00 PM 8.11 46.598 0.052 6.91 103.91 11.63
11/9/2022 3:30:00 PM 8.15 46.67 0.052 6.91 104.1 11.58
11/9/2022 3:45:00 PM 8.18 46.724 0.052 6.91 104.66 11.53
11/9/2022 4:00:00 PM 8.19 46.742 0.052 6.91 104.73 11.47
11/9/2022 4:15:00 PM 8.19 46.742 0.052 6.91 104.81 11.4
11/9/2022 4:30:00 PM 8.17 46.706 0.052 6.91 104.86 11.33
11/9/2022 4:45:00 PM 8.15 46.67 0.052 6.91 104.89 11.25
11/9/2022 5:00:00 PM 8.11 46.598 0.052 6.91 104.92 11.16
11/9/2022 5:15:00 PM 8.07 46.526 0.052 6.91 104.93 11.07
11/9/2022 5:30:00 PM 8.01 46.418 0.052 6.91 105.03 10.97
11/9/2022 5:45:00 PM 7.95 46.31 0.052 6.91 105.12 10.86
11/9/2022 6:00:00 PM 7.89 46.202 0.052 6.91 105.06 10.75
11/9/2022 6:15:00 PM 7.83 46.094 0.052 6.91 105.25 10.65
11/9/2022 6:30:00 PM 7.76 45.968 0.052 6.91 105.16 10.56
11/9/2022 6:45:00 PM 7.7 45.86 0.052 6.91 105.34 10.51
11/9/2022 7:00:00 PM 7.63 45.734 0.052 6.91 105.33 10.45
11/9/2022 7:15:00 PM 7.56 45.608 0.052 6.91 105.41 10.38
11/9/2022 7:30:00 PM 7.49 45.482 0.052 6.91 105.48 10.35
11/9/2022 7:45:00 PM 7.43 45.374 0.052 6.91 105.58 10.33
11/9/2022 8:00:00 PM 7.37 45.266 0.052 6.91 105.7 10.32
11/9/2022 8:15:00 PM 7.31 45.158 0.052 6.91 105.57 10.31
11/9/2022 8:30:00 PM 7.25 45.05 0.052 6.91 105.72 10.3
11/9/2022 8:45:00 PM 7.19 44.942 0.052 6.91 105.86 10.31
11/9/2022 9:00:00 PM 7.14 44.852 0.052 6.91 105.97 10.32
11/9/2022 9:15:00 PM 7.08 44.744 0.052 6.91 106.18 10.32
11/9/2022 9:30:00 PM 7.03 44.654 0.052 6.91 106.14 10.33
11/9/2022 9:45:00 PM 6.98 44.564 0.052 6.91 106.18 10.35
11/9/2022 10:00:00 PM 6.93 44.474 0.052 6.91 106.48 10.37
11/9/2022 10:15:00 PM 6.89 44.402 0.052 6.91 106.55 10.38
11/9/2022 10:30:00 PM 6.84 44.312 0.052 6.91 106.47 10.39
11/9/2022 10:45:00 PM 6.8 44.24 0.052 6.91 106.94 10.41
11/9/2022 11:00:00 PM 6.76 44.168 0.052 6.91 106.67 10.41
11/9/2022 11:15:00 PM 6.72 44.096 0.052 6.91 106.96 10.42
11/9/2022 11:30:00 PM 6.69 44.042 0.052 6.91 106.98 10.43
11/9/2022 11:45:00 PM 6.65 43.97 0.052 6.91 107.19 10.44
11/10/2022 12:00:00 AM 6.61 43.898 0.052 6.91 107.27 10.43
11/10/2022 12:15:00 AM 6.58 43.844 0.053 6.91 107.45 10.46
11/10/2022 12:30:00 AM 6.54 43.772 0.052 6.91 107.46 10.47
11/10/2022 12:45:00 AM 6.5 43.7 0.053 6.91 107.56 10.49
11/10/2022 1:00:00 AM 6.46 43.628 0.053 6.91 107.84 10.52
11/10/2022 1:15:00 AM 6.42 43.556 0.053 6.91 107.83 10.55
11/10/2022 1:30:00 AM 6.38 43.484 0.053 6.91 107.92 10.57
11/10/2022 1:45:00 AM 6.35 43.43 0.053 6.91 108.18 10.58
11/10/2022 2:00:00 AM 6.32 43.376 0.053 6.91 108.22 10.58
11/10/2022 2:15:00 AM 6.28 43.304 0.053 6.91 108.3 10.59
11/10/2022 2:30:00 AM 6.25 43.25 0.053 6.91 108.38 10.59
11/10/2022 2:45:00 AM 6.21 43.178 0.053 6.91 108.34 10.61
11/10/2022 3:00:00 AM 6.18 43.124 0.053 6.91 108.44 10.62
11/10/2022 3:15:00 AM 6.14 43.052 0.053 6.92 108.6 10.63
11/10/2022 3:30:00 AM 6.11 42.998 0.053 6.92 108.71 10.64
11/10/2022 3:45:00 AM 6.07 42.926 0.053 6.91 108.71 10.67
11/10/2022 4:00:00 AM 6.04 42.872 0.053 6.92 108.82 10.68
11/10/2022 4:15:00 AM 6 42.8 0.053 6.92 108.97 10.69
11/10/2022 4:30:00 AM 5.96 42.728 0.053 6.92 108.96 10.7
11/10/2022 4:45:00 AM 5.92 42.656 0.053 6.92 109.14 10.72
11/10/2022 5:00:00 AM 5.89 42.602 0.053 6.92 109.27 10.73
11/10/2022 5:15:00 AM 5.86 42.548 0.053 6.92 109.23 10.74
11/10/2022 5:30:00 AM 5.82 42.476 0.053 6.92 109.48 10.76
11/10/2022 5:45:00 AM 5.79 42.422 0.053 6.92 109.53 10.78
11/10/2022 6:00:00 AM 5.76 42.368 0.053 6.92 109.53 10.8
11/10/2022 6:15:00 AM 5.74 42.332 0.053 6.92 109.74 10.82
11/10/2022 6:30:00 AM 5.71 42.278 0.053 6.92 109.7 10.83
11/10/2022 6:45:00 AM 5.68 42.224 0.053 6.92 109.81 10.84
11/10/2022 7:00:00 AM 5.65 42.17 0.053 6.92 109.94 10.85
11/10/2022 7:15:00 AM 5.63 42.134 0.053 6.92 109.88 10.86
11/10/2022 7:30:00 AM 5.61 42.098 0.053 6.92 109.86 10.88
11/10/2022 7:45:00 AM 5.58 42.044 0.053 6.92 109.89 10.9
11/10/2022 8:00:00 AM 5.56 42.008 0.053 6.92 109.98 10.94
11/10/2022 8:15:00 AM 5.55</